<?xml version="1.0" encoding="UTF-8"?>
<gpx version="1.1" creator="2bulu-scraper" xmlns="http://www.topografix.com/GPX/1/1">
  <metadata><name>宜宾市兴文县凌霄城19公里环线</name><desc>source: 2bulu.com trackId=73618843; exported 2026-08-30T14:27:14.248Z</desc></metadata>
  <wpt lat="28.2770705" lon="105.046963"><ele>442</ele><name>桫椤谷，溪流
        </name></wpt>
  <wpt lat="28.2719401" lon="105.0456263"><ele>512</ele><name>打卡点 瀑布
        </name></wpt>
  <wpt lat="28.2739929" lon="105.0462993"><ele>550</ele><name>农家屋，可以当做休整点
        </name></wpt>
  <wpt lat="28.2668707" lon="105.0474619"><ele>608</ele><name>水泥路转小路
        </name></wpt>
  <wpt lat="28.2667554" lon="105.0470651"><ele>609</ele><name>过小桥后顺溪而上
        </name></wpt>
  <wpt lat="28.2662719" lon="105.0465822"><ele>622</ele><name>百年桂花树
        </name></wpt>
  <wpt lat="28.2653374" lon="105.0468145"><ele>634</ele><name>打野 竹荪蛋
        </name></wpt>
  <wpt lat="28.2638489" lon="105.0466101"><ele>621</ele><name>顺着水渠走
        </name></wpt>
  <wpt lat="28.2617245" lon="105.0464597"><ele>630</ele><name>
        </name></wpt>
  <wpt lat="28.2593674" lon="105.047207"><ele>680</ele><name>碎石小路
        </name></wpt>
  <wpt lat="28.2560105" lon="105.0472456"><ele>728</ele><name>转小路爬升
        </name></wpt>
  <wpt lat="28.2546595" lon="105.0441733"><ele>859</ele><name>碎石马路
        </name></wpt>
  <wpt lat="28.2558844" lon="105.0433137"><ele>928</ele><name>转竹林小路
        </name></wpt>
  <wpt lat="28.2566937" lon="105.0419988"><ele>956</ele><name>沿僰王古道前行
        </name></wpt>
  <wpt lat="28.2584762" lon="105.0386923"><ele>981</ele><name>平缓碎石路
        </name></wpt>
  <wpt lat="28.2662866" lon="105.0330787"><ele>1066</ele><name>茶园
        </name></wpt>
  <wpt lat="28.2698628" lon="105.0241105"><ele>1017</ele><name>路口右转向下走
        </name></wpt>
  <wpt lat="28.2784022" lon="105.0222203"><ele>910</ele><name>转小路
        </name></wpt>
  <wpt lat="28.2817215" lon="105.0220892"><ele>934</ele><name>临崖小路
        </name></wpt>
  <wpt lat="28.2818195" lon="105.0223029"><ele>945</ele><name>凌霄城打卡点
        </name></wpt>
  <wpt lat="28.2835911" lon="105.0237018"><ele>954</ele><name>凌霄城古庙遗址
        </name></wpt>
  <wpt lat="28.2838988" lon="105.0223836"><ele>926</ele><name>48道拐，陡，慢行
        </name></wpt>
  <wpt lat="28.2844675" lon="105.0207642"><ele>785</ele><name>宋代石刻

        </name></wpt>
  <wpt lat="28.2857211" lon="105.0171964"><ele>595</ele><name>蛮洞子
        </name></wpt>
  <wpt lat="28.2866536" lon="105.0173929"><ele>599</ele><name>公共厕所
        </name></wpt>
  <wpt lat="28.2942993" lon="105.0302475"><ele>451</ele><name>石板小路

        </name></wpt>
  <trk><name>宜宾市兴文县凌霄城19公里环线</name>
      <trkseg>
        <trkpt lat="28.2958651" lon="105.0332163"><ele>381.83</ele><time>2025-10-24T17:19:46.000Z</time></trkpt>
        <trkpt lat="28.295844" lon="105.033317"><ele>381.83</ele><time>2025-10-24T17:19:58.000Z</time></trkpt>
        <trkpt lat="28.2958221" lon="105.0334203"><ele>381.64</ele><time>2025-10-24T17:20:10.000Z</time></trkpt>
        <trkpt lat="28.295785" lon="105.0335212"><ele>380.56</ele><time>2025-10-24T17:20:18.000Z</time></trkpt>
        <trkpt lat="28.2957419" lon="105.0336332"><ele>380.09</ele><time>2025-10-24T17:20:26.000Z</time></trkpt>
        <trkpt lat="28.2956681" lon="105.033749"><ele>383.74</ele><time>2025-10-24T17:20:34.000Z</time></trkpt>
        <trkpt lat="28.2956222" lon="105.0338696"><ele>385.92</ele><time>2025-10-24T17:20:42.000Z</time></trkpt>
        <trkpt lat="28.295593" lon="105.0339892"><ele>387.17</ele><time>2025-10-24T17:20:48.000Z</time></trkpt>
        <trkpt lat="28.29558" lon="105.0340654"><ele>390.78</ele><time>2025-10-24T17:20:50.000Z</time></trkpt>
        <trkpt lat="28.2955393" lon="105.0341488"><ele>392.91</ele><time>2025-10-24T17:20:56.000Z</time></trkpt>
        <trkpt lat="28.2955227" lon="105.0342502"><ele>394.22</ele><time>2025-10-24T17:21:04.000Z</time></trkpt>
        <trkpt lat="28.2955531" lon="105.0343696"><ele>393.07</ele><time>2025-10-24T17:21:14.000Z</time></trkpt>
        <trkpt lat="28.2955596" lon="105.0344284"><ele>382.7</ele><time>2025-10-24T17:21:16.000Z</time></trkpt>
        <trkpt lat="28.2955253" lon="105.0345109"><ele>376.63</ele><time>2025-10-24T17:21:22.000Z</time></trkpt>
        <trkpt lat="28.2954682" lon="105.0346077"><ele>378.11</ele><time>2025-10-24T17:21:30.000Z</time></trkpt>
        <trkpt lat="28.2953955" lon="105.0346867"><ele>379.09</ele><time>2025-10-24T17:21:38.000Z</time></trkpt>
        <trkpt lat="28.2953096" lon="105.0347461"><ele>375.05</ele><time>2025-10-24T17:21:46.000Z</time></trkpt>
        <trkpt lat="28.2952285" lon="105.0348191"><ele>373.05</ele><time>2025-10-24T17:21:54.000Z</time></trkpt>
        <trkpt lat="28.2951504" lon="105.034901"><ele>372.21</ele><time>2025-10-24T17:22:04.000Z</time></trkpt>
        <trkpt lat="28.295069" lon="105.0349847"><ele>374.85</ele><time>2025-10-24T17:22:14.000Z</time></trkpt>
        <trkpt lat="28.295004" lon="105.035091"><ele>376.38</ele><time>2025-10-24T17:22:26.000Z</time></trkpt>
        <trkpt lat="28.2949699" lon="105.0351948"><ele>377.13</ele><time>2025-10-24T17:22:34.000Z</time></trkpt>
        <trkpt lat="28.2949407" lon="105.0352947"><ele>377.07</ele><time>2025-10-24T17:22:42.000Z</time></trkpt>
        <trkpt lat="28.2948867" lon="105.0353738"><ele>377.16</ele><time>2025-10-24T17:22:52.000Z</time></trkpt>
        <trkpt lat="28.2948238" lon="105.0354751"><ele>377.35</ele><time>2025-10-24T17:23:00.000Z</time></trkpt>
        <trkpt lat="28.2947556" lon="105.0355736"><ele>377.42</ele><time>2025-10-24T17:23:08.000Z</time></trkpt>
        <trkpt lat="28.2946944" lon="105.0356654"><ele>378.03</ele><time>2025-10-24T17:23:14.000Z</time></trkpt>
        <trkpt lat="28.2946268" lon="105.0357413"><ele>378.5</ele><time>2025-10-24T17:23:22.000Z</time></trkpt>
        <trkpt lat="28.2945583" lon="105.0358204"><ele>378.6</ele><time>2025-10-24T17:23:30.000Z</time></trkpt>
        <trkpt lat="28.2944942" lon="105.0359399"><ele>378.56</ele><time>2025-10-24T17:23:38.000Z</time></trkpt>
        <trkpt lat="28.2944669" lon="105.0360661"><ele>379.1</ele><time>2025-10-24T17:23:44.000Z</time></trkpt>
        <trkpt lat="28.2944784" lon="105.0362119"><ele>383.63</ele><time>2025-10-24T17:23:54.000Z</time></trkpt>
        <trkpt lat="28.2944547" lon="105.0363256"><ele>388.73</ele><time>2025-10-24T17:24:00.000Z</time></trkpt>
        <trkpt lat="28.2943901" lon="105.0364107"><ele>391.16</ele><time>2025-10-24T17:24:08.000Z</time></trkpt>
        <trkpt lat="28.2942988" lon="105.0364672"><ele>391.4</ele><time>2025-10-24T17:24:18.000Z</time></trkpt>
        <trkpt lat="28.2942131" lon="105.0365186"><ele>391.05</ele><time>2025-10-24T17:24:28.000Z</time></trkpt>
        <trkpt lat="28.2941268" lon="105.0365745"><ele>390.85</ele><time>2025-10-24T17:24:38.000Z</time></trkpt>
        <trkpt lat="28.2940406" lon="105.0366368"><ele>390.74</ele><time>2025-10-24T17:24:48.000Z</time></trkpt>
        <trkpt lat="28.2940078" lon="105.0366772"><ele>390.67</ele><time>2025-10-24T17:24:50.000Z</time></trkpt>
        <trkpt lat="28.2939568" lon="105.0367391"><ele>387.49</ele><time>2025-10-24T17:24:56.000Z</time></trkpt>
        <trkpt lat="28.2939318" lon="105.0367663"><ele>388.05</ele><time>2025-10-24T17:24:58.000Z</time></trkpt>
        <trkpt lat="28.29387" lon="105.0368147"><ele>388.48</ele><time>2025-10-24T17:25:06.000Z</time></trkpt>
        <trkpt lat="28.2937826" lon="105.0368788"><ele>388.99</ele><time>2025-10-24T17:25:16.000Z</time></trkpt>
        <trkpt lat="28.2936928" lon="105.0369539"><ele>388.46</ele><time>2025-10-24T17:25:26.000Z</time></trkpt>
        <trkpt lat="28.2936231" lon="105.0370457"><ele>388.18</ele><time>2025-10-24T17:25:35.000Z</time></trkpt>
        <trkpt lat="28.2935701" lon="105.0371452"><ele>388.03</ele><time>2025-10-24T17:25:43.000Z</time></trkpt>
        <trkpt lat="28.2935455" lon="105.0371903"><ele>387.79</ele><time>2025-10-24T17:25:45.000Z</time></trkpt>
        <trkpt lat="28.2934753" lon="105.0372374"><ele>387.87</ele><time>2025-10-24T17:25:53.000Z</time></trkpt>
        <trkpt lat="28.2933805" lon="105.037286"><ele>388.07</ele><time>2025-10-24T17:26:03.000Z</time></trkpt>
        <trkpt lat="28.2932839" lon="105.037324"><ele>388.21</ele><time>2025-10-24T17:26:11.000Z</time></trkpt>
        <trkpt lat="28.2931901" lon="105.0373599"><ele>388.71</ele><time>2025-10-24T17:26:19.000Z</time></trkpt>
        <trkpt lat="28.2930916" lon="105.0373924"><ele>389.38</ele><time>2025-10-24T17:26:29.000Z</time></trkpt>
        <trkpt lat="28.2929937" lon="105.0374375"><ele>389.92</ele><time>2025-10-24T17:26:41.000Z</time></trkpt>
        <trkpt lat="28.292909" lon="105.0374857"><ele>390.44</ele><time>2025-10-24T17:26:49.000Z</time></trkpt>
        <trkpt lat="28.2928259" lon="105.0375479"><ele>391.02</ele><time>2025-10-24T17:26:59.000Z</time></trkpt>
        <trkpt lat="28.2927427" lon="105.0376062"><ele>391.26</ele><time>2025-10-24T17:27:07.000Z</time></trkpt>
        <trkpt lat="28.2926593" lon="105.0376563"><ele>391.22</ele><time>2025-10-24T17:27:15.000Z</time></trkpt>
        <trkpt lat="28.2925586" lon="105.0377084"><ele>391.12</ele><time>2025-10-24T17:27:23.000Z</time></trkpt>
        <trkpt lat="28.2924497" lon="105.0377374"><ele>390.76</ele><time>2025-10-24T17:27:31.000Z</time></trkpt>
        <trkpt lat="28.292343" lon="105.0377414"><ele>390.43</ele><time>2025-10-24T17:27:39.000Z</time></trkpt>
        <trkpt lat="28.2922352" lon="105.0377593"><ele>390.25</ele><time>2025-10-24T17:27:47.000Z</time></trkpt>
        <trkpt lat="28.2921358" lon="105.0377767"><ele>390.2</ele><time>2025-10-24T17:27:55.000Z</time></trkpt>
        <trkpt lat="28.2920438" lon="105.0378052"><ele>389.98</ele><time>2025-10-24T17:28:03.000Z</time></trkpt>
        <trkpt lat="28.2919577" lon="105.0378481"><ele>389.64</ele><time>2025-10-24T17:28:11.000Z</time></trkpt>
        <trkpt lat="28.2918867" lon="105.037922"><ele>389.56</ele><time>2025-10-24T17:28:19.000Z</time></trkpt>
        <trkpt lat="28.2918221" lon="105.0380016"><ele>389.18</ele><time>2025-10-24T17:28:27.000Z</time></trkpt>
        <trkpt lat="28.2917449" lon="105.0380713"><ele>388.74</ele><time>2025-10-24T17:28:35.000Z</time></trkpt>
        <trkpt lat="28.2916461" lon="105.0381245"><ele>388.59</ele><time>2025-10-24T17:28:43.000Z</time></trkpt>
        <trkpt lat="28.2915365" lon="105.0381651"><ele>388.73</ele><time>2025-10-24T17:28:53.000Z</time></trkpt>
        <trkpt lat="28.2914383" lon="105.0381995"><ele>388.8</ele><time>2025-10-24T17:29:01.000Z</time></trkpt>
        <trkpt lat="28.2913401" lon="105.0382383"><ele>388.78</ele><time>2025-10-24T17:29:11.000Z</time></trkpt>
        <trkpt lat="28.2912486" lon="105.0382876"><ele>388.61</ele><time>2025-10-24T17:29:21.000Z</time></trkpt>
        <trkpt lat="28.2911672" lon="105.0383489"><ele>388.56</ele><time>2025-10-24T17:29:31.000Z</time></trkpt>
        <trkpt lat="28.2910923" lon="105.0384121"><ele>389.27</ele><time>2025-10-24T17:29:41.000Z</time></trkpt>
        <trkpt lat="28.2910144" lon="105.0384901"><ele>390.35</ele><time>2025-10-24T17:29:49.000Z</time></trkpt>
        <trkpt lat="28.290935" lon="105.0385773"><ele>391.51</ele><time>2025-10-24T17:29:58.000Z</time></trkpt>
        <trkpt lat="28.2908656" lon="105.0386652"><ele>392.31</ele><time>2025-10-24T17:30:05.000Z</time></trkpt>
        <trkpt lat="28.2908015" lon="105.0387455"><ele>393.04</ele><time>2025-10-24T17:30:13.000Z</time></trkpt>
        <trkpt lat="28.2907352" lon="105.0388221"><ele>393.6</ele><time>2025-10-24T17:30:21.000Z</time></trkpt>
        <trkpt lat="28.2906744" lon="105.0388991"><ele>394.3</ele><time>2025-10-24T17:30:29.000Z</time></trkpt>
        <trkpt lat="28.2905879" lon="105.0389636"><ele>395.02</ele><time>2025-10-24T17:30:39.000Z</time></trkpt>
        <trkpt lat="28.2904891" lon="105.0390043"><ele>395.34</ele><time>2025-10-24T17:30:47.000Z</time></trkpt>
        <trkpt lat="28.2903882" lon="105.0390264"><ele>394.92</ele><time>2025-10-24T17:30:55.000Z</time></trkpt>
        <trkpt lat="28.2902928" lon="105.0390741"><ele>394.07</ele><time>2025-10-24T17:31:03.000Z</time></trkpt>
        <trkpt lat="28.290196" lon="105.0391063"><ele>393.78</ele><time>2025-10-24T17:31:11.000Z</time></trkpt>
        <trkpt lat="28.290099" lon="105.0390998"><ele>393.23</ele><time>2025-10-24T17:31:19.000Z</time></trkpt>
        <trkpt lat="28.289995" lon="105.0390715"><ele>392.52</ele><time>2025-10-24T17:31:29.000Z</time></trkpt>
        <trkpt lat="28.2898822" lon="105.0390415"><ele>391.88</ele><time>2025-10-24T17:31:37.000Z</time></trkpt>
        <trkpt lat="28.2897825" lon="105.0390326"><ele>391.19</ele><time>2025-10-24T17:31:43.000Z</time></trkpt>
        <trkpt lat="28.2896892" lon="105.0390684"><ele>390.61</ele><time>2025-10-24T17:31:53.000Z</time></trkpt>
        <trkpt lat="28.2895908" lon="105.0391291"><ele>389.91</ele><time>2025-10-24T17:32:03.000Z</time></trkpt>
        <trkpt lat="28.2894902" lon="105.0391843"><ele>389.56</ele><time>2025-10-24T17:32:13.000Z</time></trkpt>
        <trkpt lat="28.2893962" lon="105.0392352"><ele>389.36</ele><time>2025-10-24T17:32:23.000Z</time></trkpt>
        <trkpt lat="28.2892968" lon="105.0392678"><ele>389.76</ele><time>2025-10-24T17:32:33.000Z</time></trkpt>
        <trkpt lat="28.2892014" lon="105.039307"><ele>390.48</ele><time>2025-10-24T17:32:41.000Z</time></trkpt>
        <trkpt lat="28.2890991" lon="105.039319"><ele>390.77</ele><time>2025-10-24T17:32:51.000Z</time></trkpt>
        <trkpt lat="28.2890085" lon="105.039359"><ele>391.04</ele><time>2025-10-24T17:32:59.000Z</time></trkpt>
        <trkpt lat="28.288913" lon="105.0393929"><ele>391.61</ele><time>2025-10-24T17:33:09.000Z</time></trkpt>
        <trkpt lat="28.2888162" lon="105.039429"><ele>391.89</ele><time>2025-10-24T17:33:17.000Z</time></trkpt>
        <trkpt lat="28.2887273" lon="105.0394646"><ele>391.76</ele><time>2025-10-24T17:33:25.000Z</time></trkpt>
        <trkpt lat="28.2886245" lon="105.0394918"><ele>391.81</ele><time>2025-10-24T17:33:33.000Z</time></trkpt>
        <trkpt lat="28.288525" lon="105.0395044"><ele>391.98</ele><time>2025-10-24T17:33:41.000Z</time></trkpt>
        <trkpt lat="28.2884286" lon="105.0395273"><ele>392.08</ele><time>2025-10-24T17:33:49.000Z</time></trkpt>
        <trkpt lat="28.2883308" lon="105.0395619"><ele>391.83</ele><time>2025-10-24T17:33:59.000Z</time></trkpt>
        <trkpt lat="28.2882311" lon="105.0396127"><ele>392.18</ele><time>2025-10-24T17:34:09.000Z</time></trkpt>
        <trkpt lat="28.2881572" lon="105.0396847"><ele>392.88</ele><time>2025-10-24T17:34:17.000Z</time></trkpt>
        <trkpt lat="28.2881037" lon="105.0397743"><ele>393.85</ele><time>2025-10-24T17:34:25.000Z</time></trkpt>
        <trkpt lat="28.288061" lon="105.0398791"><ele>394.77</ele><time>2025-10-24T17:34:35.000Z</time></trkpt>
        <trkpt lat="28.2879963" lon="105.039968"><ele>395.89</ele><time>2025-10-24T17:34:45.000Z</time></trkpt>
        <trkpt lat="28.2879263" lon="105.0400477"><ele>397.01</ele><time>2025-10-24T17:34:55.000Z</time></trkpt>
        <trkpt lat="28.2878421" lon="105.0401028"><ele>398.21</ele><time>2025-10-24T17:35:05.000Z</time></trkpt>
        <trkpt lat="28.2877409" lon="105.0401021"><ele>399.43</ele><time>2025-10-24T17:35:15.000Z</time></trkpt>
        <trkpt lat="28.2876357" lon="105.0400994"><ele>400.46</ele><time>2025-10-24T17:35:25.000Z</time></trkpt>
        <trkpt lat="28.2875407" lon="105.0401276"><ele>401.77</ele><time>2025-10-24T17:35:35.000Z</time></trkpt>
        <trkpt lat="28.2874664" lon="105.0401929"><ele>402.89</ele><time>2025-10-24T17:35:45.000Z</time></trkpt>
        <trkpt lat="28.2874019" lon="105.0402754"><ele>404.21</ele><time>2025-10-24T17:35:53.000Z</time></trkpt>
        <trkpt lat="28.2873315" lon="105.0403658"><ele>405.81</ele><time>2025-10-24T17:36:03.000Z</time></trkpt>
        <trkpt lat="28.2872667" lon="105.0404472"><ele>407.45</ele><time>2025-10-24T17:36:11.000Z</time></trkpt>
        <trkpt lat="28.2872097" lon="105.0405314"><ele>408.93</ele><time>2025-10-24T17:36:19.000Z</time></trkpt>
        <trkpt lat="28.2871577" lon="105.0406326"><ele>410.47</ele><time>2025-10-24T17:36:29.000Z</time></trkpt>
        <trkpt lat="28.2871027" lon="105.0407327"><ele>411.49</ele><time>2025-10-24T17:36:37.000Z</time></trkpt>
        <trkpt lat="28.2870386" lon="105.0408132"><ele>412.79</ele><time>2025-10-24T17:36:45.000Z</time></trkpt>
        <trkpt lat="28.2869528" lon="105.0408566"><ele>413.51</ele><time>2025-10-24T17:36:53.000Z</time></trkpt>
        <trkpt lat="28.2868518" lon="105.0408882"><ele>413.89</ele><time>2025-10-24T17:37:01.000Z</time></trkpt>
        <trkpt lat="28.286751" lon="105.0409391"><ele>414.26</ele><time>2025-10-24T17:37:11.000Z</time></trkpt>
        <trkpt lat="28.2866542" lon="105.0410079"><ele>414.14</ele><time>2025-10-24T17:37:21.000Z</time></trkpt>
        <trkpt lat="28.2865621" lon="105.0410837"><ele>413.31</ele><time>2025-10-24T17:37:31.000Z</time></trkpt>
        <trkpt lat="28.2864903" lon="105.0411652"><ele>412.6</ele><time>2025-10-24T17:37:39.000Z</time></trkpt>
        <trkpt lat="28.2864282" lon="105.0412583"><ele>412</ele><time>2025-10-24T17:37:47.000Z</time></trkpt>
        <trkpt lat="28.2863647" lon="105.0413543"><ele>411.32</ele><time>2025-10-24T17:37:55.000Z</time></trkpt>
        <trkpt lat="28.2862852" lon="105.0414387"><ele>410.26</ele><time>2025-10-24T17:38:03.000Z</time></trkpt>
        <trkpt lat="28.2862036" lon="105.0415177"><ele>409.65</ele><time>2025-10-24T17:38:11.000Z</time></trkpt>
        <trkpt lat="28.2861171" lon="105.0415861"><ele>409.25</ele><time>2025-10-24T17:38:21.000Z</time></trkpt>
        <trkpt lat="28.2860147" lon="105.0416313"><ele>409.01</ele><time>2025-10-24T17:38:29.000Z</time></trkpt>
        <trkpt lat="28.285967" lon="105.0416571"><ele>408.75</ele><time>2025-10-24T17:38:31.000Z</time></trkpt>
        <trkpt lat="28.2859092" lon="105.0417177"><ele>408.87</ele><time>2025-10-24T17:38:43.000Z</time></trkpt>
        <trkpt lat="28.2858107" lon="105.0418033"><ele>409.49</ele><time>2025-10-24T17:38:51.000Z</time></trkpt>
        <trkpt lat="28.2857166" lon="105.0418527"><ele>410.03</ele><time>2025-10-24T17:38:57.000Z</time></trkpt>
        <trkpt lat="28.2856272" lon="105.0418203"><ele>408.74</ele><time>2025-10-24T17:39:05.000Z</time></trkpt>
        <trkpt lat="28.2855242" lon="105.0417763"><ele>408</ele><time>2025-10-24T17:39:17.000Z</time></trkpt>
        <trkpt lat="28.2853193" lon="105.041862"><ele>407.56</ele><time>2025-10-24T17:39:27.000Z</time></trkpt>
        <trkpt lat="28.2852201" lon="105.0418928"><ele>409.39</ele><time>2025-10-24T17:39:31.000Z</time></trkpt>
        <trkpt lat="28.2851278" lon="105.0418949"><ele>410.83</ele><time>2025-10-24T17:39:41.000Z</time></trkpt>
        <trkpt lat="28.2850318" lon="105.0418889"><ele>412.52</ele><time>2025-10-24T17:39:51.000Z</time></trkpt>
        <trkpt lat="28.284937" lon="105.0418988"><ele>414.06</ele><time>2025-10-24T17:39:59.000Z</time></trkpt>
        <trkpt lat="28.2848418" lon="105.041943"><ele>414.25</ele><time>2025-10-24T17:40:09.000Z</time></trkpt>
        <trkpt lat="28.2847424" lon="105.0419907"><ele>414.01</ele><time>2025-10-24T17:40:19.000Z</time></trkpt>
        <trkpt lat="28.2846426" lon="105.0420263"><ele>413.02</ele><time>2025-10-24T17:40:29.000Z</time></trkpt>
        <trkpt lat="28.2845561" lon="105.0420752"><ele>412.57</ele><time>2025-10-24T17:40:37.000Z</time></trkpt>
        <trkpt lat="28.2844733" lon="105.0421317"><ele>412.51</ele><time>2025-10-24T17:40:47.000Z</time></trkpt>
        <trkpt lat="28.2843869" lon="105.042183"><ele>412.77</ele><time>2025-10-24T17:40:57.000Z</time></trkpt>
        <trkpt lat="28.2843" lon="105.0422371"><ele>412.99</ele><time>2025-10-24T17:41:07.000Z</time></trkpt>
        <trkpt lat="28.2842148" lon="105.0422925"><ele>413.14</ele><time>2025-10-24T17:41:17.000Z</time></trkpt>
        <trkpt lat="28.2841352" lon="105.042352"><ele>412.79</ele><time>2025-10-24T17:41:27.000Z</time></trkpt>
        <trkpt lat="28.2840511" lon="105.0424246"><ele>412.48</ele><time>2025-10-24T17:41:39.000Z</time></trkpt>
        <trkpt lat="28.2839684" lon="105.0425026"><ele>411.82</ele><time>2025-10-24T17:41:51.000Z</time></trkpt>
        <trkpt lat="28.2838854" lon="105.0425744"><ele>411.85</ele><time>2025-10-24T17:42:01.000Z</time></trkpt>
        <trkpt lat="28.2838085" lon="105.04265"><ele>412.1</ele><time>2025-10-24T17:42:11.000Z</time></trkpt>
        <trkpt lat="28.2837277" lon="105.0427109"><ele>411.74</ele><time>2025-10-24T17:42:21.000Z</time></trkpt>
        <trkpt lat="28.2836527" lon="105.0427723"><ele>411.61</ele><time>2025-10-24T17:42:29.000Z</time></trkpt>
        <trkpt lat="28.2835671" lon="105.0428358"><ele>411.45</ele><time>2025-10-24T17:42:37.000Z</time></trkpt>
        <trkpt lat="28.2834727" lon="105.0428978"><ele>410.43</ele><time>2025-10-24T17:42:47.000Z</time></trkpt>
        <trkpt lat="28.283373" lon="105.0429397"><ele>409.52</ele><time>2025-10-24T17:42:57.000Z</time></trkpt>
        <trkpt lat="28.2832871" lon="105.0429926"><ele>408.53</ele><time>2025-10-24T17:43:05.000Z</time></trkpt>
        <trkpt lat="28.2832084" lon="105.0430529"><ele>407.5</ele><time>2025-10-24T17:43:13.000Z</time></trkpt>
        <trkpt lat="28.2831227" lon="105.0431167"><ele>406.38</ele><time>2025-10-24T17:43:23.000Z</time></trkpt>
        <trkpt lat="28.283033" lon="105.0431814"><ele>405.32</ele><time>2025-10-24T17:43:33.000Z</time></trkpt>
        <trkpt lat="28.2829352" lon="105.0432204"><ele>404.52</ele><time>2025-10-24T17:43:43.000Z</time></trkpt>
        <trkpt lat="28.2828315" lon="105.0432443"><ele>403.72</ele><time>2025-10-24T17:43:53.000Z</time></trkpt>
        <trkpt lat="28.2827303" lon="105.0432423"><ele>403.62</ele><time>2025-10-24T17:44:03.000Z</time></trkpt>
        <trkpt lat="28.2826312" lon="105.0432338"><ele>403.71</ele><time>2025-10-24T17:44:13.000Z</time></trkpt>
        <trkpt lat="28.28253" lon="105.0432284"><ele>404.53</ele><time>2025-10-24T17:44:23.000Z</time></trkpt>
        <trkpt lat="28.2824348" lon="105.0432274"><ele>405.49</ele><time>2025-10-24T17:44:31.000Z</time></trkpt>
        <trkpt lat="28.2823296" lon="105.0432016"><ele>406.54</ele><time>2025-10-24T17:44:41.000Z</time></trkpt>
        <trkpt lat="28.2822409" lon="105.0431542"><ele>407.49</ele><time>2025-10-24T17:44:49.000Z</time></trkpt>
        <trkpt lat="28.2821638" lon="105.0430949"><ele>408.1</ele><time>2025-10-24T17:45:01.000Z</time></trkpt>
        <trkpt lat="28.2820824" lon="105.0430357"><ele>408.56</ele><time>2025-10-24T17:45:11.000Z</time></trkpt>
        <trkpt lat="28.2819937" lon="105.0429626"><ele>409.18</ele><time>2025-10-24T17:45:21.000Z</time></trkpt>
        <trkpt lat="28.2818969" lon="105.0428944"><ele>409.55</ele><time>2025-10-24T17:45:29.000Z</time></trkpt>
        <trkpt lat="28.2818122" lon="105.0428138"><ele>410</ele><time>2025-10-24T17:45:39.000Z</time></trkpt>
        <trkpt lat="28.2817283" lon="105.0427582"><ele>410.08</ele><time>2025-10-24T17:45:47.000Z</time></trkpt>
        <trkpt lat="28.2816252" lon="105.0427338"><ele>409.93</ele><time>2025-10-24T17:45:57.000Z</time></trkpt>
        <trkpt lat="28.2815384" lon="105.0427738"><ele>409.72</ele><time>2025-10-24T17:46:05.000Z</time></trkpt>
        <trkpt lat="28.2814546" lon="105.0428448"><ele>409.46</ele><time>2025-10-24T17:46:15.000Z</time></trkpt>
        <trkpt lat="28.2814203" lon="105.0429627"><ele>409.84</ele><time>2025-10-24T17:46:25.000Z</time></trkpt>
        <trkpt lat="28.2814145" lon="105.043089"><ele>410.17</ele><time>2025-10-24T17:46:35.000Z</time></trkpt>
        <trkpt lat="28.2814113" lon="105.043221"><ele>410.35</ele><time>2025-10-24T17:46:45.000Z</time></trkpt>
        <trkpt lat="28.2813976" lon="105.0433339"><ele>410.83</ele><time>2025-10-24T17:46:53.000Z</time></trkpt>
        <trkpt lat="28.2813683" lon="105.0434387"><ele>411.43</ele><time>2025-10-24T17:47:01.000Z</time></trkpt>
        <trkpt lat="28.2813085" lon="105.043557"><ele>411.75</ele><time>2025-10-24T17:47:09.000Z</time></trkpt>
        <trkpt lat="28.2812449" lon="105.0436562"><ele>412.54</ele><time>2025-10-24T17:47:13.000Z</time></trkpt>
        <trkpt lat="28.2811982" lon="105.0437547"><ele>415.06</ele><time>2025-10-24T17:47:21.000Z</time></trkpt>
        <trkpt lat="28.2811831" lon="105.0438729"><ele>417.66</ele><time>2025-10-24T17:47:31.000Z</time></trkpt>
        <trkpt lat="28.2811893" lon="105.0439887"><ele>419</ele><time>2025-10-24T17:47:39.000Z</time></trkpt>
        <trkpt lat="28.2812045" lon="105.0441073"><ele>419.47</ele><time>2025-10-24T17:47:47.000Z</time></trkpt>
        <trkpt lat="28.2812064" lon="105.0442199"><ele>419.67</ele><time>2025-10-24T17:47:57.000Z</time></trkpt>
        <trkpt lat="28.2811894" lon="105.0443321"><ele>419.77</ele><time>2025-10-24T17:48:05.000Z</time></trkpt>
        <trkpt lat="28.2811551" lon="105.0444377"><ele>420.1</ele><time>2025-10-24T17:48:13.000Z</time></trkpt>
        <trkpt lat="28.2810975" lon="105.0445294"><ele>420.85</ele><time>2025-10-24T17:48:23.000Z</time></trkpt>
        <trkpt lat="28.2810403" lon="105.0446225"><ele>421.76</ele><time>2025-10-24T17:48:31.000Z</time></trkpt>
        <trkpt lat="28.2809994" lon="105.0447371"><ele>422.65</ele><time>2025-10-24T17:48:41.000Z</time></trkpt>
        <trkpt lat="28.2809689" lon="105.0448445"><ele>423.47</ele><time>2025-10-24T17:48:49.000Z</time></trkpt>
        <trkpt lat="28.2809568" lon="105.0449507"><ele>424.18</ele><time>2025-10-24T17:48:57.000Z</time></trkpt>
        <trkpt lat="28.2809308" lon="105.0450521"><ele>424.41</ele><time>2025-10-24T17:49:05.000Z</time></trkpt>
        <trkpt lat="28.2808682" lon="105.0451282"><ele>424.45</ele><time>2025-10-24T17:49:13.000Z</time></trkpt>
        <trkpt lat="28.2807794" lon="105.0451623"><ele>424.26</ele><time>2025-10-24T17:49:19.000Z</time></trkpt>
        <trkpt lat="28.280677" lon="105.0452168"><ele>424.12</ele><time>2025-10-24T17:49:27.000Z</time></trkpt>
        <trkpt lat="28.2805915" lon="105.045283"><ele>424.24</ele><time>2025-10-24T17:49:35.000Z</time></trkpt>
        <trkpt lat="28.2805495" lon="105.0453879"><ele>424.61</ele><time>2025-10-24T17:49:43.000Z</time></trkpt>
        <trkpt lat="28.2805305" lon="105.0455099"><ele>425.27</ele><time>2025-10-24T17:49:53.000Z</time></trkpt>
        <trkpt lat="28.2804888" lon="105.0456192"><ele>425.79</ele><time>2025-10-24T17:50:03.000Z</time></trkpt>
        <trkpt lat="28.2804078" lon="105.0456884"><ele>426.2</ele><time>2025-10-24T17:50:11.000Z</time></trkpt>
        <trkpt lat="28.2803067" lon="105.0457283"><ele>427.02</ele><time>2025-10-24T17:50:21.000Z</time></trkpt>
        <trkpt lat="28.2802047" lon="105.045765"><ele>427.55</ele><time>2025-10-24T17:50:31.000Z</time></trkpt>
        <trkpt lat="28.2801228" lon="105.0458421"><ele>427.85</ele><time>2025-10-24T17:50:37.000Z</time></trkpt>
        <trkpt lat="28.2800855" lon="105.0458764"><ele>428</ele><time>2025-10-24T17:50:39.000Z</time></trkpt>
        <trkpt lat="28.2800098" lon="105.0459189"><ele>428.38</ele><time>2025-10-24T17:50:49.000Z</time></trkpt>
        <trkpt lat="28.2799281" lon="105.0459625"><ele>429.98</ele><time>2025-10-24T17:50:57.000Z</time></trkpt>
        <trkpt lat="28.279852" lon="105.0460271"><ele>431.45</ele><time>2025-10-24T17:51:05.000Z</time></trkpt>
        <trkpt lat="28.2797942" lon="105.0461093"><ele>432.75</ele><time>2025-10-24T17:51:13.000Z</time></trkpt>
        <trkpt lat="28.2797399" lon="105.0462048"><ele>434.02</ele><time>2025-10-24T17:51:21.000Z</time></trkpt>
        <trkpt lat="28.27968" lon="105.0462876"><ele>435.36</ele><time>2025-10-24T17:51:29.000Z</time></trkpt>
        <trkpt lat="28.279622" lon="105.0463841"><ele>436.65</ele><time>2025-10-24T17:51:39.000Z</time></trkpt>
        <trkpt lat="28.2795627" lon="105.0464714"><ele>438.73</ele><time>2025-10-24T17:51:47.000Z</time></trkpt>
        <trkpt lat="28.279488" lon="105.0465613"><ele>440.41</ele><time>2025-10-24T17:51:55.000Z</time></trkpt>
        <trkpt lat="28.2793971" lon="105.0466239"><ele>441.66</ele><time>2025-10-24T17:52:03.000Z</time></trkpt>
        <trkpt lat="28.2793057" lon="105.0466548"><ele>442.45</ele><time>2025-10-24T17:52:11.000Z</time></trkpt>
        <trkpt lat="28.2792125" lon="105.0466797"><ele>442.79</ele><time>2025-10-24T17:52:21.000Z</time></trkpt>
        <trkpt lat="28.2791294" lon="105.0467216"><ele>442.94</ele><time>2025-10-24T17:52:29.000Z</time></trkpt>
        <trkpt lat="28.2790684" lon="105.0468151"><ele>443.45</ele><time>2025-10-24T17:52:39.000Z</time></trkpt>
        <trkpt lat="28.2790263" lon="105.0469207"><ele>444.51</ele><time>2025-10-24T17:52:47.000Z</time></trkpt>
        <trkpt lat="28.2789931" lon="105.0470411"><ele>445.08</ele><time>2025-10-24T17:52:55.000Z</time></trkpt>
        <trkpt lat="28.2789778" lon="105.047161"><ele>444.91</ele><time>2025-10-24T17:53:03.000Z</time></trkpt>
        <trkpt lat="28.278973" lon="105.0472811"><ele>444.66</ele><time>2025-10-24T17:53:13.000Z</time></trkpt>
        <trkpt lat="28.27896" lon="105.0473935"><ele>444.72</ele><time>2025-10-24T17:53:21.000Z</time></trkpt>
        <trkpt lat="28.2788874" lon="105.0474222"><ele>445.07</ele><time>2025-10-24T17:53:29.000Z</time></trkpt>
        <trkpt lat="28.2787826" lon="105.0473851"><ele>445.61</ele><time>2025-10-24T17:53:39.000Z</time></trkpt>
        <trkpt lat="28.2786876" lon="105.0473289"><ele>445.88</ele><time>2025-10-24T17:53:45.000Z</time></trkpt>
        <trkpt lat="28.2785936" lon="105.0472866"><ele>446.5</ele><time>2025-10-24T17:53:51.000Z</time></trkpt>
        <trkpt lat="28.2784954" lon="105.0472645"><ele>447.27</ele><time>2025-10-24T17:53:57.000Z</time></trkpt>
        <trkpt lat="28.2784013" lon="105.0473059"><ele>448.46</ele><time>2025-10-24T17:54:07.000Z</time></trkpt>
        <trkpt lat="28.2783302" lon="105.0473931"><ele>449.25</ele><time>2025-10-24T17:54:17.000Z</time></trkpt>
        <trkpt lat="28.2782691" lon="105.0474863"><ele>449.77</ele><time>2025-10-24T17:54:59.000Z</time></trkpt>
        <trkpt lat="28.2781985" lon="105.047587"><ele>451.57</ele><time>2025-10-24T17:55:09.000Z</time></trkpt>
        <trkpt lat="28.2781574" lon="105.0476208"><ele>452.69</ele><time>2025-10-24T17:55:21.000Z</time></trkpt>
        <trkpt lat="28.2781574" lon="105.0476208"><ele>452.69</ele><time>2025-10-24T18:00:50.000Z</time></trkpt>
      </trkseg>
      <trkseg>
        <trkpt lat="28.2780791" lon="105.0475597"><ele>453.61</ele><time>2025-10-24T18:07:49.000Z</time></trkpt>
        <trkpt lat="28.2780791" lon="105.0475597"><ele>453.61</ele><time>2025-10-24T18:09:33.000Z</time></trkpt>
        <trkpt lat="28.2779866" lon="105.0475529"><ele>455.49</ele><time>2025-10-24T18:10:09.000Z</time></trkpt>
        <trkpt lat="28.2778925" lon="105.0475587"><ele>455.72</ele><time>2025-10-24T18:10:21.000Z</time></trkpt>
        <trkpt lat="28.2777971" lon="105.0475862"><ele>455.06</ele><time>2025-10-24T18:11:01.000Z</time></trkpt>
        <trkpt lat="28.2777062" lon="105.0476289"><ele>454.03</ele><time>2025-10-24T18:11:21.000Z</time></trkpt>
        <trkpt lat="28.2776218" lon="105.0476737"><ele>453.29</ele><time>2025-10-24T18:11:31.000Z</time></trkpt>
        <trkpt lat="28.2775305" lon="105.0477059"><ele>452.45</ele><time>2025-10-24T18:11:39.000Z</time></trkpt>
        <trkpt lat="28.2774325" lon="105.0477426"><ele>451.51</ele><time>2025-10-24T18:11:49.000Z</time></trkpt>
        <trkpt lat="28.2773384" lon="105.0477532"><ele>450.61</ele><time>2025-10-24T18:11:57.000Z</time></trkpt>
        <trkpt lat="28.2772304" lon="105.0477435"><ele>449.09</ele><time>2025-10-24T18:12:05.000Z</time></trkpt>
        <trkpt lat="28.2772448" lon="105.047676"><ele>447.32</ele><time>2025-10-24T18:12:17.000Z</time></trkpt>
        <trkpt lat="28.2773331" lon="105.0476292"><ele>446.17</ele><time>2025-10-24T18:12:25.000Z</time></trkpt>
        <trkpt lat="28.2774287" lon="105.0475553"><ele>445.51</ele><time>2025-10-24T18:12:33.000Z</time></trkpt>
        <trkpt lat="28.2775205" lon="105.0474824"><ele>445.14</ele><time>2025-10-24T18:12:41.000Z</time></trkpt>
        <trkpt lat="28.2774799" lon="105.0474315"><ele>444.92</ele><time>2025-10-24T18:12:59.000Z</time></trkpt>
        <trkpt lat="28.2773771" lon="105.0473996"><ele>444.8</ele><time>2025-10-24T18:13:07.000Z</time></trkpt>
        <trkpt lat="28.2772697" lon="105.0473518"><ele>444.73</ele><time>2025-10-24T18:13:15.000Z</time></trkpt>
        <trkpt lat="28.2771524" lon="105.0473264"><ele>443.52</ele><time>2025-10-24T18:13:23.000Z</time></trkpt>
        <trkpt lat="28.2770601" lon="105.0472557"><ele>442.82</ele><time>2025-10-24T18:13:31.000Z</time></trkpt>
        <trkpt lat="28.2770166" lon="105.0471515"><ele>442.43</ele><time>2025-10-24T18:13:39.000Z</time></trkpt>
        <trkpt lat="28.2770748" lon="105.0470657"><ele>442.2</ele><time>2025-10-24T18:13:49.000Z</time></trkpt>
        <trkpt lat="28.2770705" lon="105.046963"><ele>442.08</ele><time>2025-10-24T18:14:01.000Z</time></trkpt>
        <trkpt lat="28.2770064" lon="105.0468978"><ele>442</ele><time>2025-10-24T18:14:11.000Z</time></trkpt>
        <trkpt lat="28.2769098" lon="105.0468169"><ele>441.96</ele><time>2025-10-24T18:14:25.000Z</time></trkpt>
        <trkpt lat="28.2768483" lon="105.0467232"><ele>452.12</ele><time>2025-10-24T18:14:27.000Z</time></trkpt>
        <trkpt lat="28.2768162" lon="105.046679"><ele>457.39</ele><time>2025-10-24T18:14:29.000Z</time></trkpt>
        <trkpt lat="28.276744" lon="105.0466358"><ele>457.22</ele><time>2025-10-24T18:14:43.000Z</time></trkpt>
        <trkpt lat="28.2766574" lon="105.0466015"><ele>451.98</ele><time>2025-10-24T18:15:07.000Z</time></trkpt>
        <trkpt lat="28.2766125" lon="105.0465796"><ele>448.99</ele><time>2025-10-24T18:15:17.000Z</time></trkpt>
        <trkpt lat="28.2765581" lon="105.0465133"><ele>447.29</ele><time>2025-10-24T18:15:29.000Z</time></trkpt>
        <trkpt lat="28.2764924" lon="105.0463914"><ele>446.32</ele><time>2025-10-24T18:15:33.000Z</time></trkpt>
        <trkpt lat="28.2764483" lon="105.0462754"><ele>440.75</ele><time>2025-10-24T18:21:17.000Z</time></trkpt>
        <trkpt lat="28.2763664" lon="105.0462271"><ele>438.6</ele><time>2025-10-24T18:22:49.000Z</time></trkpt>
        <trkpt lat="28.2763066" lon="105.0461436"><ele>437.18</ele><time>2025-10-24T18:27:11.000Z</time></trkpt>
        <trkpt lat="28.2762162" lon="105.0461287"><ele>435.28</ele><time>2025-10-24T18:27:33.000Z</time></trkpt>
        <trkpt lat="28.2761536" lon="105.0460509"><ele>433.85</ele><time>2025-10-24T18:28:51.000Z</time></trkpt>
        <trkpt lat="28.2761328" lon="105.0460139"><ele>432.71</ele><time>2025-10-24T18:28:57.000Z</time></trkpt>
        <trkpt lat="28.2760559" lon="105.0459733"><ele>432.49</ele><time>2025-10-24T18:29:07.000Z</time></trkpt>
        <trkpt lat="28.2759519" lon="105.0459396"><ele>432.14</ele><time>2025-10-24T18:29:15.000Z</time></trkpt>
        <trkpt lat="28.275859" lon="105.0458894"><ele>431.91</ele><time>2025-10-24T18:29:37.000Z</time></trkpt>
        <trkpt lat="28.2757813" lon="105.0457842"><ele>433.58</ele><time>2025-10-24T18:30:01.000Z</time></trkpt>
        <trkpt lat="28.2757627" lon="105.0457507"><ele>433.96</ele><time>2025-10-24T18:30:07.000Z</time></trkpt>
        <trkpt lat="28.275725" lon="105.0456758"><ele>434.18</ele><time>2025-10-24T18:37:29.000Z</time></trkpt>
        <trkpt lat="28.2757306" lon="105.0455713"><ele>436.04</ele><time>2025-10-24T18:38:23.000Z</time></trkpt>
        <trkpt lat="28.275652" lon="105.0455571"><ele>436.92</ele><time>2025-10-24T18:38:47.000Z</time></trkpt>
        <trkpt lat="28.2756112" lon="105.0454796"><ele>438.09</ele><time>2025-10-24T18:39:43.000Z</time></trkpt>
        <trkpt lat="28.2755357" lon="105.0454351"><ele>438.35</ele><time>2025-10-24T18:40:03.000Z</time></trkpt>
        <trkpt lat="28.2754361" lon="105.0454563"><ele>439.05</ele><time>2025-10-24T18:40:53.000Z</time></trkpt>
        <trkpt lat="28.2753415" lon="105.0454387"><ele>439.54</ele><time>2025-10-24T18:41:03.000Z</time></trkpt>
        <trkpt lat="28.2752558" lon="105.045394"><ele>440.16</ele><time>2025-10-24T18:41:11.000Z</time></trkpt>
        <trkpt lat="28.2751681" lon="105.0453552"><ele>440.08</ele><time>2025-10-24T18:41:33.000Z</time></trkpt>
        <trkpt lat="28.2751178" lon="105.0452711"><ele>440.66</ele><time>2025-10-24T18:41:41.000Z</time></trkpt>
        <trkpt lat="28.2751086" lon="105.0452375"><ele>440.94</ele><time>2025-10-24T18:41:43.000Z</time></trkpt>
        <trkpt lat="28.2750458" lon="105.0451926"><ele>441.08</ele><time>2025-10-24T18:42:01.000Z</time></trkpt>
        <trkpt lat="28.2749652" lon="105.0451423"><ele>442.17</ele><time>2025-10-24T18:42:09.000Z</time></trkpt>
        <trkpt lat="28.2749347" lon="105.0451227"><ele>443.31</ele><time>2025-10-24T18:42:11.000Z</time></trkpt>
        <trkpt lat="28.2748707" lon="105.0450808"><ele>444.04</ele><time>2025-10-24T18:42:29.000Z</time></trkpt>
        <trkpt lat="28.2747938" lon="105.0450229"><ele>444.96</ele><time>2025-10-24T18:42:47.000Z</time></trkpt>
        <trkpt lat="28.2747034" lon="105.0449659"><ele>445.54</ele><time>2025-10-24T18:43:03.000Z</time></trkpt>
        <trkpt lat="28.2746146" lon="105.0449081"><ele>445.67</ele><time>2025-10-24T18:43:25.000Z</time></trkpt>
        <trkpt lat="28.2745224" lon="105.0448842"><ele>445.59</ele><time>2025-10-24T18:43:37.000Z</time></trkpt>
        <trkpt lat="28.2744378" lon="105.0448397"><ele>445.78</ele><time>2025-10-24T18:43:55.000Z</time></trkpt>
        <trkpt lat="28.2743494" lon="105.0448101"><ele>445.65</ele><time>2025-10-24T18:44:29.000Z</time></trkpt>
        <trkpt lat="28.2742559" lon="105.0448071"><ele>445.38</ele><time>2025-10-24T18:45:47.000Z</time></trkpt>
        <trkpt lat="28.2742103" lon="105.0449032"><ele>444.94</ele><time>2025-10-24T18:47:41.000Z</time></trkpt>
        <trkpt lat="28.2741139" lon="105.0449096"><ele>446.25</ele><time>2025-10-24T18:47:55.000Z</time></trkpt>
        <trkpt lat="28.2740155" lon="105.0449072"><ele>447.16</ele><time>2025-10-24T18:48:21.000Z</time></trkpt>
        <trkpt lat="28.2739413" lon="105.0449615"><ele>447.87</ele><time>2025-10-24T18:48:31.000Z</time></trkpt>
        <trkpt lat="28.2738612" lon="105.0450315"><ele>448.8</ele><time>2025-10-24T18:48:45.000Z</time></trkpt>
        <trkpt lat="28.2737762" lon="105.0450758"><ele>450.84</ele><time>2025-10-24T18:49:07.000Z</time></trkpt>
        <trkpt lat="28.273688" lon="105.0451423"><ele>452.94</ele><time>2025-10-24T18:49:41.000Z</time></trkpt>
        <trkpt lat="28.2735972" lon="105.0451457"><ele>457.53</ele><time>2025-10-24T18:49:53.000Z</time></trkpt>
        <trkpt lat="28.2735054" lon="105.0451465"><ele>463.11</ele><time>2025-10-24T18:50:05.000Z</time></trkpt>
        <trkpt lat="28.2734109" lon="105.0451526"><ele>466.53</ele><time>2025-10-24T18:50:31.000Z</time></trkpt>
        <trkpt lat="28.2733153" lon="105.045189"><ele>469.41</ele><time>2025-10-24T18:50:41.000Z</time></trkpt>
        <trkpt lat="28.2732204" lon="105.0452035"><ele>471.8</ele><time>2025-10-24T18:50:47.000Z</time></trkpt>
        <trkpt lat="28.2731733" lon="105.0452313"><ele>473.68</ele><time>2025-10-24T18:50:53.000Z</time></trkpt>
        <trkpt lat="28.273102" lon="105.0452618"><ele>475.72</ele><time>2025-10-24T18:51:05.000Z</time></trkpt>
        <trkpt lat="28.2730054" lon="105.0452506"><ele>482.64</ele><time>2025-10-24T18:52:09.000Z</time></trkpt>
        <trkpt lat="28.2729169" lon="105.0452918"><ele>484.46</ele><time>2025-10-24T18:52:17.000Z</time></trkpt>
        <trkpt lat="28.2728282" lon="105.0453325"><ele>487.82</ele><time>2025-10-24T18:52:29.000Z</time></trkpt>
        <trkpt lat="28.2727399" lon="105.045392"><ele>489.79</ele><time>2025-10-24T18:52:37.000Z</time></trkpt>
        <trkpt lat="28.2726534" lon="105.0454367"><ele>491.99</ele><time>2025-10-24T18:52:57.000Z</time></trkpt>
        <trkpt lat="28.27257" lon="105.0454814"><ele>494.67</ele><time>2025-10-24T18:53:11.000Z</time></trkpt>
        <trkpt lat="28.2724959" lon="105.0455464"><ele>497.01</ele><time>2025-10-24T18:53:41.000Z</time></trkpt>
        <trkpt lat="28.2724037" lon="105.0455903"><ele>498.85</ele><time>2025-10-24T18:53:55.000Z</time></trkpt>
        <trkpt lat="28.272326" lon="105.0456598"><ele>501.1</ele><time>2025-10-24T18:54:41.000Z</time></trkpt>
        <trkpt lat="28.2722354" lon="105.0456678"><ele>503.94</ele><time>2025-10-24T18:54:53.000Z</time></trkpt>
        <trkpt lat="28.2721416" lon="105.0456746"><ele>506.67</ele><time>2025-10-24T18:55:01.000Z</time></trkpt>
        <trkpt lat="28.2720458" lon="105.0456777"><ele>508.31</ele><time>2025-10-24T18:55:15.000Z</time></trkpt>
        <trkpt lat="28.2719503" lon="105.0456695"><ele>509.51</ele><time>2025-10-24T18:55:41.000Z</time></trkpt>
        <trkpt lat="28.271852" lon="105.0456582"><ele>510.73</ele><time>2025-10-24T18:56:23.000Z</time></trkpt>
        <trkpt lat="28.2719401" lon="105.0456263"><ele>512.48</ele><time>2025-10-24T18:59:35.000Z</time></trkpt>
        <trkpt lat="28.2720299" lon="105.0456092"><ele>522.49</ele><time>2025-10-24T18:59:55.000Z</time></trkpt>
        <trkpt lat="28.2720939" lon="105.0455413"><ele>528.77</ele><time>2025-10-24T19:00:05.000Z</time></trkpt>
        <trkpt lat="28.2721911" lon="105.0455216"><ele>533.03</ele><time>2025-10-24T19:00:19.000Z</time></trkpt>
        <trkpt lat="28.2722869" lon="105.0455424"><ele>533.37</ele><time>2025-10-24T19:00:43.000Z</time></trkpt>
        <trkpt lat="28.2723733" lon="105.0455086"><ele>530.21</ele><time>2025-10-24T19:00:59.000Z</time></trkpt>
        <trkpt lat="28.2724622" lon="105.0454705"><ele>527.21</ele><time>2025-10-24T19:01:23.000Z</time></trkpt>
        <trkpt lat="28.2725482" lon="105.045423"><ele>523.44</ele><time>2025-10-24T19:01:37.000Z</time></trkpt>
        <trkpt lat="28.2726374" lon="105.0453829"><ele>521.12</ele><time>2025-10-24T19:01:45.000Z</time></trkpt>
        <trkpt lat="28.2727154" lon="105.0453284"><ele>519.22</ele><time>2025-10-24T19:01:57.000Z</time></trkpt>
        <trkpt lat="28.272811" lon="105.0452924"><ele>516.89</ele><time>2025-10-24T19:02:11.000Z</time></trkpt>
        <trkpt lat="28.2729204" lon="105.0452621"><ele>513.82</ele><time>2025-10-24T19:02:21.000Z</time></trkpt>
        <trkpt lat="28.2730122" lon="105.0452227"><ele>511.1</ele><time>2025-10-24T19:02:35.000Z</time></trkpt>
        <trkpt lat="28.2730879" lon="105.0452782"><ele>509.26</ele><time>2025-10-24T19:03:35.000Z</time></trkpt>
        <trkpt lat="28.2731707" lon="105.045368"><ele>507.59</ele><time>2025-10-24T19:03:49.000Z</time></trkpt>
        <trkpt lat="28.273262" lon="105.0454367"><ele>506.8</ele><time>2025-10-24T19:04:11.000Z</time></trkpt>
        <trkpt lat="28.2733442" lon="105.045511"><ele>508.36</ele><time>2025-10-24T19:04:51.000Z</time></trkpt>
        <trkpt lat="28.2734225" lon="105.0455958"><ele>509.79</ele><time>2025-10-24T19:05:01.000Z</time></trkpt>
        <trkpt lat="28.2734863" lon="105.045678"><ele>512.02</ele><time>2025-10-24T19:05:23.000Z</time></trkpt>
        <trkpt lat="28.2735257" lon="105.0457852"><ele>514.48</ele><time>2025-10-24T19:06:23.000Z</time></trkpt>
        <trkpt lat="28.2735774" lon="105.0458755"><ele>518.96</ele><time>2025-10-24T19:07:09.000Z</time></trkpt>
        <trkpt lat="28.2736612" lon="105.0459546"><ele>523.15</ele><time>2025-10-24T19:07:31.000Z</time></trkpt>
        <trkpt lat="28.2737602" lon="105.0459785"><ele>528.39</ele><time>2025-10-24T19:07:47.000Z</time></trkpt>
        <trkpt lat="28.2738597" lon="105.0460019"><ele>533.64</ele><time>2025-10-24T19:08:01.000Z</time></trkpt>
        <trkpt lat="28.2739498" lon="105.0460528"><ele>538.87</ele><time>2025-10-24T19:08:13.000Z</time></trkpt>
        <trkpt lat="28.2740272" lon="105.0461124"><ele>542.34</ele><time>2025-10-24T19:08:27.000Z</time></trkpt>
        <trkpt lat="28.2740405" lon="105.0462082"><ele>545.36</ele><time>2025-10-24T19:08:40.000Z</time></trkpt>
        <trkpt lat="28.2739929" lon="105.0462993"><ele>547.63</ele><time>2025-10-24T19:08:53.000Z</time></trkpt>
        <trkpt lat="28.2738908" lon="105.046325"><ele>548.5</ele><time>2025-10-24T19:09:39.000Z</time></trkpt>
        <trkpt lat="28.2737802" lon="105.0463383"><ele>552.91</ele><time>2025-10-24T19:09:53.000Z</time></trkpt>
        <trkpt lat="28.2736703" lon="105.0463439"><ele>554.69</ele><time>2025-10-24T19:10:11.000Z</time></trkpt>
        <trkpt lat="28.2735628" lon="105.0463439"><ele>557.27</ele><time>2025-10-24T19:10:37.000Z</time></trkpt>
        <trkpt lat="28.2734631" lon="105.0463785"><ele>559.26</ele><time>2025-10-24T19:11:43.000Z</time></trkpt>
        <trkpt lat="28.2733736" lon="105.0463657"><ele>561.79</ele><time>2025-10-24T19:11:53.000Z</time></trkpt>
        <trkpt lat="28.2732752" lon="105.0463682"><ele>563.67</ele><time>2025-10-24T19:12:07.000Z</time></trkpt>
        <trkpt lat="28.2731748" lon="105.0463752"><ele>566.46</ele><time>2025-10-24T19:12:21.000Z</time></trkpt>
        <trkpt lat="28.2730732" lon="105.0464027"><ele>570.08</ele><time>2025-10-24T19:12:43.000Z</time></trkpt>
        <trkpt lat="28.2729801" lon="105.0464214"><ele>574.46</ele><time>2025-10-24T19:12:55.000Z</time></trkpt>
        <trkpt lat="28.27289" lon="105.0464149"><ele>576.7</ele><time>2025-10-24T19:13:09.000Z</time></trkpt>
        <trkpt lat="28.2727983" lon="105.0464201"><ele>578.2</ele><time>2025-10-24T19:13:21.000Z</time></trkpt>
        <trkpt lat="28.2727005" lon="105.0464109"><ele>579.06</ele><time>2025-10-24T19:13:33.000Z</time></trkpt>
        <trkpt lat="28.2726084" lon="105.0464414"><ele>579.75</ele><time>2025-10-24T19:13:46.000Z</time></trkpt>
        <trkpt lat="28.2725168" lon="105.0464492"><ele>580.96</ele><time>2025-10-24T19:13:59.000Z</time></trkpt>
        <trkpt lat="28.2724217" lon="105.0464367"><ele>582.41</ele><time>2025-10-24T19:14:17.000Z</time></trkpt>
        <trkpt lat="28.2723282" lon="105.0464472"><ele>583.81</ele><time>2025-10-24T19:14:35.000Z</time></trkpt>
        <trkpt lat="28.2722345" lon="105.0464625"><ele>585.18</ele><time>2025-10-24T19:14:47.000Z</time></trkpt>
        <trkpt lat="28.2721315" lon="105.0464916"><ele>586.67</ele><time>2025-10-24T19:15:01.000Z</time></trkpt>
        <trkpt lat="28.2720371" lon="105.0464969"><ele>588.36</ele><time>2025-10-24T19:15:13.000Z</time></trkpt>
        <trkpt lat="28.2719322" lon="105.0464825"><ele>589.67</ele><time>2025-10-24T19:15:21.000Z</time></trkpt>
        <trkpt lat="28.2718402" lon="105.0465011"><ele>590.09</ele><time>2025-10-24T19:15:35.000Z</time></trkpt>
        <trkpt lat="28.2717628" lon="105.0465535"><ele>590.96</ele><time>2025-10-24T19:15:47.000Z</time></trkpt>
        <trkpt lat="28.2716951" lon="105.0466308"><ele>592.9</ele><time>2025-10-24T19:16:05.000Z</time></trkpt>
        <trkpt lat="28.2716705" lon="105.0467317"><ele>593.95</ele><time>2025-10-24T19:16:17.000Z</time></trkpt>
        <trkpt lat="28.2716419" lon="105.046835"><ele>594.89</ele><time>2025-10-24T19:16:29.000Z</time></trkpt>
        <trkpt lat="28.2716059" lon="105.046934"><ele>597.31</ele><time>2025-10-24T19:16:41.000Z</time></trkpt>
        <trkpt lat="28.2715899" lon="105.0470404"><ele>597.42</ele><time>2025-10-24T19:16:53.000Z</time></trkpt>
        <trkpt lat="28.2715577" lon="105.0471431"><ele>596.32</ele><time>2025-10-24T19:17:05.000Z</time></trkpt>
        <trkpt lat="28.2715359" lon="105.0472557"><ele>595.56</ele><time>2025-10-24T19:17:21.000Z</time></trkpt>
        <trkpt lat="28.2714788" lon="105.0473342"><ele>595.7</ele><time>2025-10-24T19:17:33.000Z</time></trkpt>
        <trkpt lat="28.2714237" lon="105.0473202"><ele>594.79</ele><time>2025-10-24T19:17:43.000Z</time></trkpt>
        <trkpt lat="28.2713459" lon="105.0472699"><ele>593.48</ele><time>2025-10-24T19:17:55.000Z</time></trkpt>
        <trkpt lat="28.271315" lon="105.0472422"><ele>592.88</ele><time>2025-10-24T19:17:59.000Z</time></trkpt>
        <trkpt lat="28.2712439" lon="105.047202"><ele>592.59</ele><time>2025-10-24T19:18:15.000Z</time></trkpt>
        <trkpt lat="28.2711555" lon="105.0471767"><ele>590.96</ele><time>2025-10-24T19:18:29.000Z</time></trkpt>
        <trkpt lat="28.2711122" lon="105.0471711"><ele>589.79</ele><time>2025-10-24T19:18:33.000Z</time></trkpt>
        <trkpt lat="28.271037" lon="105.0471432"><ele>589.14</ele><time>2025-10-24T19:18:51.000Z</time></trkpt>
        <trkpt lat="28.2709487" lon="105.0471281"><ele>588.8</ele><time>2025-10-24T19:19:11.000Z</time></trkpt>
        <trkpt lat="28.2708597" lon="105.0470905"><ele>587.97</ele><time>2025-10-24T19:19:25.000Z</time></trkpt>
        <trkpt lat="28.2707742" lon="105.0470433"><ele>587.43</ele><time>2025-10-24T19:19:37.000Z</time></trkpt>
        <trkpt lat="28.2706863" lon="105.0469784"><ele>586.31</ele><time>2025-10-24T19:19:55.000Z</time></trkpt>
        <trkpt lat="28.2705953" lon="105.0469255"><ele>584.92</ele><time>2025-10-24T19:20:09.000Z</time></trkpt>
        <trkpt lat="28.2705036" lon="105.0469703"><ele>582.95</ele><time>2025-10-24T19:20:17.000Z</time></trkpt>
        <trkpt lat="28.2704134" lon="105.0469678"><ele>584.25</ele><time>2025-10-24T19:20:27.000Z</time></trkpt>
        <trkpt lat="28.2703308" lon="105.0469157"><ele>582.54</ele><time>2025-10-24T19:20:41.000Z</time></trkpt>
        <trkpt lat="28.2702479" lon="105.0468659"><ele>582.21</ele><time>2025-10-24T19:20:57.000Z</time></trkpt>
        <trkpt lat="28.270167" lon="105.0468043"><ele>582.45</ele><time>2025-10-24T19:21:07.000Z</time></trkpt>
        <trkpt lat="28.2700906" lon="105.0467403"><ele>582.6</ele><time>2025-10-24T19:21:31.000Z</time></trkpt>
        <trkpt lat="28.2700045" lon="105.0467176"><ele>584.46</ele><time>2025-10-24T19:21:43.000Z</time></trkpt>
        <trkpt lat="28.2699415" lon="105.0467906"><ele>585.98</ele><time>2025-10-24T19:22:01.000Z</time></trkpt>
        <trkpt lat="28.2698603" lon="105.0468349"><ele>587.19</ele><time>2025-10-24T19:22:47.000Z</time></trkpt>
        <trkpt lat="28.269768" lon="105.0468286"><ele>589.5</ele><time>2025-10-24T19:26:05.000Z</time></trkpt>
        <trkpt lat="28.2696769" lon="105.0468129"><ele>590.7</ele><time>2025-10-24T19:26:27.000Z</time></trkpt>
        <trkpt lat="28.2695756" lon="105.0468317"><ele>592.06</ele><time>2025-10-24T19:26:37.000Z</time></trkpt>
        <trkpt lat="28.269466" lon="105.0468422"><ele>592.7</ele><time>2025-10-24T19:26:45.000Z</time></trkpt>
        <trkpt lat="28.2693549" lon="105.0468577"><ele>593.34</ele><time>2025-10-24T19:26:53.000Z</time></trkpt>
        <trkpt lat="28.2692614" lon="105.0468882"><ele>594.97</ele><time>2025-10-24T19:27:01.000Z</time></trkpt>
        <trkpt lat="28.2691732" lon="105.0469191"><ele>595.72</ele><time>2025-10-24T19:28:01.000Z</time></trkpt>
        <trkpt lat="28.2691162" lon="105.0468602"><ele>594.64</ele><time>2025-10-24T19:28:13.000Z</time></trkpt>
        <trkpt lat="28.269086" lon="105.0467624"><ele>593.65</ele><time>2025-10-24T19:28:35.000Z</time></trkpt>
        <trkpt lat="28.2690318" lon="105.0466753"><ele>593.86</ele><time>2025-10-24T19:28:45.000Z</time></trkpt>
        <trkpt lat="28.2689511" lon="105.0466715"><ele>594.12</ele><time>2025-10-24T19:28:55.000Z</time></trkpt>
        <trkpt lat="28.2688639" lon="105.0466848"><ele>594.6</ele><time>2025-10-24T19:29:07.000Z</time></trkpt>
        <trkpt lat="28.2687721" lon="105.0466843"><ele>595.24</ele><time>2025-10-24T19:29:41.000Z</time></trkpt>
        <trkpt lat="28.2686813" lon="105.0467122"><ele>596.8</ele><time>2025-10-24T19:29:51.000Z</time></trkpt>
        <trkpt lat="28.2685862" lon="105.0467431"><ele>598.68</ele><time>2025-10-24T19:30:01.000Z</time></trkpt>
        <trkpt lat="28.2684886" lon="105.0467766"><ele>600.18</ele><time>2025-10-24T19:30:11.000Z</time></trkpt>
        <trkpt lat="28.2683879" lon="105.0468239"><ele>601.71</ele><time>2025-10-24T19:30:21.000Z</time></trkpt>
        <trkpt lat="28.2682853" lon="105.0468816"><ele>603.16</ele><time>2025-10-24T19:30:31.000Z</time></trkpt>
        <trkpt lat="28.2681826" lon="105.0469291"><ele>604.2</ele><time>2025-10-24T19:30:41.000Z</time></trkpt>
        <trkpt lat="28.2680871" lon="105.0469778"><ele>605.04</ele><time>2025-10-24T19:30:51.000Z</time></trkpt>
        <trkpt lat="28.267996" lon="105.0470268"><ele>605.67</ele><time>2025-10-24T19:31:01.000Z</time></trkpt>
        <trkpt lat="28.2679013" lon="105.0470686"><ele>606.59</ele><time>2025-10-24T19:31:11.000Z</time></trkpt>
        <trkpt lat="28.2677993" lon="105.0471042"><ele>607.43</ele><time>2025-10-24T19:31:21.000Z</time></trkpt>
        <trkpt lat="28.2677062" lon="105.0471369"><ele>608.18</ele><time>2025-10-24T19:31:29.000Z</time></trkpt>
        <trkpt lat="28.2676078" lon="105.0471645"><ele>608.94</ele><time>2025-10-24T19:31:39.000Z</time></trkpt>
        <trkpt lat="28.2675162" lon="105.0472069"><ele>609.35</ele><time>2025-10-24T19:31:49.000Z</time></trkpt>
        <trkpt lat="28.2674152" lon="105.0472578"><ele>609.6</ele><time>2025-10-24T19:31:57.000Z</time></trkpt>
        <trkpt lat="28.267319" lon="105.0473004"><ele>610.01</ele><time>2025-10-24T19:32:05.000Z</time></trkpt>
        <trkpt lat="28.2672289" lon="105.0473327"><ele>610.19</ele><time>2025-10-24T19:32:13.000Z</time></trkpt>
        <trkpt lat="28.2671398" lon="105.0473668"><ele>610.29</ele><time>2025-10-24T19:32:21.000Z</time></trkpt>
        <trkpt lat="28.2670628" lon="105.0474143"><ele>610.35</ele><time>2025-10-24T19:32:27.000Z</time></trkpt>
        <trkpt lat="28.2669699" lon="105.0474614"><ele>610.29</ele><time>2025-10-24T19:32:35.000Z</time></trkpt>
        <trkpt lat="28.2668707" lon="105.0474619"><ele>610.13</ele><time>2025-10-24T19:32:53.000Z</time></trkpt>
        <trkpt lat="28.2668192" lon="105.0473815"><ele>609.1</ele><time>2025-10-24T19:33:31.000Z</time></trkpt>
        <trkpt lat="28.2667939" lon="105.0472729"><ele>607.97</ele><time>2025-10-24T19:33:45.000Z</time></trkpt>
        <trkpt lat="28.2667696" lon="105.047156"><ele>607.38</ele><time>2025-10-24T19:33:55.000Z</time></trkpt>
        <trkpt lat="28.2667554" lon="105.0470651"><ele>608.83</ele><time>2025-10-24T19:34:05.000Z</time></trkpt>
        <trkpt lat="28.2667318" lon="105.0469594"><ele>608.9</ele><time>2025-10-24T19:34:39.000Z</time></trkpt>
        <trkpt lat="28.2667067" lon="105.0468514"><ele>608.73</ele><time>2025-10-24T19:34:49.000Z</time></trkpt>
        <trkpt lat="28.2666888" lon="105.0467427"><ele>610.08</ele><time>2025-10-24T19:35:01.000Z</time></trkpt>
        <trkpt lat="28.2666177" lon="105.0466984"><ele>611.58</ele><time>2025-10-24T19:35:15.000Z</time></trkpt>
        <trkpt lat="28.2665362" lon="105.0466459"><ele>612.42</ele><time>2025-10-24T19:35:35.000Z</time></trkpt>
        <trkpt lat="28.2664563" lon="105.0465852"><ele>614.05</ele><time>2025-10-24T19:35:49.000Z</time></trkpt>
        <trkpt lat="28.2663638" lon="105.0465899"><ele>615.65</ele><time>2025-10-24T19:36:07.000Z</time></trkpt>
        <trkpt lat="28.2662719" lon="105.0465822"><ele>617.66</ele><time>2025-10-24T19:36:21.000Z</time></trkpt>
        <trkpt lat="28.2661777" lon="105.0466173"><ele>619.71</ele><time>2025-10-24T19:36:45.000Z</time></trkpt>
        <trkpt lat="28.2660859" lon="105.0466547"><ele>624.05</ele><time>2025-10-24T19:36:57.000Z</time></trkpt>
        <trkpt lat="28.2659955" lon="105.0466816"><ele>624.98</ele><time>2025-10-24T19:37:07.000Z</time></trkpt>
        <trkpt lat="28.265904" lon="105.0466744"><ele>625.58</ele><time>2025-10-24T19:37:17.000Z</time></trkpt>
        <trkpt lat="28.2658137" lon="105.0466763"><ele>626.16</ele><time>2025-10-24T19:37:27.000Z</time></trkpt>
        <trkpt lat="28.2657217" lon="105.046681"><ele>626.97</ele><time>2025-10-24T19:37:35.000Z</time></trkpt>
        <trkpt lat="28.2656183" lon="105.0466895"><ele>627.75</ele><time>2025-10-24T19:37:45.000Z</time></trkpt>
        <trkpt lat="28.265522" lon="105.0467194"><ele>628.6</ele><time>2025-10-24T19:37:59.000Z</time></trkpt>
        <trkpt lat="28.2654291" lon="105.0467618"><ele>629.91</ele><time>2025-10-24T19:38:11.000Z</time></trkpt>
        <trkpt lat="28.2653374" lon="105.0468145"><ele>630.91</ele><time>2025-10-24T19:39:09.000Z</time></trkpt>
        <trkpt lat="28.2652367" lon="105.0468507"><ele>632.35</ele><time>2025-10-24T19:40:45.000Z</time></trkpt>
        <trkpt lat="28.2651506" lon="105.0468848"><ele>634.14</ele><time>2025-10-24T19:41:01.000Z</time></trkpt>
        <trkpt lat="28.2650608" lon="105.0468715"><ele>632.6</ele><time>2025-10-24T19:41:09.000Z</time></trkpt>
        <trkpt lat="28.2649695" lon="105.0468441"><ele>631.76</ele><time>2025-10-24T19:41:17.000Z</time></trkpt>
        <trkpt lat="28.2648751" lon="105.0467877"><ele>631.23</ele><time>2025-10-24T19:41:25.000Z</time></trkpt>
        <trkpt lat="28.2647998" lon="105.046713"><ele>631.13</ele><time>2025-10-24T19:41:39.000Z</time></trkpt>
        <trkpt lat="28.2647147" lon="105.0466818"><ele>631.77</ele><time>2025-10-24T19:41:47.000Z</time></trkpt>
        <trkpt lat="28.2646101" lon="105.0466725"><ele>632.2</ele><time>2025-10-24T19:41:55.000Z</time></trkpt>
        <trkpt lat="28.2644999" lon="105.0466796"><ele>632.49</ele><time>2025-10-24T19:42:01.000Z</time></trkpt>
        <trkpt lat="28.2643909" lon="105.0467049"><ele>632.66</ele><time>2025-10-24T19:42:11.000Z</time></trkpt>
        <trkpt lat="28.2642931" lon="105.0467163"><ele>632.75</ele><time>2025-10-24T19:42:19.000Z</time></trkpt>
        <trkpt lat="28.2642046" lon="105.0466961"><ele>632.81</ele><time>2025-10-24T19:42:23.000Z</time></trkpt>
        <trkpt lat="28.2641139" lon="105.0466699"><ele>632.59</ele><time>2025-10-24T19:43:01.000Z</time></trkpt>
        <trkpt lat="28.2640211" lon="105.0466762"><ele>631.24</ele><time>2025-10-24T19:43:25.000Z</time></trkpt>
        <trkpt lat="28.2639242" lon="105.0466805"><ele>629.39</ele><time>2025-10-24T19:43:33.000Z</time></trkpt>
        <trkpt lat="28.2638489" lon="105.0466101"><ele>627.98</ele><time>2025-10-24T19:43:41.000Z</time></trkpt>
        <trkpt lat="28.2637641" lon="105.0465802"><ele>625.01</ele><time>2025-10-24T19:43:55.000Z</time></trkpt>
        <trkpt lat="28.2636775" lon="105.0465345"><ele>624.42</ele><time>2025-10-24T19:44:05.000Z</time></trkpt>
        <trkpt lat="28.2636226" lon="105.0465225"><ele>621.51</ele><time>2025-10-24T19:44:19.000Z</time></trkpt>
        <trkpt lat="28.2635581" lon="105.0464733"><ele>621.24</ele><time>2025-10-24T19:45:17.000Z</time></trkpt>
        <trkpt lat="28.263467" lon="105.0464427"><ele>620.47</ele><time>2025-10-24T19:45:37.000Z</time></trkpt>
        <trkpt lat="28.2633732" lon="105.0464652"><ele>620.61</ele><time>2025-10-24T19:45:59.000Z</time></trkpt>
        <trkpt lat="28.2632855" lon="105.0464639"><ele>621.06</ele><time>2025-10-24T19:46:07.000Z</time></trkpt>
        <trkpt lat="28.263194" lon="105.0464939"><ele>620.99</ele><time>2025-10-24T19:46:21.000Z</time></trkpt>
        <trkpt lat="28.2631003" lon="105.0465317"><ele>620.86</ele><time>2025-10-24T19:46:29.000Z</time></trkpt>
        <trkpt lat="28.263013" lon="105.0465957"><ele>621.5</ele><time>2025-10-24T19:46:41.000Z</time></trkpt>
        <trkpt lat="28.2629339" lon="105.0466709"><ele>621.13</ele><time>2025-10-24T19:46:53.000Z</time></trkpt>
        <trkpt lat="28.2628393" lon="105.046706"><ele>620.13</ele><time>2025-10-24T19:47:03.000Z</time></trkpt>
        <trkpt lat="28.2627487" lon="105.0467366"><ele>618.39</ele><time>2025-10-24T19:47:13.000Z</time></trkpt>
        <trkpt lat="28.2627013" lon="105.0468235"><ele>616.73</ele><time>2025-10-24T19:47:29.000Z</time></trkpt>
        <trkpt lat="28.2626485" lon="105.0469322"><ele>616.62</ele><time>2025-10-24T19:48:15.000Z</time></trkpt>
        <trkpt lat="28.2626185" lon="105.0469882"><ele>617.49</ele><time>2025-10-24T19:48:19.000Z</time></trkpt>
        <trkpt lat="28.2625568" lon="105.0469082"><ele>618.19</ele><time>2025-10-24T19:50:19.000Z</time></trkpt>
        <trkpt lat="28.2624466" lon="105.0469017"><ele>620.01</ele><time>2025-10-24T19:50:49.000Z</time></trkpt>
        <trkpt lat="28.2624029" lon="105.0468945"><ele>622.05</ele><time>2025-10-24T19:50:53.000Z</time></trkpt>
        <trkpt lat="28.2623218" lon="105.0468463"><ele>623.68</ele><time>2025-10-24T19:51:13.000Z</time></trkpt>
        <trkpt lat="28.2622409" lon="105.0467875"><ele>624.81</ele><time>2025-10-24T19:51:25.000Z</time></trkpt>
        <trkpt lat="28.2621595" lon="105.046724"><ele>625.21</ele><time>2025-10-24T19:51:39.000Z</time></trkpt>
        <trkpt lat="28.2620745" lon="105.0466748"><ele>626.04</ele><time>2025-10-24T19:51:59.000Z</time></trkpt>
        <trkpt lat="28.2619821" lon="105.0466155"><ele>627.05</ele><time>2025-10-24T19:52:09.000Z</time></trkpt>
        <trkpt lat="28.2619492" lon="105.0465981"><ele>628.21</ele><time>2025-10-24T19:52:11.000Z</time></trkpt>
        <trkpt lat="28.2618864" lon="105.0465526"><ele>628.86</ele><time>2025-10-24T19:52:27.000Z</time></trkpt>
        <trkpt lat="28.2618055" lon="105.0465133"><ele>629.9</ele><time>2025-10-24T19:52:35.000Z</time></trkpt>
        <trkpt lat="28.2617245" lon="105.0464597"><ele>630.86</ele><time>2025-10-24T19:52:43.000Z</time></trkpt>
        <trkpt lat="28.2616273" lon="105.0464667"><ele>630.34</ele><time>2025-10-24T19:53:09.000Z</time></trkpt>
        <trkpt lat="28.2615331" lon="105.0464273"><ele>633.47</ele><time>2025-10-24T19:53:21.000Z</time></trkpt>
        <trkpt lat="28.2614524" lon="105.0463643"><ele>636.51</ele><time>2025-10-24T19:53:33.000Z</time></trkpt>
        <trkpt lat="28.2613804" lon="105.0462914"><ele>638.67</ele><time>2025-10-24T19:53:49.000Z</time></trkpt>
        <trkpt lat="28.2613106" lon="105.0462126"><ele>640.14</ele><time>2025-10-24T19:54:01.000Z</time></trkpt>
        <trkpt lat="28.2612866" lon="105.0461099"><ele>641.11</ele><time>2025-10-24T19:54:21.000Z</time></trkpt>
        <trkpt lat="28.2612308" lon="105.0461246"><ele>642.79</ele><time>2025-10-24T19:55:13.000Z</time></trkpt>
        <trkpt lat="28.2611392" lon="105.0461614"><ele>644.21</ele><time>2025-10-24T19:55:35.000Z</time></trkpt>
        <trkpt lat="28.2610346" lon="105.0461929"><ele>645.47</ele><time>2025-10-24T19:55:49.000Z</time></trkpt>
        <trkpt lat="28.2609326" lon="105.046224"><ele>645.38</ele><time>2025-10-24T19:56:05.000Z</time></trkpt>
        <trkpt lat="28.2608406" lon="105.0462582"><ele>645.79</ele><time>2025-10-24T19:56:15.000Z</time></trkpt>
        <trkpt lat="28.2607893" lon="105.0463449"><ele>646.03</ele><time>2025-10-24T19:57:13.000Z</time></trkpt>
        <trkpt lat="28.2607762" lon="105.046456"><ele>646.23</ele><time>2025-10-24T19:57:31.000Z</time></trkpt>
        <trkpt lat="28.260757" lon="105.0465662"><ele>645.04</ele><time>2025-10-24T19:57:47.000Z</time></trkpt>
        <trkpt lat="28.2607614" lon="105.0465171"><ele>644.9</ele><time>2025-10-24T19:58:35.000Z</time></trkpt>
        <trkpt lat="28.2607145" lon="105.0464313"><ele>644.65</ele><time>2025-10-24T19:58:59.000Z</time></trkpt>
        <trkpt lat="28.260642" lon="105.0463464"><ele>645.19</ele><time>2025-10-24T19:59:39.000Z</time></trkpt>
        <trkpt lat="28.2605475" lon="105.0463173"><ele>646.95</ele><time>2025-10-24T20:00:03.000Z</time></trkpt>
        <trkpt lat="28.2604464" lon="105.046316"><ele>650.35</ele><time>2025-10-24T20:00:37.000Z</time></trkpt>
        <trkpt lat="28.2603445" lon="105.0463315"><ele>654.11</ele><time>2025-10-24T20:00:59.000Z</time></trkpt>
        <trkpt lat="28.2602527" lon="105.0463667"><ele>657.64</ele><time>2025-10-24T20:01:15.000Z</time></trkpt>
        <trkpt lat="28.2601804" lon="105.0464336"><ele>661.86</ele><time>2025-10-24T20:01:51.000Z</time></trkpt>
        <trkpt lat="28.2600918" lon="105.0464792"><ele>665.86</ele><time>2025-10-24T20:02:11.000Z</time></trkpt>
        <trkpt lat="28.2600355" lon="105.0465706"><ele>670.13</ele><time>2025-10-24T20:03:07.000Z</time></trkpt>
        <trkpt lat="28.2599871" lon="105.046666"><ele>673.24</ele><time>2025-10-24T20:03:19.000Z</time></trkpt>
        <trkpt lat="28.2599263" lon="105.0467496"><ele>675.07</ele><time>2025-10-24T20:03:31.000Z</time></trkpt>
        <trkpt lat="28.2599046" lon="105.0467778"><ele>676.56</ele><time>2025-10-24T20:03:33.000Z</time></trkpt>
        <trkpt lat="28.2598554" lon="105.0468519"><ele>677.48</ele><time>2025-10-24T20:03:43.000Z</time></trkpt>
        <trkpt lat="28.2597879" lon="105.0469291"><ele>678.75</ele><time>2025-10-24T20:03:51.000Z</time></trkpt>
        <trkpt lat="28.2597324" lon="105.0470309"><ele>679.74</ele><time>2025-10-24T20:03:59.000Z</time></trkpt>
        <trkpt lat="28.2596472" lon="105.0470813"><ele>679.64</ele><time>2025-10-24T20:04:11.000Z</time></trkpt>
        <trkpt lat="28.2595602" lon="105.0471274"><ele>679.29</ele><time>2025-10-24T20:04:21.000Z</time></trkpt>
        <trkpt lat="28.2594594" lon="105.0471651"><ele>679.08</ele><time>2025-10-24T20:04:33.000Z</time></trkpt>
        <trkpt lat="28.2593674" lon="105.047207"><ele>679.01</ele><time>2025-10-24T20:04:41.000Z</time></trkpt>
        <trkpt lat="28.2592966" lon="105.0472351"><ele>679.6</ele><time>2025-10-24T20:04:55.000Z</time></trkpt>
        <trkpt lat="28.2592197" lon="105.0472728"><ele>680.91</ele><time>2025-10-24T20:05:07.000Z</time></trkpt>
        <trkpt lat="28.2591316" lon="105.0473242"><ele>681.09</ele><time>2025-10-24T20:05:21.000Z</time></trkpt>
        <trkpt lat="28.2590436" lon="105.0473857"><ele>680.77</ele><time>2025-10-24T20:05:33.000Z</time></trkpt>
        <trkpt lat="28.2589585" lon="105.0474544"><ele>680.25</ele><time>2025-10-24T20:05:43.000Z</time></trkpt>
        <trkpt lat="28.258877" lon="105.0475091"><ele>677.81</ele><time>2025-10-24T20:05:51.000Z</time></trkpt>
        <trkpt lat="28.2587863" lon="105.0475738"><ele>676.21</ele><time>2025-10-24T20:06:01.000Z</time></trkpt>
        <trkpt lat="28.2587094" lon="105.0476506"><ele>674.83</ele><time>2025-10-24T20:06:09.000Z</time></trkpt>
        <trkpt lat="28.2586434" lon="105.0477472"><ele>674.17</ele><time>2025-10-24T20:06:21.000Z</time></trkpt>
        <trkpt lat="28.2586089" lon="105.0478099"><ele>673.5</ele><time>2025-10-24T20:06:33.000Z</time></trkpt>
        <trkpt lat="28.2585435" lon="105.0477906"><ele>673.31</ele><time>2025-10-24T20:07:01.000Z</time></trkpt>
        <trkpt lat="28.2584577" lon="105.0477758"><ele>673.22</ele><time>2025-10-24T20:07:27.000Z</time></trkpt>
        <trkpt lat="28.2583726" lon="105.0477313"><ele>673.35</ele><time>2025-10-24T20:07:51.000Z</time></trkpt>
        <trkpt lat="28.2582864" lon="105.0476815"><ele>673.97</ele><time>2025-10-24T20:08:25.000Z</time></trkpt>
        <trkpt lat="28.258196" lon="105.0476698"><ele>674.17</ele><time>2025-10-24T20:08:39.000Z</time></trkpt>
        <trkpt lat="28.2581129" lon="105.0476268"><ele>676.2</ele><time>2025-10-24T20:09:27.000Z</time></trkpt>
        <trkpt lat="28.2580054" lon="105.047606"><ele>678.37</ele><time>2025-10-24T20:09:45.000Z</time></trkpt>
        <trkpt lat="28.2579047" lon="105.0476109"><ele>680.46</ele><time>2025-10-24T20:09:55.000Z</time></trkpt>
        <trkpt lat="28.2578122" lon="105.0476435"><ele>681.68</ele><time>2025-10-24T20:10:03.000Z</time></trkpt>
        <trkpt lat="28.2577157" lon="105.0476695"><ele>682.78</ele><time>2025-10-24T20:10:37.000Z</time></trkpt>
        <trkpt lat="28.2576263" lon="105.0477024"><ele>684.17</ele><time>2025-10-24T20:10:57.000Z</time></trkpt>
        <trkpt lat="28.2575743" lon="105.0477956"><ele>685.7</ele><time>2025-10-24T20:11:15.000Z</time></trkpt>
        <trkpt lat="28.2575526" lon="105.0478697"><ele>685.89</ele><time>2025-10-24T20:11:23.000Z</time></trkpt>
        <trkpt lat="28.2575311" lon="105.0479695"><ele>686.24</ele><time>2025-10-24T20:11:37.000Z</time></trkpt>
        <trkpt lat="28.2575114" lon="105.0480886"><ele>687.16</ele><time>2025-10-24T20:11:53.000Z</time></trkpt>
        <trkpt lat="28.2574767" lon="105.0481962"><ele>688.48</ele><time>2025-10-24T20:12:03.000Z</time></trkpt>
        <trkpt lat="28.2574514" lon="105.0482996"><ele>689.84</ele><time>2025-10-24T20:12:13.000Z</time></trkpt>
        <trkpt lat="28.257373" lon="105.0482949"><ele>690.54</ele><time>2025-10-24T20:12:29.000Z</time></trkpt>
        <trkpt lat="28.2572754" lon="105.0482579"><ele>691.62</ele><time>2025-10-24T20:12:49.000Z</time></trkpt>
        <trkpt lat="28.2571803" lon="105.0482081"><ele>692.15</ele><time>2025-10-24T20:13:01.000Z</time></trkpt>
        <trkpt lat="28.2571803" lon="105.0482081"><ele>692.15</ele><time>2025-10-24T20:13:09.000Z</time></trkpt>
      </trkseg>
      <trkseg>
        <trkpt lat="28.2572608" lon="105.0482028"><ele>692.19</ele><time>2025-10-24T20:58:17.000Z</time></trkpt>
        <trkpt lat="28.2572608" lon="105.0482028"><ele>692.19</ele><time>2025-10-24T20:58:29.000Z</time></trkpt>
        <trkpt lat="28.2571732" lon="105.0481617"><ele>695.08</ele><time>2025-10-24T20:58:39.000Z</time></trkpt>
        <trkpt lat="28.2570744" lon="105.048137"><ele>696.82</ele><time>2025-10-24T20:58:53.000Z</time></trkpt>
        <trkpt lat="28.2569798" lon="105.0480908"><ele>698.05</ele><time>2025-10-24T20:59:09.000Z</time></trkpt>
        <trkpt lat="28.2568947" lon="105.0480455"><ele>698.93</ele><time>2025-10-24T20:59:19.000Z</time></trkpt>
        <trkpt lat="28.2568104" lon="105.0480008"><ele>699.91</ele><time>2025-10-24T20:59:31.000Z</time></trkpt>
        <trkpt lat="28.2567234" lon="105.0479424"><ele>704.63</ele><time>2025-10-24T20:59:41.000Z</time></trkpt>
        <trkpt lat="28.2566397" lon="105.0478704"><ele>706.57</ele><time>2025-10-24T20:59:55.000Z</time></trkpt>
        <trkpt lat="28.2565577" lon="105.047806"><ele>708.19</ele><time>2025-10-24T21:00:13.000Z</time></trkpt>
        <trkpt lat="28.2564798" lon="105.0477375"><ele>710.13</ele><time>2025-10-24T21:00:25.000Z</time></trkpt>
        <trkpt lat="28.256389" lon="105.0476656"><ele>711.5</ele><time>2025-10-24T21:00:37.000Z</time></trkpt>
        <trkpt lat="28.2562936" lon="105.0476155"><ele>717.47</ele><time>2025-10-24T21:00:45.000Z</time></trkpt>
        <trkpt lat="28.2561971" lon="105.0475882"><ele>716.29</ele><time>2025-10-24T21:00:55.000Z</time></trkpt>
        <trkpt lat="28.2561026" lon="105.0475649"><ele>715.62</ele><time>2025-10-24T21:01:05.000Z</time></trkpt>
        <trkpt lat="28.2560688" lon="105.0475422"><ele>727.89</ele><time>2025-10-24T21:01:07.000Z</time></trkpt>
        <trkpt lat="28.2560114" lon="105.0474735"><ele>734.86</ele><time>2025-10-24T21:01:17.000Z</time></trkpt>
        <trkpt lat="28.2559879" lon="105.0473653"><ele>731.94</ele><time>2025-10-24T21:01:27.000Z</time></trkpt>
        <trkpt lat="28.2560105" lon="105.0472456"><ele>727.95</ele><time>2025-10-24T21:01:37.000Z</time></trkpt>
        <trkpt lat="28.2559538" lon="105.0471693"><ele>727.79</ele><time>2025-10-24T21:02:57.000Z</time></trkpt>
        <trkpt lat="28.2558753" lon="105.0470948"><ele>730.71</ele><time>2025-10-24T21:03:07.000Z</time></trkpt>
        <trkpt lat="28.2558047" lon="105.0470122"><ele>732.66</ele><time>2025-10-24T21:03:21.000Z</time></trkpt>
        <trkpt lat="28.255728" lon="105.0469437"><ele>735.4</ele><time>2025-10-24T21:03:35.000Z</time></trkpt>
        <trkpt lat="28.2556393" lon="105.0469362"><ele>738.55</ele><time>2025-10-24T21:03:51.000Z</time></trkpt>
        <trkpt lat="28.2555397" lon="105.0469203"><ele>742.68</ele><time>2025-10-24T21:04:09.000Z</time></trkpt>
        <trkpt lat="28.2554452" lon="105.0469119"><ele>747.93</ele><time>2025-10-24T21:04:33.000Z</time></trkpt>
        <trkpt lat="28.2553654" lon="105.046865"><ele>751.71</ele><time>2025-10-24T21:04:55.000Z</time></trkpt>
        <trkpt lat="28.2552731" lon="105.0468364"><ele>753.93</ele><time>2025-10-24T21:05:09.000Z</time></trkpt>
        <trkpt lat="28.2551898" lon="105.0467888"><ele>755.87</ele><time>2025-10-24T21:05:31.000Z</time></trkpt>
        <trkpt lat="28.2551172" lon="105.0467213"><ele>758.13</ele><time>2025-10-24T21:05:55.000Z</time></trkpt>
        <trkpt lat="28.2550415" lon="105.0466553"><ele>759.4</ele><time>2025-10-24T21:06:17.000Z</time></trkpt>
        <trkpt lat="28.2549492" lon="105.0466283"><ele>761.67</ele><time>2025-10-24T21:06:41.000Z</time></trkpt>
        <trkpt lat="28.2548567" lon="105.0466082"><ele>763.68</ele><time>2025-10-24T21:07:03.000Z</time></trkpt>
        <trkpt lat="28.2547566" lon="105.0466078"><ele>765.81</ele><time>2025-10-24T21:07:23.000Z</time></trkpt>
        <trkpt lat="28.2546636" lon="105.0465956"><ele>768.3</ele><time>2025-10-24T21:07:47.000Z</time></trkpt>
        <trkpt lat="28.2545739" lon="105.0466156"><ele>771.8</ele><time>2025-10-24T21:08:15.000Z</time></trkpt>
        <trkpt lat="28.2544826" lon="105.0466534"><ele>775.06</ele><time>2025-10-24T21:08:29.000Z</time></trkpt>
        <trkpt lat="28.254384" lon="105.046646"><ele>776.75</ele><time>2025-10-24T21:08:53.000Z</time></trkpt>
        <trkpt lat="28.2543024" lon="105.0465692"><ele>779.63</ele><time>2025-10-24T21:09:55.000Z</time></trkpt>
        <trkpt lat="28.254226" lon="105.0464899"><ele>784.98</ele><time>2025-10-24T21:10:15.000Z</time></trkpt>
        <trkpt lat="28.2541517" lon="105.0464007"><ele>789.77</ele><time>2025-10-24T21:10:29.000Z</time></trkpt>
        <trkpt lat="28.254093" lon="105.0463057"><ele>792.73</ele><time>2025-10-24T21:10:43.000Z</time></trkpt>
        <trkpt lat="28.254021" lon="105.0462393"><ele>795.4</ele><time>2025-10-24T21:11:17.000Z</time></trkpt>
        <trkpt lat="28.2539456" lon="105.0461694"><ele>797.84</ele><time>2025-10-24T21:11:35.000Z</time></trkpt>
        <trkpt lat="28.2539239" lon="105.0461553"><ele>799.76</ele><time>2025-10-24T21:11:45.000Z</time></trkpt>
        <trkpt lat="28.2538565" lon="105.0461797"><ele>802.25</ele><time>2025-10-24T21:12:27.000Z</time></trkpt>
        <trkpt lat="28.2538284" lon="105.0461919"><ele>807.19</ele><time>2025-10-24T21:12:29.000Z</time></trkpt>
        <trkpt lat="28.2537501" lon="105.0461599"><ele>810.09</ele><time>2025-10-24T21:12:41.000Z</time></trkpt>
        <trkpt lat="28.253659" lon="105.0461247"><ele>812.35</ele><time>2025-10-24T21:13:01.000Z</time></trkpt>
        <trkpt lat="28.2535623" lon="105.0460512"><ele>814.52</ele><time>2025-10-24T21:13:15.000Z</time></trkpt>
        <trkpt lat="28.2534841" lon="105.0459733"><ele>816.66</ele><time>2025-10-24T21:13:27.000Z</time></trkpt>
        <trkpt lat="28.2534667" lon="105.0458732"><ele>819.98</ele><time>2025-10-24T21:13:47.000Z</time></trkpt>
        <trkpt lat="28.253523" lon="105.0457889"><ele>823.58</ele><time>2025-10-24T21:13:59.000Z</time></trkpt>
        <trkpt lat="28.2536223" lon="105.0457696"><ele>826.25</ele><time>2025-10-24T21:14:13.000Z</time></trkpt>
        <trkpt lat="28.2537312" lon="105.0457558"><ele>828.58</ele><time>2025-10-24T21:14:25.000Z</time></trkpt>
        <trkpt lat="28.2538494" lon="105.0457422"><ele>830.59</ele><time>2025-10-24T21:14:37.000Z</time></trkpt>
        <trkpt lat="28.2539504" lon="105.0457267"><ele>832.67</ele><time>2025-10-24T21:15:09.000Z</time></trkpt>
        <trkpt lat="28.2540466" lon="105.0457045"><ele>835.16</ele><time>2025-10-24T21:15:23.000Z</time></trkpt>
        <trkpt lat="28.2541347" lon="105.0456576"><ele>837.74</ele><time>2025-10-24T21:15:41.000Z</time></trkpt>
        <trkpt lat="28.2542221" lon="105.0456005"><ele>839.94</ele><time>2025-10-24T21:16:01.000Z</time></trkpt>
        <trkpt lat="28.2542909" lon="105.0455273"><ele>842.42</ele><time>2025-10-24T21:16:13.000Z</time></trkpt>
        <trkpt lat="28.2543555" lon="105.0454386"><ele>844.09</ele><time>2025-10-24T21:16:25.000Z</time></trkpt>
        <trkpt lat="28.2544045" lon="105.0453432"><ele>844.78</ele><time>2025-10-24T21:16:39.000Z</time></trkpt>
        <trkpt lat="28.2543924" lon="105.0452436"><ele>845.48</ele><time>2025-10-24T21:16:49.000Z</time></trkpt>
        <trkpt lat="28.2543415" lon="105.0451509"><ele>846.08</ele><time>2025-10-24T21:16:59.000Z</time></trkpt>
        <trkpt lat="28.2542785" lon="105.0450628"><ele>846.63</ele><time>2025-10-24T21:17:07.000Z</time></trkpt>
        <trkpt lat="28.2541964" lon="105.0450006"><ele>847.62</ele><time>2025-10-24T21:17:15.000Z</time></trkpt>
        <trkpt lat="28.2541076" lon="105.0449543"><ele>848.57</ele><time>2025-10-24T21:17:25.000Z</time></trkpt>
        <trkpt lat="28.2540214" lon="105.0449097"><ele>850.03</ele><time>2025-10-24T21:17:37.000Z</time></trkpt>
        <trkpt lat="28.2539332" lon="105.0448609"><ele>851.32</ele><time>2025-10-24T21:17:45.000Z</time></trkpt>
        <trkpt lat="28.2538426" lon="105.0448148"><ele>853.83</ele><time>2025-10-24T21:17:53.000Z</time></trkpt>
        <trkpt lat="28.2537489" lon="105.0447623"><ele>854.96</ele><time>2025-10-24T21:18:05.000Z</time></trkpt>
        <trkpt lat="28.253678" lon="105.0446723"><ele>855.89</ele><time>2025-10-24T21:18:17.000Z</time></trkpt>
        <trkpt lat="28.2536677" lon="105.0445671"><ele>854.12</ele><time>2025-10-24T21:18:25.000Z</time></trkpt>
        <trkpt lat="28.2537138" lon="105.0444747"><ele>853.65</ele><time>2025-10-24T21:18:35.000Z</time></trkpt>
        <trkpt lat="28.2537639" lon="105.0443712"><ele>854.04</ele><time>2025-10-24T21:18:49.000Z</time></trkpt>
        <trkpt lat="28.2538548" lon="105.0443133"><ele>854.35</ele><time>2025-10-24T21:18:59.000Z</time></trkpt>
        <trkpt lat="28.2539672" lon="105.0443113"><ele>855.28</ele><time>2025-10-24T21:19:09.000Z</time></trkpt>
        <trkpt lat="28.2540796" lon="105.0443534"><ele>855.94</ele><time>2025-10-24T21:19:19.000Z</time></trkpt>
        <trkpt lat="28.2541848" lon="105.0443472"><ele>856.43</ele><time>2025-10-24T21:19:31.000Z</time></trkpt>
        <trkpt lat="28.2542776" lon="105.0443008"><ele>856.15</ele><time>2025-10-24T21:19:43.000Z</time></trkpt>
        <trkpt lat="28.2543611" lon="105.0442429"><ele>855.58</ele><time>2025-10-24T21:19:55.000Z</time></trkpt>
        <trkpt lat="28.2544517" lon="105.0441886"><ele>855.33</ele><time>2025-10-24T21:20:05.000Z</time></trkpt>
        <trkpt lat="28.2545547" lon="105.044175"><ele>855.22</ele><time>2025-10-24T21:20:13.000Z</time></trkpt>
        <trkpt lat="28.2546595" lon="105.0441733"><ele>856.41</ele><time>2025-10-24T21:20:25.000Z</time></trkpt>
        <trkpt lat="28.25474" lon="105.0441269"><ele>857.35</ele><time>2025-10-24T21:20:35.000Z</time></trkpt>
        <trkpt lat="28.2548255" lon="105.0440688"><ele>858.25</ele><time>2025-10-24T21:20:49.000Z</time></trkpt>
        <trkpt lat="28.2549273" lon="105.0439965"><ele>860.18</ele><time>2025-10-24T21:20:59.000Z</time></trkpt>
        <trkpt lat="28.2550124" lon="105.0440148"><ele>861.87</ele><time>2025-10-24T21:21:07.000Z</time></trkpt>
        <trkpt lat="28.2550565" lon="105.0441026"><ele>864.06</ele><time>2025-10-24T21:21:13.000Z</time></trkpt>
        <trkpt lat="28.2551113" lon="105.0442079"><ele>865.99</ele><time>2025-10-24T21:21:23.000Z</time></trkpt>
        <trkpt lat="28.2551877" lon="105.0442867"><ele>867.77</ele><time>2025-10-24T21:21:35.000Z</time></trkpt>
        <trkpt lat="28.2552833" lon="105.044296"><ele>869.73</ele><time>2025-10-24T21:21:49.000Z</time></trkpt>
        <trkpt lat="28.2553712" lon="105.0442483"><ele>871.4</ele><time>2025-10-24T21:22:13.000Z</time></trkpt>
        <trkpt lat="28.2554603" lon="105.0441695"><ele>871.92</ele><time>2025-10-24T21:22:25.000Z</time></trkpt>
        <trkpt lat="28.2555297" lon="105.0440745"><ele>873.12</ele><time>2025-10-24T21:22:39.000Z</time></trkpt>
        <trkpt lat="28.2556022" lon="105.0439937"><ele>869.77</ele><time>2025-10-24T21:22:53.000Z</time></trkpt>
        <trkpt lat="28.2557078" lon="105.043993"><ele>868.96</ele><time>2025-10-24T21:23:03.000Z</time></trkpt>
        <trkpt lat="28.2557777" lon="105.0440634"><ele>875.29</ele><time>2025-10-24T21:23:13.000Z</time></trkpt>
        <trkpt lat="28.255826" lon="105.0441664"><ele>873.02</ele><time>2025-10-24T21:23:23.000Z</time></trkpt>
        <trkpt lat="28.2558904" lon="105.0442559"><ele>872.71</ele><time>2025-10-24T21:23:39.000Z</time></trkpt>
        <trkpt lat="28.255931" lon="105.0443574"><ele>873.67</ele><time>2025-10-24T21:23:51.000Z</time></trkpt>
        <trkpt lat="28.255964" lon="105.0444573"><ele>875.02</ele><time>2025-10-24T21:24:09.000Z</time></trkpt>
        <trkpt lat="28.2560447" lon="105.0444986"><ele>876.45</ele><time>2025-10-24T21:24:21.000Z</time></trkpt>
        <trkpt lat="28.2561494" lon="105.0445076"><ele>883.09</ele><time>2025-10-24T21:24:37.000Z</time></trkpt>
        <trkpt lat="28.2562476" lon="105.0445502"><ele>882.51</ele><time>2025-10-24T21:24:51.000Z</time></trkpt>
        <trkpt lat="28.256341" lon="105.0445836"><ele>883.82</ele><time>2025-10-24T21:25:05.000Z</time></trkpt>
        <trkpt lat="28.2564356" lon="105.0445676"><ele>885.15</ele><time>2025-10-24T21:25:15.000Z</time></trkpt>
        <trkpt lat="28.2565223" lon="105.044523"><ele>888.25</ele><time>2025-10-24T21:25:35.000Z</time></trkpt>
        <trkpt lat="28.2565409" lon="105.0444269"><ele>890.66</ele><time>2025-10-24T21:25:59.000Z</time></trkpt>
        <trkpt lat="28.2564768" lon="105.0443557"><ele>893.85</ele><time>2025-10-24T21:26:13.000Z</time></trkpt>
        <trkpt lat="28.2563979" lon="105.0442787"><ele>896.98</ele><time>2025-10-24T21:26:33.000Z</time></trkpt>
        <trkpt lat="28.2563258" lon="105.0441886"><ele>899.42</ele><time>2025-10-24T21:26:47.000Z</time></trkpt>
        <trkpt lat="28.256256" lon="105.0441081"><ele>901.93</ele><time>2025-10-24T21:27:01.000Z</time></trkpt>
        <trkpt lat="28.2561827" lon="105.0440291"><ele>904.23</ele><time>2025-10-24T21:27:11.000Z</time></trkpt>
        <trkpt lat="28.2560901" lon="105.0439454"><ele>906.11</ele><time>2025-10-24T21:27:25.000Z</time></trkpt>
        <trkpt lat="28.2560018" lon="105.0438859"><ele>915.49</ele><time>2025-10-24T21:27:41.000Z</time></trkpt>
        <trkpt lat="28.2559564" lon="105.0438423"><ele>921.5</ele><time>2025-10-24T21:27:55.000Z</time></trkpt>
        <trkpt lat="28.2559221" lon="105.0437601"><ele>924.92</ele><time>2025-10-24T21:28:19.000Z</time></trkpt>
        <trkpt lat="28.2558933" lon="105.0436613"><ele>923.37</ele><time>2025-10-24T21:28:35.000Z</time></trkpt>
        <trkpt lat="28.2558673" lon="105.0435603"><ele>923.93</ele><time>2025-10-24T21:28:49.000Z</time></trkpt>
        <trkpt lat="28.2558477" lon="105.0434385"><ele>925.75</ele><time>2025-10-24T21:29:03.000Z</time></trkpt>
        <trkpt lat="28.2558844" lon="105.0433137"><ele>926.39</ele><time>2025-10-24T21:30:27.000Z</time></trkpt>
        <trkpt lat="28.2559588" lon="105.0432422"><ele>926.91</ele><time>2025-10-24T21:31:35.000Z</time></trkpt>
        <trkpt lat="28.2559658" lon="105.0432299"><ele>927.93</ele><time>2025-10-24T21:31:37.000Z</time></trkpt>
        <trkpt lat="28.256021" lon="105.0431602"><ele>927.41</ele><time>2025-10-24T21:31:53.000Z</time></trkpt>
        <trkpt lat="28.2561062" lon="105.0431029"><ele>927.09</ele><time>2025-10-24T21:32:13.000Z</time></trkpt>
        <trkpt lat="28.2562001" lon="105.0430732"><ele>931.36</ele><time>2025-10-24T21:32:35.000Z</time></trkpt>
        <trkpt lat="28.2562671" lon="105.0429959"><ele>936.52</ele><time>2025-10-24T21:33:39.000Z</time></trkpt>
        <trkpt lat="28.2562309" lon="105.0428746"><ele>941.01</ele><time>2025-10-24T21:34:03.000Z</time></trkpt>
        <trkpt lat="28.2561981" lon="105.0427737"><ele>943.86</ele><time>2025-10-24T21:34:19.000Z</time></trkpt>
        <trkpt lat="28.2562284" lon="105.0426797"><ele>945.8</ele><time>2025-10-24T21:35:03.000Z</time></trkpt>
        <trkpt lat="28.2563037" lon="105.0426219"><ele>947.26</ele><time>2025-10-24T21:35:21.000Z</time></trkpt>
        <trkpt lat="28.2563771" lon="105.0425441"><ele>948.9</ele><time>2025-10-24T21:35:33.000Z</time></trkpt>
        <trkpt lat="28.2564475" lon="105.0424687"><ele>949.13</ele><time>2025-10-24T21:35:47.000Z</time></trkpt>
        <trkpt lat="28.2565184" lon="105.0423912"><ele>950.54</ele><time>2025-10-24T21:36:01.000Z</time></trkpt>
        <trkpt lat="28.2565879" lon="105.0423133"><ele>950.95</ele><time>2025-10-24T21:36:09.000Z</time></trkpt>
        <trkpt lat="28.2566543" lon="105.0422278"><ele>951.68</ele><time>2025-10-24T21:36:21.000Z</time></trkpt>
        <trkpt lat="28.256689" lon="105.0421126"><ele>952.9</ele><time>2025-10-24T21:36:53.000Z</time></trkpt>
        <trkpt lat="28.2566937" lon="105.0419988"><ele>953.98</ele><time>2025-10-24T21:37:03.000Z</time></trkpt>
        <trkpt lat="28.2566234" lon="105.0419081"><ele>954.73</ele><time>2025-10-24T21:37:33.000Z</time></trkpt>
        <trkpt lat="28.2565334" lon="105.0418402"><ele>955.28</ele><time>2025-10-24T21:37:51.000Z</time></trkpt>
        <trkpt lat="28.2564459" lon="105.0417829"><ele>955.31</ele><time>2025-10-24T21:38:17.000Z</time></trkpt>
        <trkpt lat="28.2563712" lon="105.0417161"><ele>955.31</ele><time>2025-10-24T21:38:27.000Z</time></trkpt>
        <trkpt lat="28.2563181" lon="105.0416332"><ele>955.56</ele><time>2025-10-24T21:38:35.000Z</time></trkpt>
        <trkpt lat="28.256263" lon="105.0415432"><ele>955.46</ele><time>2025-10-24T21:38:45.000Z</time></trkpt>
        <trkpt lat="28.2562061" lon="105.0414381"><ele>955.11</ele><time>2025-10-24T21:38:53.000Z</time></trkpt>
        <trkpt lat="28.2561366" lon="105.0413266"><ele>953.35</ele><time>2025-10-24T21:39:05.000Z</time></trkpt>
        <trkpt lat="28.2560706" lon="105.0412402"><ele>953.35</ele><time>2025-10-24T21:39:13.000Z</time></trkpt>
        <trkpt lat="28.2560397" lon="105.0411424"><ele>953.38</ele><time>2025-10-24T21:39:27.000Z</time></trkpt>
        <trkpt lat="28.2559989" lon="105.0410464"><ele>953.44</ele><time>2025-10-24T21:39:39.000Z</time></trkpt>
        <trkpt lat="28.2559644" lon="105.0409506"><ele>954.1</ele><time>2025-10-24T21:39:53.000Z</time></trkpt>
        <trkpt lat="28.2559255" lon="105.0408465"><ele>952.86</ele><time>2025-10-24T21:40:05.000Z</time></trkpt>
        <trkpt lat="28.2558797" lon="105.0407362"><ele>950.99</ele><time>2025-10-24T21:40:19.000Z</time></trkpt>
        <trkpt lat="28.2558324" lon="105.0406351"><ele>949.05</ele><time>2025-10-24T21:40:25.000Z</time></trkpt>
        <trkpt lat="28.2557921" lon="105.0405372"><ele>947.75</ele><time>2025-10-24T21:40:35.000Z</time></trkpt>
        <trkpt lat="28.255769" lon="105.0404256"><ele>946.96</ele><time>2025-10-24T21:40:45.000Z</time></trkpt>
        <trkpt lat="28.2557352" lon="105.0403099"><ele>947.51</ele><time>2025-10-24T21:40:55.000Z</time></trkpt>
        <trkpt lat="28.2556735" lon="105.0402262"><ele>947.29</ele><time>2025-10-24T21:41:03.000Z</time></trkpt>
        <trkpt lat="28.2556011" lon="105.0401554"><ele>945.97</ele><time>2025-10-24T21:41:19.000Z</time></trkpt>
        <trkpt lat="28.2555901" lon="105.0400599"><ele>944.97</ele><time>2025-10-24T21:41:27.000Z</time></trkpt>
        <trkpt lat="28.2556089" lon="105.0399542"><ele>943.76</ele><time>2025-10-24T21:41:39.000Z</time></trkpt>
        <trkpt lat="28.2555867" lon="105.0398651"><ele>942.25</ele><time>2025-10-24T21:41:47.000Z</time></trkpt>
        <trkpt lat="28.2555232" lon="105.0398017"><ele>940.9</ele><time>2025-10-24T21:41:57.000Z</time></trkpt>
        <trkpt lat="28.2554618" lon="105.0397223"><ele>939.75</ele><time>2025-10-24T21:42:09.000Z</time></trkpt>
        <trkpt lat="28.2553908" lon="105.0396417"><ele>938.87</ele><time>2025-10-24T21:42:45.000Z</time></trkpt>
        <trkpt lat="28.2553227" lon="105.0395634"><ele>938.58</ele><time>2025-10-24T21:42:53.000Z</time></trkpt>
        <trkpt lat="28.2553007" lon="105.0395169"><ele>937.48</ele><time>2025-10-24T21:42:57.000Z</time></trkpt>
        <trkpt lat="28.2553116" lon="105.0394299"><ele>936.88</ele><time>2025-10-24T21:43:23.000Z</time></trkpt>
        <trkpt lat="28.255391" lon="105.0393691"><ele>936.62</ele><time>2025-10-24T21:43:37.000Z</time></trkpt>
        <trkpt lat="28.2554919" lon="105.0393555"><ele>936.98</ele><time>2025-10-24T21:43:45.000Z</time></trkpt>
        <trkpt lat="28.2555825" lon="105.0392992"><ele>936.76</ele><time>2025-10-24T21:43:55.000Z</time></trkpt>
        <trkpt lat="28.2556568" lon="105.0392124"><ele>935.69</ele><time>2025-10-24T21:44:05.000Z</time></trkpt>
        <trkpt lat="28.2557046" lon="105.0391156"><ele>934.96</ele><time>2025-10-24T21:44:19.000Z</time></trkpt>
        <trkpt lat="28.2557707" lon="105.0390302"><ele>934</ele><time>2025-10-24T21:44:33.000Z</time></trkpt>
        <trkpt lat="28.255855" lon="105.0390147"><ele>934.75</ele><time>2025-10-24T21:44:53.000Z</time></trkpt>
        <trkpt lat="28.255946" lon="105.0390279"><ele>936.6</ele><time>2025-10-24T21:45:07.000Z</time></trkpt>
        <trkpt lat="28.2560282" lon="105.0389951"><ele>938.41</ele><time>2025-10-24T21:45:29.000Z</time></trkpt>
        <trkpt lat="28.2561111" lon="105.0389143"><ele>941.14</ele><time>2025-10-24T21:46:29.000Z</time></trkpt>
        <trkpt lat="28.2560324" lon="105.0388505"><ele>943.67</ele><time>2025-10-24T21:46:55.000Z</time></trkpt>
        <trkpt lat="28.2559486" lon="105.0388049"><ele>946.08</ele><time>2025-10-24T21:47:07.000Z</time></trkpt>
        <trkpt lat="28.255922" lon="105.038712"><ele>947.62</ele><time>2025-10-24T21:47:19.000Z</time></trkpt>
        <trkpt lat="28.255992" lon="105.0386329"><ele>949.12</ele><time>2025-10-24T21:47:31.000Z</time></trkpt>
        <trkpt lat="28.2560873" lon="105.0385793"><ele>951.85</ele><time>2025-10-24T21:47:43.000Z</time></trkpt>
        <trkpt lat="28.2561884" lon="105.0385498"><ele>954.3</ele><time>2025-10-24T21:47:53.000Z</time></trkpt>
        <trkpt lat="28.2562901" lon="105.0385538"><ele>957.14</ele><time>2025-10-24T21:48:01.000Z</time></trkpt>
        <trkpt lat="28.2563974" lon="105.0385699"><ele>959.74</ele><time>2025-10-24T21:48:11.000Z</time></trkpt>
        <trkpt lat="28.2564991" lon="105.0385816"><ele>962.61</ele><time>2025-10-24T21:48:31.000Z</time></trkpt>
        <trkpt lat="28.2566027" lon="105.0386036"><ele>964.82</ele><time>2025-10-24T21:48:39.000Z</time></trkpt>
        <trkpt lat="28.2566914" lon="105.0385711"><ele>967.22</ele><time>2025-10-24T21:48:51.000Z</time></trkpt>
        <trkpt lat="28.2567802" lon="105.0385567"><ele>967.03</ele><time>2025-10-24T21:49:05.000Z</time></trkpt>
        <trkpt lat="28.2568751" lon="105.0385674"><ele>967.04</ele><time>2025-10-24T21:49:19.000Z</time></trkpt>
        <trkpt lat="28.2569716" lon="105.0385667"><ele>968.1</ele><time>2025-10-24T21:49:35.000Z</time></trkpt>
        <trkpt lat="28.2570878" lon="105.0386195"><ele>968.03</ele><time>2025-10-24T21:49:47.000Z</time></trkpt>
        <trkpt lat="28.2571811" lon="105.0386716"><ele>967.34</ele><time>2025-10-24T21:49:57.000Z</time></trkpt>
        <trkpt lat="28.2572785" lon="105.038731"><ele>972.05</ele><time>2025-10-24T21:50:07.000Z</time></trkpt>
        <trkpt lat="28.2573798" lon="105.0387856"><ele>975.67</ele><time>2025-10-24T21:50:17.000Z</time></trkpt>
        <trkpt lat="28.2574844" lon="105.0388167"><ele>970.18</ele><time>2025-10-24T21:50:29.000Z</time></trkpt>
        <trkpt lat="28.2575787" lon="105.0388664"><ele>966.92</ele><time>2025-10-24T21:50:39.000Z</time></trkpt>
        <trkpt lat="28.2576699" lon="105.0389175"><ele>964.51</ele><time>2025-10-24T21:50:51.000Z</time></trkpt>
        <trkpt lat="28.2577637" lon="105.0389215"><ele>963.35</ele><time>2025-10-24T21:51:01.000Z</time></trkpt>
        <trkpt lat="28.2578505" lon="105.0388887"><ele>962.84</ele><time>2025-10-24T21:51:11.000Z</time></trkpt>
        <trkpt lat="28.2579385" lon="105.0388582"><ele>962.64</ele><time>2025-10-24T21:51:29.000Z</time></trkpt>
        <trkpt lat="28.2580014" lon="105.0389325"><ele>969.89</ele><time>2025-10-24T21:52:33.000Z</time></trkpt>
        <trkpt lat="28.258094" lon="105.0389847"><ele>975.75</ele><time>2025-10-24T21:53:17.000Z</time></trkpt>
        <trkpt lat="28.2581835" lon="105.0389558"><ele>979.55</ele><time>2025-10-24T21:53:27.000Z</time></trkpt>
        <trkpt lat="28.2582677" lon="105.0388946"><ele>981.27</ele><time>2025-10-24T21:53:37.000Z</time></trkpt>
        <trkpt lat="28.2583412" lon="105.0388253"><ele>981.35</ele><time>2025-10-24T21:53:47.000Z</time></trkpt>
        <trkpt lat="28.2583978" lon="105.038741"><ele>981.23</ele><time>2025-10-24T21:53:55.000Z</time></trkpt>
        <trkpt lat="28.2584762" lon="105.0386923"><ele>981.68</ele><time>2025-10-24T21:54:07.000Z</time></trkpt>
        <trkpt lat="28.2585482" lon="105.0386284"><ele>981.58</ele><time>2025-10-24T21:54:19.000Z</time></trkpt>
        <trkpt lat="28.2586244" lon="105.038553"><ele>983.39</ele><time>2025-10-24T21:54:31.000Z</time></trkpt>
        <trkpt lat="28.2586915" lon="105.0384614"><ele>984.92</ele><time>2025-10-24T21:54:41.000Z</time></trkpt>
        <trkpt lat="28.2587632" lon="105.0383785"><ele>983.78</ele><time>2025-10-24T21:54:53.000Z</time></trkpt>
        <trkpt lat="28.2588448" lon="105.0383028"><ele>983.82</ele><time>2025-10-24T21:55:03.000Z</time></trkpt>
        <trkpt lat="28.2589391" lon="105.0382607"><ele>983.64</ele><time>2025-10-24T21:55:11.000Z</time></trkpt>
        <trkpt lat="28.2590256" lon="105.0382973"><ele>983.41</ele><time>2025-10-24T21:55:17.000Z</time></trkpt>
        <trkpt lat="28.2591083" lon="105.0383549"><ele>987.06</ele><time>2025-10-24T21:55:25.000Z</time></trkpt>
        <trkpt lat="28.2592047" lon="105.0383926"><ele>990.28</ele><time>2025-10-24T21:55:37.000Z</time></trkpt>
        <trkpt lat="28.2592958" lon="105.0384493"><ele>992.12</ele><time>2025-10-24T21:55:45.000Z</time></trkpt>
        <trkpt lat="28.2593694" lon="105.0385292"><ele>987.69</ele><time>2025-10-24T21:56:05.000Z</time></trkpt>
        <trkpt lat="28.2594537" lon="105.0385723"><ele>984.77</ele><time>2025-10-24T21:56:13.000Z</time></trkpt>
        <trkpt lat="28.2595501" lon="105.0385799"><ele>983.09</ele><time>2025-10-24T21:56:19.000Z</time></trkpt>
        <trkpt lat="28.2596393" lon="105.0385509"><ele>982.14</ele><time>2025-10-24T21:56:27.000Z</time></trkpt>
        <trkpt lat="28.2596951" lon="105.038514"><ele>981.6</ele><time>2025-10-24T21:56:33.000Z</time></trkpt>
        <trkpt lat="28.2597553" lon="105.0384763"><ele>981.29</ele><time>2025-10-24T21:56:39.000Z</time></trkpt>
        <trkpt lat="28.2598173" lon="105.038394"><ele>988.67</ele><time>2025-10-24T21:56:57.000Z</time></trkpt>
        <trkpt lat="28.2598675" lon="105.0382782"><ele>992.51</ele><time>2025-10-24T21:57:07.000Z</time></trkpt>
        <trkpt lat="28.2599248" lon="105.0381844"><ele>994.02</ele><time>2025-10-24T21:57:15.000Z</time></trkpt>
        <trkpt lat="28.2599874" lon="105.0381"><ele>994.15</ele><time>2025-10-24T21:57:21.000Z</time></trkpt>
        <trkpt lat="28.2600426" lon="105.0380064"><ele>994.02</ele><time>2025-10-24T21:57:29.000Z</time></trkpt>
        <trkpt lat="28.2600926" lon="105.0378973"><ele>992.8</ele><time>2025-10-24T21:57:37.000Z</time></trkpt>
        <trkpt lat="28.2601559" lon="105.03781"><ele>992.06</ele><time>2025-10-24T21:57:45.000Z</time></trkpt>
        <trkpt lat="28.2602436" lon="105.0377394"><ele>991.74</ele><time>2025-10-24T21:57:53.000Z</time></trkpt>
        <trkpt lat="28.260329" lon="105.0376478"><ele>990.97</ele><time>2025-10-24T21:57:59.000Z</time></trkpt>
        <trkpt lat="28.2603846" lon="105.0375388"><ele>990.83</ele><time>2025-10-24T21:58:07.000Z</time></trkpt>
        <trkpt lat="28.2604289" lon="105.0374311"><ele>991.54</ele><time>2025-10-24T21:58:17.000Z</time></trkpt>
        <trkpt lat="28.2605048" lon="105.0374033"><ele>992.81</ele><time>2025-10-24T21:58:23.000Z</time></trkpt>
        <trkpt lat="28.2605933" lon="105.0374451"><ele>994.3</ele><time>2025-10-24T21:58:31.000Z</time></trkpt>
        <trkpt lat="28.2606305" lon="105.0374712"><ele>995.57</ele><time>2025-10-24T21:58:33.000Z</time></trkpt>
        <trkpt lat="28.2606978" lon="105.0375216"><ele>997.9</ele><time>2025-10-24T21:58:43.000Z</time></trkpt>
        <trkpt lat="28.2608025" lon="105.037553"><ele>999.25</ele><time>2025-10-24T21:58:49.000Z</time></trkpt>
        <trkpt lat="28.2608553" lon="105.0376442"><ele>1001.13</ele><time>2025-10-24T21:58:59.000Z</time></trkpt>
        <trkpt lat="28.2608944" lon="105.0377452"><ele>1002.7</ele><time>2025-10-24T21:59:09.000Z</time></trkpt>
        <trkpt lat="28.2609423" lon="105.0378486"><ele>1003.35</ele><time>2025-10-24T21:59:19.000Z</time></trkpt>
        <trkpt lat="28.2609929" lon="105.0379443"><ele>1002.68</ele><time>2025-10-24T21:59:27.000Z</time></trkpt>
        <trkpt lat="28.2610489" lon="105.0380326"><ele>1001.63</ele><time>2025-10-24T21:59:33.000Z</time></trkpt>
        <trkpt lat="28.2611102" lon="105.0381342"><ele>1008.37</ele><time>2025-10-24T21:59:41.000Z</time></trkpt>
        <trkpt lat="28.2611477" lon="105.0382376"><ele>1014.04</ele><time>2025-10-24T21:59:49.000Z</time></trkpt>
        <trkpt lat="28.2611543" lon="105.0383425"><ele>1018.27</ele><time>2025-10-24T21:59:55.000Z</time></trkpt>
        <trkpt lat="28.2611883" lon="105.0384371"><ele>1022.28</ele><time>2025-10-24T22:00:07.000Z</time></trkpt>
        <trkpt lat="28.2612541" lon="105.0385113"><ele>1024.74</ele><time>2025-10-24T22:00:17.000Z</time></trkpt>
        <trkpt lat="28.2613299" lon="105.0385733"><ele>1026.7</ele><time>2025-10-24T22:00:25.000Z</time></trkpt>
        <trkpt lat="28.2613895" lon="105.038679"><ele>1029.13</ele><time>2025-10-24T22:00:35.000Z</time></trkpt>
        <trkpt lat="28.2614476" lon="105.0388012"><ele>1031.36</ele><time>2025-10-24T22:00:45.000Z</time></trkpt>
        <trkpt lat="28.2615226" lon="105.0388886"><ele>1028.58</ele><time>2025-10-24T22:00:53.000Z</time></trkpt>
        <trkpt lat="28.2616263" lon="105.0389117"><ele>1026.61</ele><time>2025-10-24T22:01:03.000Z</time></trkpt>
        <trkpt lat="28.2617367" lon="105.0389269"><ele>1025.89</ele><time>2025-10-24T22:01:13.000Z</time></trkpt>
        <trkpt lat="28.2618247" lon="105.0389782"><ele>1025.76</ele><time>2025-10-24T22:01:21.000Z</time></trkpt>
        <trkpt lat="28.2619135" lon="105.0390173"><ele>1026.31</ele><time>2025-10-24T22:01:29.000Z</time></trkpt>
        <trkpt lat="28.2620122" lon="105.039061"><ele>1026.8</ele><time>2025-10-24T22:01:37.000Z</time></trkpt>
        <trkpt lat="28.2621043" lon="105.0390847"><ele>1032.08</ele><time>2025-10-24T22:01:45.000Z</time></trkpt>
        <trkpt lat="28.2621988" lon="105.039093"><ele>1035.51</ele><time>2025-10-24T22:01:55.000Z</time></trkpt>
        <trkpt lat="28.2622975" lon="105.0390656"><ele>1031.06</ele><time>2025-10-24T22:02:09.000Z</time></trkpt>
        <trkpt lat="28.2623874" lon="105.039003"><ele>1028.25</ele><time>2025-10-24T22:03:07.000Z</time></trkpt>
        <trkpt lat="28.2624682" lon="105.0389373"><ele>1031.75</ele><time>2025-10-24T22:03:17.000Z</time></trkpt>
        <trkpt lat="28.2625046" lon="105.0388359"><ele>1033.59</ele><time>2025-10-24T22:03:27.000Z</time></trkpt>
        <trkpt lat="28.2624863" lon="105.0387131"><ele>1032.23</ele><time>2025-10-24T22:03:35.000Z</time></trkpt>
        <trkpt lat="28.2624222" lon="105.0386045"><ele>1033.8</ele><time>2025-10-24T22:03:47.000Z</time></trkpt>
        <trkpt lat="28.2623381" lon="105.0384987"><ele>1034.17</ele><time>2025-10-24T22:03:55.000Z</time></trkpt>
        <trkpt lat="28.2622792" lon="105.0383985"><ele>1034.06</ele><time>2025-10-24T22:04:05.000Z</time></trkpt>
        <trkpt lat="28.262264" lon="105.0382828"><ele>1033.85</ele><time>2025-10-24T22:04:19.000Z</time></trkpt>
        <trkpt lat="28.2622972" lon="105.0381555"><ele>1033.86</ele><time>2025-10-24T22:04:27.000Z</time></trkpt>
        <trkpt lat="28.2623426" lon="105.0380501"><ele>1033.86</ele><time>2025-10-24T22:04:33.000Z</time></trkpt>
        <trkpt lat="28.2623537" lon="105.0379442"><ele>1031.71</ele><time>2025-10-24T22:04:41.000Z</time></trkpt>
        <trkpt lat="28.2623838" lon="105.0378386"><ele>1028.2</ele><time>2025-10-24T22:04:49.000Z</time></trkpt>
        <trkpt lat="28.2624438" lon="105.0377328"><ele>1026.61</ele><time>2025-10-24T22:04:59.000Z</time></trkpt>
        <trkpt lat="28.262452" lon="105.0376232"><ele>1024.94</ele><time>2025-10-24T22:05:09.000Z</time></trkpt>
        <trkpt lat="28.2624496" lon="105.0375125"><ele>1023.31</ele><time>2025-10-24T22:05:19.000Z</time></trkpt>
        <trkpt lat="28.2624393" lon="105.037392"><ele>1022.56</ele><time>2025-10-24T22:05:29.000Z</time></trkpt>
        <trkpt lat="28.262426" lon="105.0372843"><ele>1022.85</ele><time>2025-10-24T22:05:37.000Z</time></trkpt>
        <trkpt lat="28.2624107" lon="105.0371785"><ele>1022.59</ele><time>2025-10-24T22:05:45.000Z</time></trkpt>
        <trkpt lat="28.2623988" lon="105.0370738"><ele>1022.69</ele><time>2025-10-24T22:05:53.000Z</time></trkpt>
        <trkpt lat="28.262372" lon="105.0369712"><ele>1022.58</ele><time>2025-10-24T22:06:01.000Z</time></trkpt>
        <trkpt lat="28.262331" lon="105.0368749"><ele>1022.33</ele><time>2025-10-24T22:06:09.000Z</time></trkpt>
        <trkpt lat="28.2622944" lon="105.036766"><ele>1022.06</ele><time>2025-10-24T22:06:19.000Z</time></trkpt>
        <trkpt lat="28.2622586" lon="105.0366521"><ele>1022.22</ele><time>2025-10-24T22:06:29.000Z</time></trkpt>
        <trkpt lat="28.2622534" lon="105.0365429"><ele>1022.85</ele><time>2025-10-24T22:06:41.000Z</time></trkpt>
        <trkpt lat="28.2623262" lon="105.0364811"><ele>1023.31</ele><time>2025-10-24T22:06:53.000Z</time></trkpt>
        <trkpt lat="28.262433" lon="105.0364774"><ele>1023.55</ele><time>2025-10-24T22:07:05.000Z</time></trkpt>
        <trkpt lat="28.2625339" lon="105.0364562"><ele>1024.88</ele><time>2025-10-24T22:07:13.000Z</time></trkpt>
        <trkpt lat="28.2626302" lon="105.0363774"><ele>1025.55</ele><time>2025-10-24T22:07:21.000Z</time></trkpt>
        <trkpt lat="28.2626727" lon="105.0362727"><ele>1025.8</ele><time>2025-10-24T22:07:29.000Z</time></trkpt>
        <trkpt lat="28.2626721" lon="105.0361464"><ele>1026.23</ele><time>2025-10-24T22:07:41.000Z</time></trkpt>
        <trkpt lat="28.2626474" lon="105.0360228"><ele>1026.07</ele><time>2025-10-24T22:07:49.000Z</time></trkpt>
        <trkpt lat="28.2627037" lon="105.0359568"><ele>1026.23</ele><time>2025-10-24T22:08:01.000Z</time></trkpt>
        <trkpt lat="28.2627822" lon="105.0359862"><ele>1026.77</ele><time>2025-10-24T22:08:31.000Z</time></trkpt>
        <trkpt lat="28.2627822" lon="105.0359862"><ele>1026.77</ele><time>2025-10-24T22:08:41.000Z</time></trkpt>
      </trkseg>
      <trkseg>
        <trkpt lat="28.2629263" lon="105.0359722"><ele>1027.58</ele><time>2025-10-24T22:13:49.000Z</time></trkpt>
        <trkpt lat="28.2629263" lon="105.0359722"><ele>1027.58</ele><time>2025-10-24T22:13:53.000Z</time></trkpt>
        <trkpt lat="28.262915" lon="105.036198"><ele>1032.65</ele><time>2025-10-24T22:13:59.000Z</time></trkpt>
        <trkpt lat="28.2629919" lon="105.0362521"><ele>1050.98</ele><time>2025-10-24T22:14:17.000Z</time></trkpt>
        <trkpt lat="28.2630824" lon="105.0362732"><ele>1056.69</ele><time>2025-10-24T22:14:35.000Z</time></trkpt>
        <trkpt lat="28.2631803" lon="105.0363174"><ele>1056.05</ele><time>2025-10-24T22:14:47.000Z</time></trkpt>
        <trkpt lat="28.2632824" lon="105.0363579"><ele>1053.89</ele><time>2025-10-24T22:14:55.000Z</time></trkpt>
        <trkpt lat="28.2633496" lon="105.0364166"><ele>1042.51</ele><time>2025-10-24T22:14:59.000Z</time></trkpt>
        <trkpt lat="28.2634356" lon="105.0364412"><ele>1040.56</ele><time>2025-10-24T22:15:09.000Z</time></trkpt>
        <trkpt lat="28.2635264" lon="105.0363801"><ele>1039.66</ele><time>2025-10-24T22:15:19.000Z</time></trkpt>
        <trkpt lat="28.2635945" lon="105.0362724"><ele>1037.74</ele><time>2025-10-24T22:15:31.000Z</time></trkpt>
        <trkpt lat="28.2636209" lon="105.0361479"><ele>1036.73</ele><time>2025-10-24T22:15:41.000Z</time></trkpt>
        <trkpt lat="28.2635976" lon="105.0360242"><ele>1036.94</ele><time>2025-10-24T22:15:53.000Z</time></trkpt>
        <trkpt lat="28.2635982" lon="105.0359004"><ele>1037.09</ele><time>2025-10-24T22:16:07.000Z</time></trkpt>
        <trkpt lat="28.2636331" lon="105.0357952"><ele>1037.05</ele><time>2025-10-24T22:16:15.000Z</time></trkpt>
        <trkpt lat="28.2637167" lon="105.0357426"><ele>1037.01</ele><time>2025-10-24T22:16:27.000Z</time></trkpt>
        <trkpt lat="28.2638092" lon="105.0357125"><ele>1036.92</ele><time>2025-10-24T22:16:37.000Z</time></trkpt>
        <trkpt lat="28.2639126" lon="105.0356941"><ele>1036.87</ele><time>2025-10-24T22:16:47.000Z</time></trkpt>
        <trkpt lat="28.2640222" lon="105.0356854"><ele>1036.9</ele><time>2025-10-24T22:16:55.000Z</time></trkpt>
        <trkpt lat="28.2641672" lon="105.0356641"><ele>1036.83</ele><time>2025-10-24T22:16:59.000Z</time></trkpt>
        <trkpt lat="28.2642754" lon="105.0356451"><ele>1039.38</ele><time>2025-10-24T22:17:07.000Z</time></trkpt>
        <trkpt lat="28.2643699" lon="105.0356023"><ele>1041.23</ele><time>2025-10-24T22:17:15.000Z</time></trkpt>
        <trkpt lat="28.2643971" lon="105.035584"><ele>1043.04</ele><time>2025-10-24T22:17:17.000Z</time></trkpt>
        <trkpt lat="28.2644392" lon="105.0354971"><ele>1044.19</ele><time>2025-10-24T22:17:29.000Z</time></trkpt>
        <trkpt lat="28.2644999" lon="105.0353976"><ele>1044.31</ele><time>2025-10-24T22:17:37.000Z</time></trkpt>
        <trkpt lat="28.2645649" lon="105.0352925"><ele>1044.19</ele><time>2025-10-24T22:17:45.000Z</time></trkpt>
        <trkpt lat="28.2646309" lon="105.0351949"><ele>1043.89</ele><time>2025-10-24T22:17:53.000Z</time></trkpt>
        <trkpt lat="28.2646768" lon="105.0351168"><ele>1043.57</ele><time>2025-10-24T22:18:01.000Z</time></trkpt>
        <trkpt lat="28.2647059" lon="105.0350157"><ele>1043.48</ele><time>2025-10-24T22:18:13.000Z</time></trkpt>
        <trkpt lat="28.2647388" lon="105.0349174"><ele>1043.97</ele><time>2025-10-24T22:18:21.000Z</time></trkpt>
        <trkpt lat="28.2647581" lon="105.0348091"><ele>1045.06</ele><time>2025-10-24T22:18:35.000Z</time></trkpt>
        <trkpt lat="28.2647553" lon="105.0346932"><ele>1046.36</ele><time>2025-10-24T22:18:43.000Z</time></trkpt>
        <trkpt lat="28.2647862" lon="105.0345771"><ele>1047.22</ele><time>2025-10-24T22:18:51.000Z</time></trkpt>
        <trkpt lat="28.2648389" lon="105.0344659"><ele>1047.78</ele><time>2025-10-24T22:18:59.000Z</time></trkpt>
        <trkpt lat="28.2648867" lon="105.0343551"><ele>1051.43</ele><time>2025-10-24T22:19:07.000Z</time></trkpt>
        <trkpt lat="28.2648866" lon="105.0342423"><ele>1053.5</ele><time>2025-10-24T22:19:17.000Z</time></trkpt>
        <trkpt lat="28.2648663" lon="105.034136"><ele>1054.62</ele><time>2025-10-24T22:19:29.000Z</time></trkpt>
        <trkpt lat="28.2648964" lon="105.0340405"><ele>1054.75</ele><time>2025-10-24T22:19:35.000Z</time></trkpt>
        <trkpt lat="28.2649773" lon="105.0340148"><ele>1055.42</ele><time>2025-10-24T22:19:39.000Z</time></trkpt>
        <trkpt lat="28.265079" lon="105.0340601"><ele>1057.16</ele><time>2025-10-24T22:19:47.000Z</time></trkpt>
        <trkpt lat="28.2651792" lon="105.0340729"><ele>1059.04</ele><time>2025-10-24T22:19:57.000Z</time></trkpt>
        <trkpt lat="28.2652713" lon="105.0340161"><ele>1059.88</ele><time>2025-10-24T22:20:07.000Z</time></trkpt>
        <trkpt lat="28.2653601" lon="105.033954"><ele>1060.5</ele><time>2025-10-24T22:20:15.000Z</time></trkpt>
        <trkpt lat="28.2654495" lon="105.0338951"><ele>1060.79</ele><time>2025-10-24T22:20:23.000Z</time></trkpt>
        <trkpt lat="28.2655367" lon="105.0338308"><ele>1060.88</ele><time>2025-10-24T22:20:33.000Z</time></trkpt>
        <trkpt lat="28.2655998" lon="105.0337443"><ele>1061.16</ele><time>2025-10-24T22:20:43.000Z</time></trkpt>
        <trkpt lat="28.2656367" lon="105.033646"><ele>1061.49</ele><time>2025-10-24T22:20:53.000Z</time></trkpt>
        <trkpt lat="28.2656787" lon="105.0335526"><ele>1061.6</ele><time>2025-10-24T22:21:03.000Z</time></trkpt>
        <trkpt lat="28.2657464" lon="105.0334745"><ele>1061.63</ele><time>2025-10-24T22:21:13.000Z</time></trkpt>
        <trkpt lat="28.2658141" lon="105.033401"><ele>1061.32</ele><time>2025-10-24T22:21:21.000Z</time></trkpt>
        <trkpt lat="28.2658884" lon="105.0333211"><ele>1061.24</ele><time>2025-10-24T22:21:31.000Z</time></trkpt>
        <trkpt lat="28.2659654" lon="105.0332472"><ele>1061.22</ele><time>2025-10-24T22:21:39.000Z</time></trkpt>
        <trkpt lat="28.2660492" lon="105.0331828"><ele>1061.25</ele><time>2025-10-24T22:21:47.000Z</time></trkpt>
        <trkpt lat="28.2661293" lon="105.0331182"><ele>1061.15</ele><time>2025-10-24T22:21:57.000Z</time></trkpt>
        <trkpt lat="28.2662866" lon="105.0330787"><ele>1061.3</ele><time>2025-10-24T22:22:03.000Z</time></trkpt>
        <trkpt lat="28.2663963" lon="105.0330363"><ele>1063.51</ele><time>2025-10-24T22:22:31.000Z</time></trkpt>
        <trkpt lat="28.2664669" lon="105.0329636"><ele>1070.33</ele><time>2025-10-24T22:22:41.000Z</time></trkpt>
        <trkpt lat="28.2665222" lon="105.0328782"><ele>1072.55</ele><time>2025-10-24T22:22:49.000Z</time></trkpt>
        <trkpt lat="28.2665752" lon="105.0327874"><ele>1073.12</ele><time>2025-10-24T22:22:57.000Z</time></trkpt>
        <trkpt lat="28.2666234" lon="105.0326936"><ele>1073.56</ele><time>2025-10-24T22:23:11.000Z</time></trkpt>
        <trkpt lat="28.2666618" lon="105.0325914"><ele>1074.64</ele><time>2025-10-24T22:23:25.000Z</time></trkpt>
        <trkpt lat="28.2667057" lon="105.0324968"><ele>1074.34</ele><time>2025-10-24T22:23:35.000Z</time></trkpt>
        <trkpt lat="28.2667656" lon="105.0324179"><ele>1073.63</ele><time>2025-10-24T22:23:45.000Z</time></trkpt>
        <trkpt lat="28.2668073" lon="105.0323174"><ele>1072.91</ele><time>2025-10-24T22:23:55.000Z</time></trkpt>
        <trkpt lat="28.2668242" lon="105.0322132"><ele>1072.36</ele><time>2025-10-24T22:24:05.000Z</time></trkpt>
        <trkpt lat="28.2668452" lon="105.0321056"><ele>1071.65</ele><time>2025-10-24T22:24:19.000Z</time></trkpt>
        <trkpt lat="28.266924" lon="105.032064"><ele>1071.28</ele><time>2025-10-24T22:24:31.000Z</time></trkpt>
        <trkpt lat="28.2670205" lon="105.0320935"><ele>1070.76</ele><time>2025-10-24T22:24:41.000Z</time></trkpt>
        <trkpt lat="28.2671184" lon="105.0321181"><ele>1069.91</ele><time>2025-10-24T22:24:49.000Z</time></trkpt>
        <trkpt lat="28.2672115" lon="105.0321111"><ele>1069.16</ele><time>2025-10-24T22:24:59.000Z</time></trkpt>
        <trkpt lat="28.2673101" lon="105.0320806"><ele>1068.4</ele><time>2025-10-24T22:25:05.000Z</time></trkpt>
        <trkpt lat="28.2674004" lon="105.032041"><ele>1069.31</ele><time>2025-10-24T22:25:13.000Z</time></trkpt>
        <trkpt lat="28.2674793" lon="105.0319723"><ele>1068.96</ele><time>2025-10-24T22:25:27.000Z</time></trkpt>
        <trkpt lat="28.2675673" lon="105.0319096"><ele>1066.91</ele><time>2025-10-24T22:25:33.000Z</time></trkpt>
        <trkpt lat="28.267607" lon="105.0318715"><ele>1065.57</ele><time>2025-10-24T22:25:35.000Z</time></trkpt>
        <trkpt lat="28.267662" lon="105.031794"><ele>1065.22</ele><time>2025-10-24T22:25:43.000Z</time></trkpt>
        <trkpt lat="28.2677297" lon="105.0317109"><ele>1063.51</ele><time>2025-10-24T22:25:51.000Z</time></trkpt>
        <trkpt lat="28.2678094" lon="105.0316264"><ele>1062.45</ele><time>2025-10-24T22:26:01.000Z</time></trkpt>
        <trkpt lat="28.2678989" lon="105.0315652"><ele>1061.76</ele><time>2025-10-24T22:26:11.000Z</time></trkpt>
        <trkpt lat="28.2679942" lon="105.0315371"><ele>1062.21</ele><time>2025-10-24T22:26:21.000Z</time></trkpt>
        <trkpt lat="28.2680872" lon="105.0315322"><ele>1062.74</ele><time>2025-10-24T22:26:31.000Z</time></trkpt>
        <trkpt lat="28.2681887" lon="105.031522"><ele>1061.99</ele><time>2025-10-24T22:26:41.000Z</time></trkpt>
        <trkpt lat="28.2682986" lon="105.0315219"><ele>1060.59</ele><time>2025-10-24T22:26:49.000Z</time></trkpt>
        <trkpt lat="28.268398" lon="105.031524"><ele>1060.34</ele><time>2025-10-24T22:26:59.000Z</time></trkpt>
        <trkpt lat="28.268489" lon="105.0315108"><ele>1060.07</ele><time>2025-10-24T22:27:09.000Z</time></trkpt>
        <trkpt lat="28.2685461" lon="105.031425"><ele>1059.6</ele><time>2025-10-24T22:27:19.000Z</time></trkpt>
        <trkpt lat="28.2685399" lon="105.0313185"><ele>1058.9</ele><time>2025-10-24T22:27:27.000Z</time></trkpt>
        <trkpt lat="28.2684958" lon="105.0311964"><ele>1058.3</ele><time>2025-10-24T22:27:37.000Z</time></trkpt>
        <trkpt lat="28.2684499" lon="105.0310749"><ele>1057.12</ele><time>2025-10-24T22:27:47.000Z</time></trkpt>
        <trkpt lat="28.2684721" lon="105.0309626"><ele>1055.58</ele><time>2025-10-24T22:27:55.000Z</time></trkpt>
        <trkpt lat="28.268469" lon="105.0308544"><ele>1054.32</ele><time>2025-10-24T22:28:05.000Z</time></trkpt>
        <trkpt lat="28.2684637" lon="105.0307488"><ele>1053.32</ele><time>2025-10-24T22:28:15.000Z</time></trkpt>
        <trkpt lat="28.2684459" lon="105.0306421"><ele>1053.04</ele><time>2025-10-24T22:28:23.000Z</time></trkpt>
        <trkpt lat="28.268431" lon="105.0305394"><ele>1052.69</ele><time>2025-10-24T22:28:31.000Z</time></trkpt>
        <trkpt lat="28.2684876" lon="105.0304591"><ele>1052.32</ele><time>2025-10-24T22:28:37.000Z</time></trkpt>
        <trkpt lat="28.2684741" lon="105.0303657"><ele>1052.78</ele><time>2025-10-24T22:28:49.000Z</time></trkpt>
        <trkpt lat="28.2684119" lon="105.0302769"><ele>1053.67</ele><time>2025-10-24T22:28:59.000Z</time></trkpt>
        <trkpt lat="28.2683241" lon="105.0302204"><ele>1054.39</ele><time>2025-10-24T22:29:09.000Z</time></trkpt>
        <trkpt lat="28.2682601" lon="105.0301303"><ele>1050.47</ele><time>2025-10-24T22:29:19.000Z</time></trkpt>
        <trkpt lat="28.2682145" lon="105.030031"><ele>1049.23</ele><time>2025-10-24T22:29:31.000Z</time></trkpt>
        <trkpt lat="28.2682496" lon="105.029945"><ele>1049.09</ele><time>2025-10-24T22:29:43.000Z</time></trkpt>
        <trkpt lat="28.2683282" lon="105.0298671"><ele>1049.01</ele><time>2025-10-24T22:29:49.000Z</time></trkpt>
        <trkpt lat="28.2683922" lon="105.0297788"><ele>1047.25</ele><time>2025-10-24T22:29:57.000Z</time></trkpt>
        <trkpt lat="28.2684325" lon="105.0296827"><ele>1046.13</ele><time>2025-10-24T22:30:07.000Z</time></trkpt>
        <trkpt lat="28.268467" lon="105.0295582"><ele>1045.34</ele><time>2025-10-24T22:30:15.000Z</time></trkpt>
        <trkpt lat="28.2685233" lon="105.0294638"><ele>1045.84</ele><time>2025-10-24T22:30:27.000Z</time></trkpt>
        <trkpt lat="28.2685781" lon="105.0293784"><ele>1046.48</ele><time>2025-10-24T22:30:35.000Z</time></trkpt>
        <trkpt lat="28.2686028" lon="105.0292716"><ele>1045.63</ele><time>2025-10-24T22:30:45.000Z</time></trkpt>
        <trkpt lat="28.2686205" lon="105.0291598"><ele>1045.15</ele><time>2025-10-24T22:30:55.000Z</time></trkpt>
        <trkpt lat="28.2686305" lon="105.0290464"><ele>1045.14</ele><time>2025-10-24T22:31:07.000Z</time></trkpt>
        <trkpt lat="28.2686683" lon="105.028953"><ele>1045.34</ele><time>2025-10-24T22:31:15.000Z</time></trkpt>
        <trkpt lat="28.2687231" lon="105.0288562"><ele>1045.36</ele><time>2025-10-24T22:31:31.000Z</time></trkpt>
        <trkpt lat="28.2688012" lon="105.02879"><ele>1045.32</ele><time>2025-10-24T22:31:39.000Z</time></trkpt>
        <trkpt lat="28.2688962" lon="105.0287636"><ele>1045.21</ele><time>2025-10-24T22:31:47.000Z</time></trkpt>
        <trkpt lat="28.2689983" lon="105.02876"><ele>1044.2</ele><time>2025-10-24T22:31:53.000Z</time></trkpt>
        <trkpt lat="28.2690991" lon="105.0287741"><ele>1042.8</ele><time>2025-10-24T22:32:01.000Z</time></trkpt>
        <trkpt lat="28.2692059" lon="105.0287971"><ele>1041.54</ele><time>2025-10-24T22:32:09.000Z</time></trkpt>
        <trkpt lat="28.2693018" lon="105.0288235"><ele>1039.6</ele><time>2025-10-24T22:32:15.000Z</time></trkpt>
        <trkpt lat="28.2694014" lon="105.0288239"><ele>1039.31</ele><time>2025-10-24T22:32:35.000Z</time></trkpt>
        <trkpt lat="28.2694978" lon="105.0288117"><ele>1039.05</ele><time>2025-10-24T22:32:45.000Z</time></trkpt>
        <trkpt lat="28.2695696" lon="105.0287439"><ele>1038.49</ele><time>2025-10-24T22:32:53.000Z</time></trkpt>
        <trkpt lat="28.2696096" lon="105.0286409"><ele>1038.09</ele><time>2025-10-24T22:33:03.000Z</time></trkpt>
        <trkpt lat="28.2696201" lon="105.0285074"><ele>1038.31</ele><time>2025-10-24T22:33:13.000Z</time></trkpt>
        <trkpt lat="28.2696007" lon="105.0283751"><ele>1041.86</ele><time>2025-10-24T22:33:23.000Z</time></trkpt>
        <trkpt lat="28.269532" lon="105.0282709"><ele>1043.68</ele><time>2025-10-24T22:33:33.000Z</time></trkpt>
        <trkpt lat="28.2694853" lon="105.0281649"><ele>1044.65</ele><time>2025-10-24T22:33:41.000Z</time></trkpt>
        <trkpt lat="28.2695017" lon="105.0280545"><ele>1045.48</ele><time>2025-10-24T22:33:49.000Z</time></trkpt>
        <trkpt lat="28.2695224" lon="105.0279317"><ele>1044.6</ele><time>2025-10-24T22:33:59.000Z</time></trkpt>
        <trkpt lat="28.269531" lon="105.0278914"><ele>1043.21</ele><time>2025-10-24T22:34:01.000Z</time></trkpt>
        <trkpt lat="28.2694841" lon="105.027832"><ele>1042.41</ele><time>2025-10-24T22:34:13.000Z</time></trkpt>
        <trkpt lat="28.2694621" lon="105.027733"><ele>1042.01</ele><time>2025-10-24T22:34:25.000Z</time></trkpt>
        <trkpt lat="28.2695015" lon="105.02763"><ele>1041.32</ele><time>2025-10-24T22:34:37.000Z</time></trkpt>
        <trkpt lat="28.2695371" lon="105.0275272"><ele>1040.8</ele><time>2025-10-24T22:34:45.000Z</time></trkpt>
        <trkpt lat="28.2695622" lon="105.0274117"><ele>1040.47</ele><time>2025-10-24T22:35:01.000Z</time></trkpt>
        <trkpt lat="28.2695868" lon="105.0272886"><ele>1039.66</ele><time>2025-10-24T22:35:23.000Z</time></trkpt>
        <trkpt lat="28.2695836" lon="105.0271725"><ele>1041.95</ele><time>2025-10-24T22:35:31.000Z</time></trkpt>
        <trkpt lat="28.269548" lon="105.0270545"><ele>1043.31</ele><time>2025-10-24T22:35:41.000Z</time></trkpt>
        <trkpt lat="28.269558" lon="105.0269974"><ele>1040.82</ele><time>2025-10-24T22:35:47.000Z</time></trkpt>
        <trkpt lat="28.2695451" lon="105.0269059"><ele>1042.43</ele><time>2025-10-24T22:35:59.000Z</time></trkpt>
        <trkpt lat="28.2695224" lon="105.0267853"><ele>1043.27</ele><time>2025-10-24T22:36:07.000Z</time></trkpt>
        <trkpt lat="28.2694884" lon="105.0266767"><ele>1043.45</ele><time>2025-10-24T22:36:13.000Z</time></trkpt>
        <trkpt lat="28.269485" lon="105.0265704"><ele>1040</ele><time>2025-10-24T22:36:23.000Z</time></trkpt>
        <trkpt lat="28.269513" lon="105.026467"><ele>1035.41</ele><time>2025-10-24T22:36:31.000Z</time></trkpt>
        <trkpt lat="28.2695554" lon="105.026361"><ele>1032.65</ele><time>2025-10-24T22:36:39.000Z</time></trkpt>
        <trkpt lat="28.269582" lon="105.0262448"><ele>1031.41</ele><time>2025-10-24T22:36:47.000Z</time></trkpt>
        <trkpt lat="28.2696016" lon="105.0261304"><ele>1030.55</ele><time>2025-10-24T22:36:53.000Z</time></trkpt>
        <trkpt lat="28.269591" lon="105.0260112"><ele>1030.05</ele><time>2025-10-24T22:37:01.000Z</time></trkpt>
        <trkpt lat="28.2695411" lon="105.0259209"><ele>1030.81</ele><time>2025-10-24T22:37:09.000Z</time></trkpt>
        <trkpt lat="28.26946" lon="105.0258342"><ele>1030.58</ele><time>2025-10-24T22:37:15.000Z</time></trkpt>
        <trkpt lat="28.2694188" lon="105.0258008"><ele>1029.91</ele><time>2025-10-24T22:37:17.000Z</time></trkpt>
        <trkpt lat="28.2693617" lon="105.0257267"><ele>1029.52</ele><time>2025-10-24T22:37:25.000Z</time></trkpt>
        <trkpt lat="28.2693075" lon="105.0256393"><ele>1028.37</ele><time>2025-10-24T22:37:33.000Z</time></trkpt>
        <trkpt lat="28.2692438" lon="105.0255634"><ele>1027.65</ele><time>2025-10-24T22:37:41.000Z</time></trkpt>
        <trkpt lat="28.2691768" lon="105.0254896"><ele>1026.82</ele><time>2025-10-24T22:37:49.000Z</time></trkpt>
        <trkpt lat="28.2691628" lon="105.0253711"><ele>1026.25</ele><time>2025-10-24T22:37:57.000Z</time></trkpt>
        <trkpt lat="28.2691754" lon="105.0252467"><ele>1024.22</ele><time>2025-10-24T22:38:05.000Z</time></trkpt>
        <trkpt lat="28.2692079" lon="105.0251386"><ele>1022.19</ele><time>2025-10-24T22:38:13.000Z</time></trkpt>
        <trkpt lat="28.2692352" lon="105.0250263"><ele>1020.96</ele><time>2025-10-24T22:38:23.000Z</time></trkpt>
        <trkpt lat="28.2692974" lon="105.0249337"><ele>1019.9</ele><time>2025-10-24T22:38:33.000Z</time></trkpt>
        <trkpt lat="28.2693608" lon="105.0248505"><ele>1018.38</ele><time>2025-10-24T22:38:43.000Z</time></trkpt>
        <trkpt lat="28.2694014" lon="105.0247499"><ele>1016.84</ele><time>2025-10-24T22:38:55.000Z</time></trkpt>
        <trkpt lat="28.26946" lon="105.0246625"><ele>1015.44</ele><time>2025-10-24T22:39:05.000Z</time></trkpt>
        <trkpt lat="28.2695454" lon="105.0246045"><ele>1012.99</ele><time>2025-10-24T22:39:09.000Z</time></trkpt>
        <trkpt lat="28.2696123" lon="105.0245155"><ele>1011.08</ele><time>2025-10-24T22:39:23.000Z</time></trkpt>
        <trkpt lat="28.269669" lon="105.0244273"><ele>1008.67</ele><time>2025-10-24T22:39:31.000Z</time></trkpt>
        <trkpt lat="28.2697074" lon="105.0243328"><ele>1006.31</ele><time>2025-10-24T22:39:37.000Z</time></trkpt>
        <trkpt lat="28.2697331" lon="105.0242155"><ele>1003.97</ele><time>2025-10-24T22:39:45.000Z</time></trkpt>
        <trkpt lat="28.269797" lon="105.0241392"><ele>1002.55</ele><time>2025-10-24T22:39:53.000Z</time></trkpt>
        <trkpt lat="28.2698855" lon="105.0240917"><ele>1003.67</ele><time>2025-10-24T22:44:13.000Z</time></trkpt>
        <trkpt lat="28.2698855" lon="105.0240917"><ele>1003.67</ele><time>2025-10-24T22:44:28.000Z</time></trkpt>
      </trkseg>
      <trkseg>
        <trkpt lat="28.2698896" lon="105.0241958"><ele>1010.31</ele><time>2025-10-24T22:48:06.000Z</time></trkpt>
        <trkpt lat="28.2698896" lon="105.0241958"><ele>1010.31</ele><time>2025-10-24T22:48:49.000Z</time></trkpt>
        <trkpt lat="28.2698841" lon="105.0242273"><ele>1013.68</ele><time>2025-10-24T22:48:55.000Z</time></trkpt>
        <trkpt lat="28.2698744" lon="105.0241416"><ele>1015.82</ele><time>2025-10-24T22:49:05.000Z</time></trkpt>
        <trkpt lat="28.2698744" lon="105.0241416"><ele>1015.82</ele><time>2025-10-24T22:49:07.000Z</time></trkpt>
      </trkseg>
      <trkseg>
        <trkpt lat="28.2698547" lon="105.0241969"><ele>1017.75</ele><time>2025-10-24T22:49:10.000Z</time></trkpt>
        <trkpt lat="28.2698547" lon="105.0241969"><ele>1017.75</ele><time>2025-10-24T22:49:21.000Z</time></trkpt>
        <trkpt lat="28.2698285" lon="105.0242975"><ele>1019.15</ele><time>2025-10-24T22:49:31.000Z</time></trkpt>
        <trkpt lat="28.2697851" lon="105.0244094"><ele>1020.7</ele><time>2025-10-24T22:49:41.000Z</time></trkpt>
        <trkpt lat="28.2697482" lon="105.0245321"><ele>1021.2</ele><time>2025-10-24T22:49:49.000Z</time></trkpt>
        <trkpt lat="28.2697192" lon="105.0246465"><ele>1021.17</ele><time>2025-10-24T22:49:57.000Z</time></trkpt>
        <trkpt lat="28.2697094" lon="105.0247645"><ele>1020.95</ele><time>2025-10-24T22:50:05.000Z</time></trkpt>
        <trkpt lat="28.2697727" lon="105.0248621"><ele>1020.78</ele><time>2025-10-24T22:50:13.000Z</time></trkpt>
        <trkpt lat="28.2698648" lon="105.0249273"><ele>1022.92</ele><time>2025-10-24T22:50:21.000Z</time></trkpt>
        <trkpt lat="28.2699727" lon="105.0249734"><ele>1023.26</ele><time>2025-10-24T22:50:29.000Z</time></trkpt>
        <trkpt lat="28.2700754" lon="105.0250091"><ele>1022.68</ele><time>2025-10-24T22:50:37.000Z</time></trkpt>
        <trkpt lat="28.2701718" lon="105.0250113"><ele>1021.02</ele><time>2025-10-24T22:50:43.000Z</time></trkpt>
        <trkpt lat="28.2703438" lon="105.0250887"><ele>1018.92</ele><time>2025-10-24T22:50:47.000Z</time></trkpt>
        <trkpt lat="28.2705001" lon="105.0251999"><ele>1017.08</ele><time>2025-10-24T22:50:51.000Z</time></trkpt>
        <trkpt lat="28.2706065" lon="105.0252841"><ele>1015.46</ele><time>2025-10-24T22:50:55.000Z</time></trkpt>
        <trkpt lat="28.2706736" lon="105.0253829"><ele>1014.42</ele><time>2025-10-24T22:51:05.000Z</time></trkpt>
        <trkpt lat="28.2707182" lon="105.0254924"><ele>1013.59</ele><time>2025-10-24T22:51:11.000Z</time></trkpt>
        <trkpt lat="28.2707523" lon="105.0255979"><ele>1013.12</ele><time>2025-10-24T22:51:15.000Z</time></trkpt>
        <trkpt lat="28.2707989" lon="105.025722"><ele>1012.85</ele><time>2025-10-24T22:51:19.000Z</time></trkpt>
        <trkpt lat="28.2708399" lon="105.0258694"><ele>1013.01</ele><time>2025-10-24T22:51:23.000Z</time></trkpt>
        <trkpt lat="28.2708865" lon="105.0259966"><ele>1013.1</ele><time>2025-10-24T22:51:27.000Z</time></trkpt>
        <trkpt lat="28.2709325" lon="105.0260991"><ele>1012.93</ele><time>2025-10-24T22:51:31.000Z</time></trkpt>
        <trkpt lat="28.2710106" lon="105.0261608"><ele>1012.63</ele><time>2025-10-24T22:51:37.000Z</time></trkpt>
        <trkpt lat="28.271126" lon="105.0261256"><ele>1012.07</ele><time>2025-10-24T22:51:45.000Z</time></trkpt>
        <trkpt lat="28.2712015" lon="105.026028"><ele>1008.24</ele><time>2025-10-24T22:51:55.000Z</time></trkpt>
        <trkpt lat="28.2712485" lon="105.025901"><ele>1003.99</ele><time>2025-10-24T22:52:05.000Z</time></trkpt>
        <trkpt lat="28.2712606" lon="105.0257693"><ele>1000.87</ele><time>2025-10-24T22:52:15.000Z</time></trkpt>
        <trkpt lat="28.2712766" lon="105.0256377"><ele>999.26</ele><time>2025-10-24T22:52:23.000Z</time></trkpt>
        <trkpt lat="28.2712956" lon="105.0255058"><ele>998.36</ele><time>2025-10-24T22:52:31.000Z</time></trkpt>
        <trkpt lat="28.2713108" lon="105.0253869"><ele>992.62</ele><time>2025-10-24T22:52:39.000Z</time></trkpt>
        <trkpt lat="28.2713242" lon="105.0253144"><ele>988.07</ele><time>2025-10-24T22:52:45.000Z</time></trkpt>
        <trkpt lat="28.2713575" lon="105.0252174"><ele>985.61</ele><time>2025-10-24T22:52:51.000Z</time></trkpt>
        <trkpt lat="28.2713785" lon="105.025116"><ele>984.19</ele><time>2025-10-24T22:53:01.000Z</time></trkpt>
        <trkpt lat="28.2713787" lon="105.0250118"><ele>983.16</ele><time>2025-10-24T22:53:09.000Z</time></trkpt>
        <trkpt lat="28.2713754" lon="105.0248894"><ele>982.14</ele><time>2025-10-24T22:53:19.000Z</time></trkpt>
        <trkpt lat="28.2713769" lon="105.0247729"><ele>981.15</ele><time>2025-10-24T22:53:27.000Z</time></trkpt>
        <trkpt lat="28.2713885" lon="105.0246556"><ele>980.28</ele><time>2025-10-24T22:53:35.000Z</time></trkpt>
        <trkpt lat="28.2713942" lon="105.0245459"><ele>979.45</ele><time>2025-10-24T22:53:43.000Z</time></trkpt>
        <trkpt lat="28.2713968" lon="105.0244388"><ele>978.85</ele><time>2025-10-24T22:53:51.000Z</time></trkpt>
        <trkpt lat="28.2714025" lon="105.0243343"><ele>977.84</ele><time>2025-10-24T22:53:59.000Z</time></trkpt>
        <trkpt lat="28.2714079" lon="105.0242202"><ele>976.3</ele><time>2025-10-24T22:54:09.000Z</time></trkpt>
        <trkpt lat="28.2714292" lon="105.0241138"><ele>974.25</ele><time>2025-10-24T22:54:17.000Z</time></trkpt>
        <trkpt lat="28.2714377" lon="105.0240071"><ele>973.28</ele><time>2025-10-24T22:54:27.000Z</time></trkpt>
        <trkpt lat="28.271453" lon="105.023898"><ele>971.57</ele><time>2025-10-24T22:54:37.000Z</time></trkpt>
        <trkpt lat="28.2714718" lon="105.0237879"><ele>970.27</ele><time>2025-10-24T22:54:47.000Z</time></trkpt>
        <trkpt lat="28.2715201" lon="105.0236727"><ele>969.72</ele><time>2025-10-24T22:54:55.000Z</time></trkpt>
        <trkpt lat="28.271609" lon="105.0235958"><ele>969.9</ele><time>2025-10-24T22:54:57.000Z</time></trkpt>
        <trkpt lat="28.2716871" lon="105.0235087"><ele>971.58</ele><time>2025-10-24T22:55:05.000Z</time></trkpt>
        <trkpt lat="28.271724" lon="105.0233984"><ele>973.18</ele><time>2025-10-24T22:55:15.000Z</time></trkpt>
        <trkpt lat="28.2717326" lon="105.0232909"><ele>972.77</ele><time>2025-10-24T22:55:25.000Z</time></trkpt>
        <trkpt lat="28.271733" lon="105.0231792"><ele>971.99</ele><time>2025-10-24T22:55:37.000Z</time></trkpt>
        <trkpt lat="28.2717637" lon="105.0230722"><ele>970.39</ele><time>2025-10-24T22:55:46.000Z</time></trkpt>
        <trkpt lat="28.2717959" lon="105.0229578"><ele>968.96</ele><time>2025-10-24T22:55:53.000Z</time></trkpt>
        <trkpt lat="28.2718389" lon="105.0228444"><ele>967.31</ele><time>2025-10-24T22:56:01.000Z</time></trkpt>
        <trkpt lat="28.2718939" lon="105.0227173"><ele>965.85</ele><time>2025-10-24T22:56:09.000Z</time></trkpt>
        <trkpt lat="28.2719226" lon="105.0225961"><ele>964.61</ele><time>2025-10-24T22:56:17.000Z</time></trkpt>
        <trkpt lat="28.2719674" lon="105.0224981"><ele>963.42</ele><time>2025-10-24T22:56:21.000Z</time></trkpt>
        <trkpt lat="28.2720374" lon="105.0224098"><ele>963.32</ele><time>2025-10-24T22:56:31.000Z</time></trkpt>
        <trkpt lat="28.2720547" lon="105.0223064"><ele>963.71</ele><time>2025-10-24T22:56:39.000Z</time></trkpt>
        <trkpt lat="28.2720709" lon="105.0221877"><ele>963.79</ele><time>2025-10-24T22:56:47.000Z</time></trkpt>
        <trkpt lat="28.2720903" lon="105.0220751"><ele>963.81</ele><time>2025-10-24T22:56:55.000Z</time></trkpt>
        <trkpt lat="28.272152" lon="105.0219805"><ele>962.39</ele><time>2025-10-24T22:57:05.000Z</time></trkpt>
        <trkpt lat="28.2722335" lon="105.0218953"><ele>962.22</ele><time>2025-10-24T22:57:09.000Z</time></trkpt>
        <trkpt lat="28.2723066" lon="105.0218065"><ele>961.93</ele><time>2025-10-24T22:57:19.000Z</time></trkpt>
        <trkpt lat="28.2723792" lon="105.0217072"><ele>960.49</ele><time>2025-10-24T22:57:33.000Z</time></trkpt>
        <trkpt lat="28.2724868" lon="105.0216139"><ele>957.14</ele><time>2025-10-24T22:57:43.000Z</time></trkpt>
        <trkpt lat="28.2725911" lon="105.0215316"><ele>956.1</ele><time>2025-10-24T22:57:51.000Z</time></trkpt>
        <trkpt lat="28.2726759" lon="105.0214598"><ele>954.22</ele><time>2025-10-24T22:57:59.000Z</time></trkpt>
        <trkpt lat="28.272819" lon="105.0214094"><ele>953.02</ele><time>2025-10-24T22:58:03.000Z</time></trkpt>
        <trkpt lat="28.2729393" lon="105.0213621"><ele>952.88</ele><time>2025-10-24T22:58:05.000Z</time></trkpt>
        <trkpt lat="28.2730504" lon="105.0213257"><ele>951.46</ele><time>2025-10-24T22:58:10.000Z</time></trkpt>
        <trkpt lat="28.273153" lon="105.0212928"><ele>950.02</ele><time>2025-10-24T22:58:13.000Z</time></trkpt>
        <trkpt lat="28.2732318" lon="105.0212411"><ele>948.5</ele><time>2025-10-24T22:58:17.000Z</time></trkpt>
        <trkpt lat="28.2733279" lon="105.0211937"><ele>946.5</ele><time>2025-10-24T22:58:21.000Z</time></trkpt>
        <trkpt lat="28.2734326" lon="105.0211616"><ele>944.74</ele><time>2025-10-24T22:58:27.000Z</time></trkpt>
        <trkpt lat="28.2735299" lon="105.0211232"><ele>943.37</ele><time>2025-10-24T22:58:55.000Z</time></trkpt>
        <trkpt lat="28.2736061" lon="105.0211115"><ele>942.37</ele><time>2025-10-24T22:59:05.000Z</time></trkpt>
        <trkpt lat="28.2737027" lon="105.0210486"><ele>941.93</ele><time>2025-10-24T23:02:15.000Z</time></trkpt>
        <trkpt lat="28.2737872" lon="105.0209945"><ele>941.27</ele><time>2025-10-24T23:02:19.000Z</time></trkpt>
        <trkpt lat="28.2738826" lon="105.0209462"><ele>941.19</ele><time>2025-10-24T23:02:23.000Z</time></trkpt>
        <trkpt lat="28.2739842" lon="105.0209034"><ele>941.45</ele><time>2025-10-24T23:02:29.000Z</time></trkpt>
        <trkpt lat="28.2740809" lon="105.0208782"><ele>941.53</ele><time>2025-10-24T23:02:35.000Z</time></trkpt>
        <trkpt lat="28.2741844" lon="105.0208546"><ele>937.58</ele><time>2025-10-24T23:02:45.000Z</time></trkpt>
        <trkpt lat="28.2742804" lon="105.0208134"><ele>935.16</ele><time>2025-10-24T23:02:55.000Z</time></trkpt>
        <trkpt lat="28.2743914" lon="105.0207518"><ele>937.41</ele><time>2025-10-24T23:03:01.000Z</time></trkpt>
        <trkpt lat="28.2745051" lon="105.0207288"><ele>934.1</ele><time>2025-10-24T23:03:05.000Z</time></trkpt>
        <trkpt lat="28.2746235" lon="105.0207312"><ele>931.78</ele><time>2025-10-24T23:03:11.000Z</time></trkpt>
        <trkpt lat="28.2747439" lon="105.0207402"><ele>930.24</ele><time>2025-10-24T23:03:17.000Z</time></trkpt>
        <trkpt lat="28.274849" lon="105.0207413"><ele>929.07</ele><time>2025-10-24T23:03:21.000Z</time></trkpt>
        <trkpt lat="28.2750095" lon="105.0207081"><ele>928.07</ele><time>2025-10-24T23:03:27.000Z</time></trkpt>
        <trkpt lat="28.2751316" lon="105.0206865"><ele>927.5</ele><time>2025-10-24T23:03:33.000Z</time></trkpt>
        <trkpt lat="28.2752317" lon="105.0206803"><ele>931.57</ele><time>2025-10-24T23:04:27.000Z</time></trkpt>
        <trkpt lat="28.2753204" lon="105.0206594"><ele>933.94</ele><time>2025-10-24T23:04:35.000Z</time></trkpt>
        <trkpt lat="28.2754128" lon="105.0206391"><ele>932.77</ele><time>2025-10-24T23:04:43.000Z</time></trkpt>
        <trkpt lat="28.2755109" lon="105.0206041"><ele>931.56</ele><time>2025-10-24T23:04:53.000Z</time></trkpt>
        <trkpt lat="28.2756156" lon="105.0205744"><ele>931.22</ele><time>2025-10-24T23:05:01.000Z</time></trkpt>
        <trkpt lat="28.2757207" lon="105.0205689"><ele>931.09</ele><time>2025-10-24T23:05:13.000Z</time></trkpt>
        <trkpt lat="28.275828" lon="105.0205598"><ele>933.57</ele><time>2025-10-24T23:05:21.000Z</time></trkpt>
        <trkpt lat="28.2759247" lon="105.0205296"><ele>931.51</ele><time>2025-10-24T23:05:29.000Z</time></trkpt>
        <trkpt lat="28.2760268" lon="105.0205292"><ele>930.14</ele><time>2025-10-24T23:05:40.000Z</time></trkpt>
        <trkpt lat="28.2761487" lon="105.0205475"><ele>929.83</ele><time>2025-10-24T23:05:41.000Z</time></trkpt>
        <trkpt lat="28.2762528" lon="105.0205669"><ele>936.1</ele><time>2025-10-24T23:05:43.000Z</time></trkpt>
        <trkpt lat="28.2763618" lon="105.0205811"><ele>935.49</ele><time>2025-10-24T23:05:47.000Z</time></trkpt>
        <trkpt lat="28.2764716" lon="105.0206118"><ele>934.88</ele><time>2025-10-24T23:05:51.000Z</time></trkpt>
        <trkpt lat="28.2765998" lon="105.020659"><ele>933.96</ele><time>2025-10-24T23:05:57.000Z</time></trkpt>
        <trkpt lat="28.2767161" lon="105.0206845"><ele>938.77</ele><time>2025-10-24T23:06:01.000Z</time></trkpt>
        <trkpt lat="28.2768181" lon="105.0206854"><ele>940.68</ele><time>2025-10-24T23:06:07.000Z</time></trkpt>
        <trkpt lat="28.2769232" lon="105.0206993"><ele>940.1</ele><time>2025-10-24T23:06:15.000Z</time></trkpt>
        <trkpt lat="28.2770224" lon="105.0207199"><ele>938.09</ele><time>2025-10-24T23:06:23.000Z</time></trkpt>
        <trkpt lat="28.2771295" lon="105.0207373"><ele>935.99</ele><time>2025-10-24T23:06:33.000Z</time></trkpt>
        <trkpt lat="28.2772301" lon="105.0207673"><ele>934.58</ele><time>2025-10-24T23:06:41.000Z</time></trkpt>
        <trkpt lat="28.2773261" lon="105.0207835"><ele>933.78</ele><time>2025-10-24T23:06:51.000Z</time></trkpt>
        <trkpt lat="28.2773636" lon="105.0207865"><ele>933.32</ele><time>2025-10-24T23:06:59.000Z</time></trkpt>
        <trkpt lat="28.2774286" lon="105.0208388"><ele>933.06</ele><time>2025-10-24T23:07:27.000Z</time></trkpt>
        <trkpt lat="28.2775292" lon="105.0209019"><ele>930.46</ele><time>2025-10-24T23:07:33.000Z</time></trkpt>
        <trkpt lat="28.2775885" lon="105.0209734"><ele>927.27</ele><time>2025-10-24T23:07:37.000Z</time></trkpt>
        <trkpt lat="28.2776469" lon="105.0210656"><ele>926.19</ele><time>2025-10-24T23:07:41.000Z</time></trkpt>
        <trkpt lat="28.2776846" lon="105.0211795"><ele>927.91</ele><time>2025-10-24T23:07:49.000Z</time></trkpt>
        <trkpt lat="28.2777333" lon="105.0212837"><ele>930.04</ele><time>2025-10-24T23:07:55.000Z</time></trkpt>
        <trkpt lat="28.2777981" lon="105.0213736"><ele>931.71</ele><time>2025-10-24T23:08:03.000Z</time></trkpt>
        <trkpt lat="28.2778782" lon="105.0214717"><ele>932.02</ele><time>2025-10-24T23:08:11.000Z</time></trkpt>
        <trkpt lat="28.2779466" lon="105.0215582"><ele>931.33</ele><time>2025-10-24T23:08:19.000Z</time></trkpt>
        <trkpt lat="28.278023" lon="105.0216352"><ele>930.35</ele><time>2025-10-24T23:08:25.000Z</time></trkpt>
        <trkpt lat="28.2780977" lon="105.021708"><ele>929.34</ele><time>2025-10-24T23:08:33.000Z</time></trkpt>
        <trkpt lat="28.27817" lon="105.0217866"><ele>927.53</ele><time>2025-10-24T23:08:43.000Z</time></trkpt>
        <trkpt lat="28.2782507" lon="105.0218835"><ele>926.14</ele><time>2025-10-24T23:08:53.000Z</time></trkpt>
        <trkpt lat="28.2783077" lon="105.0219904"><ele>925</ele><time>2025-10-24T23:09:01.000Z</time></trkpt>
        <trkpt lat="28.2783403" lon="105.0220952"><ele>924.18</ele><time>2025-10-24T23:09:09.000Z</time></trkpt>
        <trkpt lat="28.2783807" lon="105.0221982"><ele>919.08</ele><time>2025-10-24T23:09:15.000Z</time></trkpt>
        <trkpt lat="28.2784022" lon="105.0222203"><ele>916</ele><time>2025-10-24T23:09:27.000Z</time></trkpt>
        <trkpt lat="28.2784322" lon="105.0221414"><ele>913.6</ele><time>2025-10-24T23:09:59.000Z</time></trkpt>
        <trkpt lat="28.2784518" lon="105.0220282"><ele>912.02</ele><time>2025-10-24T23:10:07.000Z</time></trkpt>
        <trkpt lat="28.278518" lon="105.0220485"><ele>911.02</ele><time>2025-10-24T23:10:19.000Z</time></trkpt>
        <trkpt lat="28.2785966" lon="105.0221057"><ele>913.92</ele><time>2025-10-24T23:10:33.000Z</time></trkpt>
        <trkpt lat="28.2786536" lon="105.0220592"><ele>916.68</ele><time>2025-10-24T23:10:47.000Z</time></trkpt>
        <trkpt lat="28.278744" lon="105.022068"><ele>917.89</ele><time>2025-10-24T23:11:03.000Z</time></trkpt>
        <trkpt lat="28.2788433" lon="105.0220999"><ele>918.75</ele><time>2025-10-24T23:11:11.000Z</time></trkpt>
        <trkpt lat="28.2789385" lon="105.0221575"><ele>917.28</ele><time>2025-10-24T23:11:21.000Z</time></trkpt>
        <trkpt lat="28.279018" lon="105.0222296"><ele>920.71</ele><time>2025-10-24T23:11:29.000Z</time></trkpt>
        <trkpt lat="28.2790991" lon="105.0223076"><ele>918.53</ele><time>2025-10-24T23:11:37.000Z</time></trkpt>
        <trkpt lat="28.2791714" lon="105.0223826"><ele>920.47</ele><time>2025-10-24T23:11:43.000Z</time></trkpt>
        <trkpt lat="28.2792667" lon="105.0224085"><ele>921.09</ele><time>2025-10-24T23:11:53.000Z</time></trkpt>
        <trkpt lat="28.2793668" lon="105.0223965"><ele>921.1</ele><time>2025-10-24T23:12:03.000Z</time></trkpt>
        <trkpt lat="28.2794622" lon="105.0223979"><ele>919.93</ele><time>2025-10-24T23:12:11.000Z</time></trkpt>
        <trkpt lat="28.2795558" lon="105.0223989"><ele>919.41</ele><time>2025-10-24T23:12:21.000Z</time></trkpt>
        <trkpt lat="28.2796492" lon="105.0223828"><ele>919.21</ele><time>2025-10-24T23:12:35.000Z</time></trkpt>
        <trkpt lat="28.2797355" lon="105.0223248"><ele>918.8</ele><time>2025-10-24T23:12:47.000Z</time></trkpt>
        <trkpt lat="28.2798016" lon="105.0222418"><ele>916.63</ele><time>2025-10-24T23:12:57.000Z</time></trkpt>
        <trkpt lat="28.27987" lon="105.0221625"><ele>914.59</ele><time>2025-10-24T23:13:05.000Z</time></trkpt>
        <trkpt lat="28.2799612" lon="105.0221114"><ele>912.92</ele><time>2025-10-24T23:13:11.000Z</time></trkpt>
        <trkpt lat="28.2800614" lon="105.0220802"><ele>911.67</ele><time>2025-10-24T23:13:53.000Z</time></trkpt>
        <trkpt lat="28.2801525" lon="105.0221031"><ele>914.65</ele><time>2025-10-24T23:14:01.000Z</time></trkpt>
        <trkpt lat="28.2802482" lon="105.0221256"><ele>917.12</ele><time>2025-10-24T23:14:11.000Z</time></trkpt>
        <trkpt lat="28.2803479" lon="105.0221458"><ele>916.66</ele><time>2025-10-24T23:14:25.000Z</time></trkpt>
        <trkpt lat="28.2804461" lon="105.0221694"><ele>917.14</ele><time>2025-10-24T23:14:37.000Z</time></trkpt>
        <trkpt lat="28.2805537" lon="105.0221917"><ele>917.76</ele><time>2025-10-24T23:14:47.000Z</time></trkpt>
        <trkpt lat="28.2806442" lon="105.0221665"><ele>918.76</ele><time>2025-10-24T23:14:55.000Z</time></trkpt>
        <trkpt lat="28.2807024" lon="105.0220801"><ele>920.86</ele><time>2025-10-24T23:15:05.000Z</time></trkpt>
        <trkpt lat="28.2807294" lon="105.0219722"><ele>923.6</ele><time>2025-10-24T23:15:11.000Z</time></trkpt>
        <trkpt lat="28.2807958" lon="105.0219138"><ele>926.02</ele><time>2025-10-24T23:15:19.000Z</time></trkpt>
        <trkpt lat="28.2808588" lon="105.0218278"><ele>930.18</ele><time>2025-10-24T23:15:29.000Z</time></trkpt>
        <trkpt lat="28.2809351" lon="105.0217582"><ele>933.26</ele><time>2025-10-24T23:15:41.000Z</time></trkpt>
        <trkpt lat="28.2810291" lon="105.0217256"><ele>936.15</ele><time>2025-10-24T23:15:52.000Z</time></trkpt>
        <trkpt lat="28.2811297" lon="105.0217404"><ele>938.05</ele><time>2025-10-24T23:15:59.000Z</time></trkpt>
        <trkpt lat="28.2811952" lon="105.0217686"><ele>938.65</ele><time>2025-10-24T23:16:17.000Z</time></trkpt>
        <trkpt lat="28.2812513" lon="105.0218431"><ele>939.57</ele><time>2025-10-24T23:16:57.000Z</time></trkpt>
        <trkpt lat="28.2813071" lon="105.0219303"><ele>937.55</ele><time>2025-10-24T23:17:09.000Z</time></trkpt>
        <trkpt lat="28.2813663" lon="105.0220162"><ele>934.52</ele><time>2025-10-24T23:17:21.000Z</time></trkpt>
        <trkpt lat="28.2814183" lon="105.0221103"><ele>932.35</ele><time>2025-10-24T23:17:45.000Z</time></trkpt>
        <trkpt lat="28.2814733" lon="105.0221972"><ele>930.1</ele><time>2025-10-24T23:17:59.000Z</time></trkpt>
        <trkpt lat="28.2815548" lon="105.0222042"><ele>927.72</ele><time>2025-10-24T23:18:25.000Z</time></trkpt>
        <trkpt lat="28.2816343" lon="105.0221485"><ele>925.81</ele><time>2025-10-24T23:19:05.000Z</time></trkpt>
        <trkpt lat="28.2817215" lon="105.0220892"><ele>927.24</ele><time>2025-10-24T23:19:33.000Z</time></trkpt>
        <trkpt lat="28.2817704" lon="105.0221601"><ele>930.05</ele><time>2025-10-24T23:20:41.000Z</time></trkpt>
        <trkpt lat="28.2818199" lon="105.0222833"><ele>933.75</ele><time>2025-10-24T23:24:13.000Z</time></trkpt>
        <trkpt lat="28.2819076" lon="105.022324"><ele>937.37</ele><time>2025-10-24T23:30:09.000Z</time></trkpt>
        <trkpt lat="28.2820104" lon="105.0223714"><ele>940.92</ele><time>2025-10-24T23:30:25.000Z</time></trkpt>
        <trkpt lat="28.2820767" lon="105.0224572"><ele>944.16</ele><time>2025-10-24T23:30:35.000Z</time></trkpt>
        <trkpt lat="28.2821405" lon="105.0225498"><ele>946.25</ele><time>2025-10-24T23:30:43.000Z</time></trkpt>
        <trkpt lat="28.2822086" lon="105.0226424"><ele>947.93</ele><time>2025-10-24T23:30:52.000Z</time></trkpt>
        <trkpt lat="28.2822926" lon="105.0227018"><ele>948.69</ele><time>2025-10-24T23:31:00.000Z</time></trkpt>
        <trkpt lat="28.2823771" lon="105.0227589"><ele>948.74</ele><time>2025-10-24T23:31:17.000Z</time></trkpt>
        <trkpt lat="28.2824622" lon="105.0228117"><ele>948.82</ele><time>2025-10-24T23:31:29.000Z</time></trkpt>
        <trkpt lat="28.2825782" lon="105.0228331"><ele>948.25</ele><time>2025-10-24T23:31:37.000Z</time></trkpt>
        <trkpt lat="28.2826851" lon="105.022853"><ele>947.1</ele><time>2025-10-24T23:31:45.000Z</time></trkpt>
        <trkpt lat="28.2827899" lon="105.0228529"><ele>947.07</ele><time>2025-10-24T23:31:57.000Z</time></trkpt>
        <trkpt lat="28.2829048" lon="105.0228701"><ele>946.01</ele><time>2025-10-24T23:32:05.000Z</time></trkpt>
        <trkpt lat="28.283021" lon="105.0228975"><ele>945.45</ele><time>2025-10-24T23:32:13.000Z</time></trkpt>
        <trkpt lat="28.2831285" lon="105.0228991"><ele>945.2</ele><time>2025-10-24T23:32:19.000Z</time></trkpt>
        <trkpt lat="28.283227" lon="105.0229122"><ele>945.08</ele><time>2025-10-24T23:32:25.000Z</time></trkpt>
        <trkpt lat="28.2832566" lon="105.0229112"><ele>944.96</ele><time>2025-10-24T23:32:27.000Z</time></trkpt>
        <trkpt lat="28.2833576" lon="105.0229324"><ele>945.78</ele><time>2025-10-24T23:32:35.000Z</time></trkpt>
        <trkpt lat="28.2834544" lon="105.0229312"><ele>949.74</ele><time>2025-10-24T23:32:45.000Z</time></trkpt>
        <trkpt lat="28.283565" lon="105.0229325"><ele>950.35</ele><time>2025-10-24T23:32:49.000Z</time></trkpt>
        <trkpt lat="28.2836452" lon="105.0229998"><ele>950.93</ele><time>2025-10-24T23:32:59.000Z</time></trkpt>
        <trkpt lat="28.2836935" lon="105.0231393"><ele>951.07</ele><time>2025-10-24T23:34:57.000Z</time></trkpt>
        <trkpt lat="28.2836927" lon="105.0232422"><ele>952.25</ele><time>2025-10-24T23:35:07.000Z</time></trkpt>
        <trkpt lat="28.2836868" lon="105.023372"><ele>953.56</ele><time>2025-10-24T23:35:23.000Z</time></trkpt>
        <trkpt lat="28.2836419" lon="105.0234683"><ele>954.19</ele><time>2025-10-24T23:35:33.000Z</time></trkpt>
        <trkpt lat="28.2836068" lon="105.0235878"><ele>954.77</ele><time>2025-10-24T23:35:43.000Z</time></trkpt>
        <trkpt lat="28.2835911" lon="105.0237018"><ele>954.82</ele><time>2025-10-24T23:36:09.000Z</time></trkpt>
        <trkpt lat="28.2835911" lon="105.0237018"><ele>954.82</ele><time>2025-10-24T23:36:18.000Z</time></trkpt>
      </trkseg>
      <trkseg>
        <trkpt lat="28.283668" lon="105.0236358"><ele>954.44</ele><time>2025-10-24T23:36:20.000Z</time></trkpt>
        <trkpt lat="28.283668" lon="105.0236358"><ele>954.44</ele><time>2025-10-24T23:38:29.000Z</time></trkpt>
        <trkpt lat="28.28371" lon="105.0235209"><ele>957.06</ele><time>2025-10-24T23:38:43.000Z</time></trkpt>
        <trkpt lat="28.283729" lon="105.0234095"><ele>958.37</ele><time>2025-10-24T23:38:57.000Z</time></trkpt>
        <trkpt lat="28.2837449" lon="105.0233007"><ele>960.07</ele><time>2025-10-24T23:39:07.000Z</time></trkpt>
        <trkpt lat="28.2837503" lon="105.0231819"><ele>960.49</ele><time>2025-10-24T23:39:21.000Z</time></trkpt>
        <trkpt lat="28.2837538" lon="105.0230613"><ele>960.31</ele><time>2025-10-24T23:41:07.000Z</time></trkpt>
        <trkpt lat="28.283779" lon="105.0229621"><ele>959.43</ele><time>2025-10-24T23:43:01.000Z</time></trkpt>
        <trkpt lat="28.2838194" lon="105.0228573"><ele>957.97</ele><time>2025-10-24T23:43:21.000Z</time></trkpt>
        <trkpt lat="28.2837929" lon="105.0227564"><ele>955.48</ele><time>2025-10-24T23:44:05.000Z</time></trkpt>
        <trkpt lat="28.2837878" lon="105.0226534"><ele>952.71</ele><time>2025-10-24T23:44:29.000Z</time></trkpt>
        <trkpt lat="28.2838919" lon="105.0226806"><ele>950.28</ele><time>2025-10-24T23:47:11.000Z</time></trkpt>
        <trkpt lat="28.2838798" lon="105.0225764"><ele>945.45</ele><time>2025-10-24T23:49:15.000Z</time></trkpt>
        <trkpt lat="28.2838444" lon="105.0224816"><ele>940.25</ele><time>2025-10-24T23:49:51.000Z</time></trkpt>
        <trkpt lat="28.2838988" lon="105.0223836"><ele>936.74</ele><time>2025-10-24T23:51:27.000Z</time></trkpt>
        <trkpt lat="28.2838246" lon="105.0223106"><ele>932.28</ele><time>2025-10-24T23:53:23.000Z</time></trkpt>
        <trkpt lat="28.2839115" lon="105.0222578"><ele>927.72</ele><time>2025-10-24T23:53:55.000Z</time></trkpt>
        <trkpt lat="28.283946" lon="105.0221589"><ele>921.64</ele><time>2025-10-24T23:55:23.000Z</time></trkpt>
        <trkpt lat="28.2839686" lon="105.0220601"><ele>911.25</ele><time>2025-10-24T23:57:03.000Z</time></trkpt>
        <trkpt lat="28.2839914" lon="105.0219594"><ele>902.04</ele><time>2025-10-24T23:57:43.000Z</time></trkpt>
        <trkpt lat="28.2839524" lon="105.021863"><ele>894.42</ele><time>2025-10-24T23:58:15.000Z</time></trkpt>
        <trkpt lat="28.2839967" lon="105.0217848"><ele>886.68</ele><time>2025-10-24T23:58:27.000Z</time></trkpt>
        <trkpt lat="28.2840757" lon="105.0217387"><ele>880.52</ele><time>2025-10-24T23:58:53.000Z</time></trkpt>
        <trkpt lat="28.2840905" lon="105.0216554"><ele>875.35</ele><time>2025-10-24T23:59:17.000Z</time></trkpt>
        <trkpt lat="28.2841158" lon="105.0215615"><ele>871.4</ele><time>2025-10-25T00:00:05.000Z</time></trkpt>
        <trkpt lat="28.2840937" lon="105.0214574"><ele>865.43</ele><time>2025-10-25T00:00:35.000Z</time></trkpt>
        <trkpt lat="28.2841184" lon="105.0213457"><ele>860.04</ele><time>2025-10-25T00:01:55.000Z</time></trkpt>
        <trkpt lat="28.2841526" lon="105.0212498"><ele>852.97</ele><time>2025-10-25T00:02:29.000Z</time></trkpt>
        <trkpt lat="28.2841139" lon="105.0211527"><ele>846.4</ele><time>2025-10-25T00:02:55.000Z</time></trkpt>
        <trkpt lat="28.284145" lon="105.021059"><ele>838.63</ele><time>2025-10-25T00:05:37.000Z</time></trkpt>
        <trkpt lat="28.2842343" lon="105.021001"><ele>830.5</ele><time>2025-10-25T00:06:41.000Z</time></trkpt>
        <trkpt lat="28.2842028" lon="105.0209013"><ele>819.04</ele><time>2025-10-25T00:07:13.000Z</time></trkpt>
        <trkpt lat="28.2842991" lon="105.0208781"><ele>806.87</ele><time>2025-10-25T00:08:15.000Z</time></trkpt>
        <trkpt lat="28.2843877" lon="105.0208155"><ele>798</ele><time>2025-10-25T00:09:29.000Z</time></trkpt>
        <trkpt lat="28.2844675" lon="105.0207642"><ele>792.86</ele><time>2025-10-25T00:11:49.000Z</time></trkpt>
        <trkpt lat="28.2845344" lon="105.0206866"><ele>789.36</ele><time>2025-10-25T00:15:27.000Z</time></trkpt>
        <trkpt lat="28.2846172" lon="105.020646"><ele>784.91</ele><time>2025-10-25T00:15:45.000Z</time></trkpt>
        <trkpt lat="28.2846984" lon="105.0205919"><ele>780.86</ele><time>2025-10-25T00:16:11.000Z</time></trkpt>
        <trkpt lat="28.284773" lon="105.0205267"><ele>774.51</ele><time>2025-10-25T00:16:45.000Z</time></trkpt>
        <trkpt lat="28.2848417" lon="105.0204513"><ele>768.74</ele><time>2025-10-25T00:17:27.000Z</time></trkpt>
        <trkpt lat="28.2849122" lon="105.0203687"><ele>763.42</ele><time>2025-10-25T00:17:45.000Z</time></trkpt>
        <trkpt lat="28.2849979" lon="105.0202646"><ele>758.76</ele><time>2025-10-25T00:17:55.000Z</time></trkpt>
        <trkpt lat="28.2850408" lon="105.0201932"><ele>754.52</ele><time>2025-10-25T00:18:07.000Z</time></trkpt>
        <trkpt lat="28.2850408" lon="105.0201932"><ele>754.52</ele><time>2025-10-25T00:18:14.000Z</time></trkpt>
        <trkpt lat="28.2850408" lon="105.0201932"><ele>754.52</ele><time>2025-10-25T00:20:44.000Z</time></trkpt>
        <trkpt lat="28.2850408" lon="105.0201932"><ele>754.52</ele><time>2025-10-25T00:20:54.000Z</time></trkpt>
      </trkseg>
      <trkseg>
        <trkpt lat="28.2855335" lon="105.0202435"><ele>749.77</ele><time>2025-10-25T00:29:59.000Z</time></trkpt>
        <trkpt lat="28.2855335" lon="105.0202435"><ele>749.77</ele><time>2025-10-25T00:30:00.000Z</time></trkpt>
        <trkpt lat="28.2850955" lon="105.020153"><ele>738.12</ele><time>2025-10-25T00:30:02.000Z</time></trkpt>
        <trkpt lat="28.2850249" lon="105.0202291"><ele>730.59</ele><time>2025-10-25T00:31:00.000Z</time></trkpt>
        <trkpt lat="28.285019" lon="105.0203374"><ele>721</ele><time>2025-10-25T00:31:11.000Z</time></trkpt>
        <trkpt lat="28.2850758" lon="105.0204472"><ele>715.4</ele><time>2025-10-25T00:31:23.000Z</time></trkpt>
        <trkpt lat="28.2851262" lon="105.0204014"><ele>712.84</ele><time>2025-10-25T00:31:33.000Z</time></trkpt>
        <trkpt lat="28.2851582" lon="105.0202958"><ele>710.53</ele><time>2025-10-25T00:31:46.000Z</time></trkpt>
        <trkpt lat="28.2852131" lon="105.020193"><ele>708.68</ele><time>2025-10-25T00:31:55.000Z</time></trkpt>
        <trkpt lat="28.2853058" lon="105.0201265"><ele>706.96</ele><time>2025-10-25T00:32:05.000Z</time></trkpt>
        <trkpt lat="28.2854044" lon="105.0200701"><ele>704.95</ele><time>2025-10-25T00:32:15.000Z</time></trkpt>
        <trkpt lat="28.285493" lon="105.0199796"><ele>702.92</ele><time>2025-10-25T00:32:23.000Z</time></trkpt>
        <trkpt lat="28.2855347" lon="105.0198782"><ele>701.21</ele><time>2025-10-25T00:32:33.000Z</time></trkpt>
        <trkpt lat="28.2855476" lon="105.0198449"><ele>700.04</ele><time>2025-10-25T00:32:40.000Z</time></trkpt>
        <trkpt lat="28.2855167" lon="105.0197627"><ele>699.37</ele><time>2025-10-25T00:32:51.000Z</time></trkpt>
        <trkpt lat="28.2855612" lon="105.019782"><ele>702.88</ele><time>2025-10-25T00:33:11.000Z</time></trkpt>
        <trkpt lat="28.2856047" lon="105.019878"><ele>696.68</ele><time>2025-10-25T00:33:23.000Z</time></trkpt>
        <trkpt lat="28.2856504" lon="105.0199856"><ele>693.08</ele><time>2025-10-25T00:33:34.000Z</time></trkpt>
        <trkpt lat="28.2857029" lon="105.0199553"><ele>691.05</ele><time>2025-10-25T00:33:41.000Z</time></trkpt>
        <trkpt lat="28.285761" lon="105.0198702"><ele>689.26</ele><time>2025-10-25T00:33:52.000Z</time></trkpt>
        <trkpt lat="28.2857576" lon="105.0197552"><ele>687.88</ele><time>2025-10-25T00:34:01.000Z</time></trkpt>
        <trkpt lat="28.2857225" lon="105.0196838"><ele>687.1</ele><time>2025-10-25T00:34:17.000Z</time></trkpt>
        <trkpt lat="28.2856732" lon="105.0195982"><ele>685.31</ele><time>2025-10-25T00:34:43.000Z</time></trkpt>
        <trkpt lat="28.2857184" lon="105.0195393"><ele>684.22</ele><time>2025-10-25T00:35:15.000Z</time></trkpt>
        <trkpt lat="28.2857796" lon="105.0194528"><ele>679.43</ele><time>2025-10-25T00:35:27.000Z</time></trkpt>
        <trkpt lat="28.2858518" lon="105.019359"><ele>676.19</ele><time>2025-10-25T00:35:40.000Z</time></trkpt>
        <trkpt lat="28.2859126" lon="105.0192603"><ele>673.94</ele><time>2025-10-25T00:35:51.000Z</time></trkpt>
        <trkpt lat="28.2859866" lon="105.0191922"><ele>672.14</ele><time>2025-10-25T00:36:01.000Z</time></trkpt>
        <trkpt lat="28.2860683" lon="105.0191302"><ele>670.67</ele><time>2025-10-25T00:36:25.000Z</time></trkpt>
        <trkpt lat="28.2861608" lon="105.0190946"><ele>667.59</ele><time>2025-10-25T00:36:41.000Z</time></trkpt>
        <trkpt lat="28.2862586" lon="105.0190724"><ele>664.58</ele><time>2025-10-25T00:37:01.000Z</time></trkpt>
        <trkpt lat="28.286357" lon="105.0190485"><ele>661.7</ele><time>2025-10-25T00:37:17.000Z</time></trkpt>
        <trkpt lat="28.2864423" lon="105.0190087"><ele>658.27</ele><time>2025-10-25T00:37:35.000Z</time></trkpt>
        <trkpt lat="28.2865354" lon="105.0189953"><ele>654.56</ele><time>2025-10-25T00:37:47.000Z</time></trkpt>
        <trkpt lat="28.2866301" lon="105.0190072"><ele>652.16</ele><time>2025-10-25T00:38:09.000Z</time></trkpt>
        <trkpt lat="28.2866987" lon="105.019072"><ele>649.31</ele><time>2025-10-25T00:38:58.000Z</time></trkpt>
        <trkpt lat="28.2867403" lon="105.0190259"><ele>646.15</ele><time>2025-10-25T00:39:11.000Z</time></trkpt>
        <trkpt lat="28.2867843" lon="105.0189366"><ele>641.88</ele><time>2025-10-25T00:39:33.000Z</time></trkpt>
        <trkpt lat="28.2868629" lon="105.0189125"><ele>636.27</ele><time>2025-10-25T00:39:49.000Z</time></trkpt>
        <trkpt lat="28.2869487" lon="105.0188672"><ele>631.22</ele><time>2025-10-25T00:40:07.000Z</time></trkpt>
        <trkpt lat="28.2870221" lon="105.0187841"><ele>627.21</ele><time>2025-10-25T00:40:17.000Z</time></trkpt>
        <trkpt lat="28.2870718" lon="105.0186885"><ele>624.29</ele><time>2025-10-25T00:40:29.000Z</time></trkpt>
        <trkpt lat="28.2871206" lon="105.018584"><ele>622.05</ele><time>2025-10-25T00:40:39.000Z</time></trkpt>
        <trkpt lat="28.2871882" lon="105.0184943"><ele>620.29</ele><time>2025-10-25T00:40:51.000Z</time></trkpt>
        <trkpt lat="28.2872722" lon="105.0184292"><ele>618.55</ele><time>2025-10-25T00:41:07.000Z</time></trkpt>
        <trkpt lat="28.2874095" lon="105.0183877"><ele>617.38</ele><time>2025-10-25T00:41:24.000Z</time></trkpt>
        <trkpt lat="28.2875168" lon="105.0183618"><ele>614.45</ele><time>2025-10-25T00:41:36.000Z</time></trkpt>
        <trkpt lat="28.2876103" lon="105.0183753"><ele>612.14</ele><time>2025-10-25T00:41:52.000Z</time></trkpt>
        <trkpt lat="28.2876726" lon="105.0184474"><ele>609.22</ele><time>2025-10-25T00:42:41.000Z</time></trkpt>
        <trkpt lat="28.2877521" lon="105.0184861"><ele>606.62</ele><time>2025-10-25T00:43:37.000Z</time></trkpt>
        <trkpt lat="28.287853" lon="105.0184614"><ele>604.4</ele><time>2025-10-25T00:43:43.000Z</time></trkpt>
        <trkpt lat="28.2879451" lon="105.0184205"><ele>601.92</ele><time>2025-10-25T00:44:25.000Z</time></trkpt>
        <trkpt lat="28.2880363" lon="105.0184433"><ele>599.14</ele><time>2025-10-25T00:45:43.000Z</time></trkpt>
        <trkpt lat="28.2881049" lon="105.018359"><ele>596.16</ele><time>2025-10-25T00:46:05.000Z</time></trkpt>
        <trkpt lat="28.2881049" lon="105.018359"><ele>596.16</ele><time>2025-10-25T00:46:14.000Z</time></trkpt>
      </trkseg>
      <trkseg>
        <trkpt lat="28.2881561" lon="105.018272"><ele>594.79</ele><time>2025-10-25T00:53:55.000Z</time></trkpt>
        <trkpt lat="28.2881561" lon="105.018272"><ele>594.79</ele><time>2025-10-25T00:54:13.000Z</time></trkpt>
        <trkpt lat="28.2881796" lon="105.0181693"><ele>596.53</ele><time>2025-10-25T00:54:31.000Z</time></trkpt>
        <trkpt lat="28.2882023" lon="105.018051"><ele>596.81</ele><time>2025-10-25T00:54:45.000Z</time></trkpt>
        <trkpt lat="28.2882183" lon="105.0179405"><ele>597.98</ele><time>2025-10-25T00:54:55.000Z</time></trkpt>
        <trkpt lat="28.2881909" lon="105.0178259"><ele>599.25</ele><time>2025-10-25T00:55:03.000Z</time></trkpt>
        <trkpt lat="28.2881453" lon="105.0177216"><ele>599.31</ele><time>2025-10-25T00:55:13.000Z</time></trkpt>
        <trkpt lat="28.2880931" lon="105.0176218"><ele>600.62</ele><time>2025-10-25T00:55:23.000Z</time></trkpt>
        <trkpt lat="28.2880099" lon="105.0175544"><ele>601.88</ele><time>2025-10-25T00:55:29.000Z</time></trkpt>
        <trkpt lat="28.2879093" lon="105.0175256"><ele>602.9</ele><time>2025-10-25T00:55:33.000Z</time></trkpt>
        <trkpt lat="28.2878072" lon="105.0175569"><ele>612.47</ele><time>2025-10-25T00:55:41.000Z</time></trkpt>
        <trkpt lat="28.2877091" lon="105.0176107"><ele>615.4</ele><time>2025-10-25T00:55:49.000Z</time></trkpt>
        <trkpt lat="28.2876162" lon="105.0176389"><ele>615.09</ele><time>2025-10-25T00:55:57.000Z</time></trkpt>
        <trkpt lat="28.2875168" lon="105.017633"><ele>613.67</ele><time>2025-10-25T00:56:07.000Z</time></trkpt>
        <trkpt lat="28.2874283" lon="105.0176223"><ele>612.54</ele><time>2025-10-25T00:56:17.000Z</time></trkpt>
        <trkpt lat="28.2873392" lon="105.0176164"><ele>609.71</ele><time>2025-10-25T00:56:21.000Z</time></trkpt>
        <trkpt lat="28.2872608" lon="105.0175725"><ele>608.25</ele><time>2025-10-25T00:56:27.000Z</time></trkpt>
        <trkpt lat="28.2871613" lon="105.0175104"><ele>607.33</ele><time>2025-10-25T00:56:35.000Z</time></trkpt>
        <trkpt lat="28.2870574" lon="105.0174942"><ele>605.75</ele><time>2025-10-25T00:56:45.000Z</time></trkpt>
        <trkpt lat="28.2869531" lon="105.017475"><ele>605.96</ele><time>2025-10-25T00:56:53.000Z</time></trkpt>
        <trkpt lat="28.2869052" lon="105.0174674"><ele>607.96</ele><time>2025-10-25T00:56:55.000Z</time></trkpt>
        <trkpt lat="28.2868233" lon="105.0174542"><ele>609.24</ele><time>2025-10-25T00:57:03.000Z</time></trkpt>
        <trkpt lat="28.2867285" lon="105.0174183"><ele>610.34</ele><time>2025-10-25T00:57:11.000Z</time></trkpt>
        <trkpt lat="28.2866476" lon="105.0173067"><ele>611.34</ele><time>2025-10-25T00:58:17.000Z</time></trkpt>
        <trkpt lat="28.2865983" lon="105.0172089"><ele>607.83</ele><time>2025-10-25T00:58:25.000Z</time></trkpt>
        <trkpt lat="28.2865178" lon="105.0171662"><ele>605.19</ele><time>2025-10-25T00:58:35.000Z</time></trkpt>
        <trkpt lat="28.2864139" lon="105.01713"><ele>603.68</ele><time>2025-10-25T00:58:41.000Z</time></trkpt>
        <trkpt lat="28.2863665" lon="105.0171211"><ele>602.73</ele><time>2025-10-25T00:58:43.000Z</time></trkpt>
        <trkpt lat="28.2862731" lon="105.0170897"><ele>602.1</ele><time>2025-10-25T00:58:51.000Z</time></trkpt>
        <trkpt lat="28.2861677" lon="105.0170738"><ele>600.95</ele><time>2025-10-25T00:58:59.000Z</time></trkpt>
        <trkpt lat="28.2860648" lon="105.0170877"><ele>600.49</ele><time>2025-10-25T00:59:07.000Z</time></trkpt>
        <trkpt lat="28.2859614" lon="105.0171173"><ele>600.23</ele><time>2025-10-25T00:59:15.000Z</time></trkpt>
        <trkpt lat="28.2858589" lon="105.0171464"><ele>600.09</ele><time>2025-10-25T00:59:22.000Z</time></trkpt>
        <trkpt lat="28.2857693" lon="105.0171243"><ele>600.04</ele><time>2025-10-25T00:59:25.000Z</time></trkpt>
        <trkpt lat="28.2857211" lon="105.0171964"><ele>600.4</ele><time>2025-10-25T00:59:41.000Z</time></trkpt>
        <trkpt lat="28.2853442" lon="105.0170939"><ele>597.93</ele><time>2025-10-25T01:03:01.000Z</time></trkpt>
        <trkpt lat="28.2856401" lon="105.0170108"><ele>596.96</ele><time>2025-10-25T01:03:07.000Z</time></trkpt>
        <trkpt lat="28.2856776" lon="105.0168901"><ele>599.97</ele><time>2025-10-25T01:03:29.000Z</time></trkpt>
        <trkpt lat="28.2856266" lon="105.0167969"><ele>602.74</ele><time>2025-10-25T01:03:51.000Z</time></trkpt>
        <trkpt lat="28.2855387" lon="105.01673"><ele>601.84</ele><time>2025-10-25T01:04:09.000Z</time></trkpt>
        <trkpt lat="28.2855241" lon="105.016801"><ele>598.91</ele><time>2025-10-25T01:04:57.000Z</time></trkpt>
        <trkpt lat="28.2855537" lon="105.0169139"><ele>596.11</ele><time>2025-10-25T01:05:05.000Z</time></trkpt>
        <trkpt lat="28.2856175" lon="105.0170124"><ele>594.54</ele><time>2025-10-25T01:05:17.000Z</time></trkpt>
        <trkpt lat="28.2856826" lon="105.0171052"><ele>594.49</ele><time>2025-10-25T01:05:25.000Z</time></trkpt>
        <trkpt lat="28.2857713" lon="105.0171456"><ele>593.24</ele><time>2025-10-25T01:05:37.000Z</time></trkpt>
        <trkpt lat="28.2858635" lon="105.0171138"><ele>591.08</ele><time>2025-10-25T01:05:51.000Z</time></trkpt>
        <trkpt lat="28.2859516" lon="105.0170636"><ele>592.42</ele><time>2025-10-25T01:06:01.000Z</time></trkpt>
        <trkpt lat="28.2860447" lon="105.0170201"><ele>593.54</ele><time>2025-10-25T01:06:13.000Z</time></trkpt>
        <trkpt lat="28.2861506" lon="105.0170294"><ele>593.65</ele><time>2025-10-25T01:06:29.000Z</time></trkpt>
        <trkpt lat="28.2862455" lon="105.0170611"><ele>594.1</ele><time>2025-10-25T01:06:39.000Z</time></trkpt>
        <trkpt lat="28.2863296" lon="105.0171122"><ele>594.39</ele><time>2025-10-25T01:06:49.000Z</time></trkpt>
        <trkpt lat="28.2864153" lon="105.0171574"><ele>594.52</ele><time>2025-10-25T01:06:59.000Z</time></trkpt>
        <trkpt lat="28.2865119" lon="105.0172062"><ele>594.84</ele><time>2025-10-25T01:07:10.000Z</time></trkpt>
        <trkpt lat="28.2865982" lon="105.0172892"><ele>594.92</ele><time>2025-10-25T01:07:23.000Z</time></trkpt>
        <trkpt lat="28.2866536" lon="105.0173929"><ele>594.78</ele><time>2025-10-25T01:07:35.000Z</time></trkpt>
        <trkpt lat="28.2867161" lon="105.0174767"><ele>596.4</ele><time>2025-10-25T01:07:55.000Z</time></trkpt>
        <trkpt lat="28.2868069" lon="105.0175057"><ele>597.08</ele><time>2025-10-25T01:08:09.000Z</time></trkpt>
        <trkpt lat="28.2869006" lon="105.0175084"><ele>597.89</ele><time>2025-10-25T01:08:21.000Z</time></trkpt>
        <trkpt lat="28.2870074" lon="105.0174931"><ele>598.53</ele><time>2025-10-25T01:08:35.000Z</time></trkpt>
        <trkpt lat="28.2871121" lon="105.0174895"><ele>599.01</ele><time>2025-10-25T01:08:45.000Z</time></trkpt>
        <trkpt lat="28.2872055" lon="105.0175202"><ele>598.91</ele><time>2025-10-25T01:08:55.000Z</time></trkpt>
        <trkpt lat="28.287297" lon="105.0175631"><ele>598.25</ele><time>2025-10-25T01:09:05.000Z</time></trkpt>
        <trkpt lat="28.2873954" lon="105.0176044"><ele>597.28</ele><time>2025-10-25T01:09:17.000Z</time></trkpt>
        <trkpt lat="28.28749" lon="105.0176305"><ele>596.87</ele><time>2025-10-25T01:09:27.000Z</time></trkpt>
        <trkpt lat="28.2875857" lon="105.0176294"><ele>596.89</ele><time>2025-10-25T01:09:37.000Z</time></trkpt>
        <trkpt lat="28.2876868" lon="105.0176057"><ele>597.37</ele><time>2025-10-25T01:09:49.000Z</time></trkpt>
        <trkpt lat="28.2877874" lon="105.017576"><ele>597.34</ele><time>2025-10-25T01:09:59.000Z</time></trkpt>
        <trkpt lat="28.2878892" lon="105.017544"><ele>597.58</ele><time>2025-10-25T01:10:09.000Z</time></trkpt>
        <trkpt lat="28.2879937" lon="105.0175577"><ele>597.22</ele><time>2025-10-25T01:10:19.000Z</time></trkpt>
        <trkpt lat="28.288071" lon="105.0176168"><ele>596.37</ele><time>2025-10-25T01:10:27.000Z</time></trkpt>
        <trkpt lat="28.2881276" lon="105.0177078"><ele>595.49</ele><time>2025-10-25T01:10:35.000Z</time></trkpt>
        <trkpt lat="28.2881691" lon="105.0178244"><ele>594.24</ele><time>2025-10-25T01:10:45.000Z</time></trkpt>
        <trkpt lat="28.2881925" lon="105.0179374"><ele>593.24</ele><time>2025-10-25T01:10:53.000Z</time></trkpt>
        <trkpt lat="28.2882001" lon="105.0180508"><ele>592.31</ele><time>2025-10-25T01:11:01.000Z</time></trkpt>
        <trkpt lat="28.2881967" lon="105.0181712"><ele>591.53</ele><time>2025-10-25T01:11:11.000Z</time></trkpt>
        <trkpt lat="28.2881753" lon="105.0182859"><ele>590.89</ele><time>2025-10-25T01:11:21.000Z</time></trkpt>
        <trkpt lat="28.2881206" lon="105.0183821"><ele>590.43</ele><time>2025-10-25T01:11:31.000Z</time></trkpt>
        <trkpt lat="28.2880382" lon="105.0184352"><ele>590</ele><time>2025-10-25T01:11:41.000Z</time></trkpt>
        <trkpt lat="28.2879564" lon="105.0185028"><ele>589.31</ele><time>2025-10-25T01:11:51.000Z</time></trkpt>
        <trkpt lat="28.2878768" lon="105.0185636"><ele>588.58</ele><time>2025-10-25T01:12:01.000Z</time></trkpt>
        <trkpt lat="28.2877915" lon="105.0186184"><ele>588.43</ele><time>2025-10-25T01:12:25.000Z</time></trkpt>
        <trkpt lat="28.2877034" lon="105.0186705"><ele>588.71</ele><time>2025-10-25T01:12:39.000Z</time></trkpt>
        <trkpt lat="28.2876122" lon="105.0187295"><ele>588.67</ele><time>2025-10-25T01:13:05.000Z</time></trkpt>
        <trkpt lat="28.2875063" lon="105.0187771"><ele>588.8</ele><time>2025-10-25T01:13:13.000Z</time></trkpt>
        <trkpt lat="28.2874262" lon="105.0188641"><ele>585.74</ele><time>2025-10-25T01:13:23.000Z</time></trkpt>
        <trkpt lat="28.2873795" lon="105.0189963"><ele>584.57</ele><time>2025-10-25T01:13:33.000Z</time></trkpt>
        <trkpt lat="28.2873598" lon="105.0191287"><ele>583.15</ele><time>2025-10-25T01:13:43.000Z</time></trkpt>
        <trkpt lat="28.2873244" lon="105.0192459"><ele>582.7</ele><time>2025-10-25T01:13:53.000Z</time></trkpt>
        <trkpt lat="28.2873112" lon="105.0193661"><ele>584.08</ele><time>2025-10-25T01:14:01.000Z</time></trkpt>
        <trkpt lat="28.2872821" lon="105.0194751"><ele>584.86</ele><time>2025-10-25T01:14:11.000Z</time></trkpt>
        <trkpt lat="28.287288" lon="105.0195845"><ele>587.47</ele><time>2025-10-25T01:14:19.000Z</time></trkpt>
        <trkpt lat="28.2873427" lon="105.0196947"><ele>587.55</ele><time>2025-10-25T01:14:31.000Z</time></trkpt>
        <trkpt lat="28.2873913" lon="105.0197932"><ele>587.16</ele><time>2025-10-25T01:14:43.000Z</time></trkpt>
        <trkpt lat="28.2874432" lon="105.0198847"><ele>586.51</ele><time>2025-10-25T01:14:53.000Z</time></trkpt>
        <trkpt lat="28.2874712" lon="105.0199946"><ele>585.41</ele><time>2025-10-25T01:15:01.000Z</time></trkpt>
        <trkpt lat="28.2875091" lon="105.0201112"><ele>584.25</ele><time>2025-10-25T01:15:11.000Z</time></trkpt>
        <trkpt lat="28.2875531" lon="105.0202147"><ele>584.27</ele><time>2025-10-25T01:15:19.000Z</time></trkpt>
        <trkpt lat="28.2875706" lon="105.0203042"><ele>585.37</ele><time>2025-10-25T01:15:23.000Z</time></trkpt>
        <trkpt lat="28.2876316" lon="105.0203712"><ele>584.34</ele><time>2025-10-25T01:15:43.000Z</time></trkpt>
        <trkpt lat="28.2877227" lon="105.0203812"><ele>584.67</ele><time>2025-10-25T01:15:53.000Z</time></trkpt>
        <trkpt lat="28.2878306" lon="105.020355"><ele>584.58</ele><time>2025-10-25T01:16:13.000Z</time></trkpt>
        <trkpt lat="28.2879258" lon="105.0203031"><ele>584.22</ele><time>2025-10-25T01:16:23.000Z</time></trkpt>
        <trkpt lat="28.2880233" lon="105.0202729"><ele>580.84</ele><time>2025-10-25T01:16:39.000Z</time></trkpt>
        <trkpt lat="28.2881219" lon="105.0202561"><ele>576.87</ele><time>2025-10-25T01:16:43.000Z</time></trkpt>
        <trkpt lat="28.2881642" lon="105.0202464"><ele>578.31</ele><time>2025-10-25T01:16:46.000Z</time></trkpt>
        <trkpt lat="28.2882323" lon="105.0202776"><ele>567.31</ele><time>2025-10-25T01:17:01.000Z</time></trkpt>
        <trkpt lat="28.2883166" lon="105.0202568"><ele>564.49</ele><time>2025-10-25T01:17:11.000Z</time></trkpt>
        <trkpt lat="28.2884145" lon="105.0202305"><ele>564.76</ele><time>2025-10-25T01:17:21.000Z</time></trkpt>
        <trkpt lat="28.2885134" lon="105.0202071"><ele>566.95</ele><time>2025-10-25T01:17:29.000Z</time></trkpt>
        <trkpt lat="28.2886153" lon="105.0202035"><ele>569.41</ele><time>2025-10-25T01:17:37.000Z</time></trkpt>
        <trkpt lat="28.288705" lon="105.020254"><ele>570.61</ele><time>2025-10-25T01:17:51.000Z</time></trkpt>
        <trkpt lat="28.2887889" lon="105.0203183"><ele>570.73</ele><time>2025-10-25T01:18:01.000Z</time></trkpt>
        <trkpt lat="28.2888708" lon="105.0203747"><ele>571.78</ele><time>2025-10-25T01:18:13.000Z</time></trkpt>
        <trkpt lat="28.2889536" lon="105.020434"><ele>572.07</ele><time>2025-10-25T01:18:21.000Z</time></trkpt>
        <trkpt lat="28.2890161" lon="105.0205228"><ele>572.75</ele><time>2025-10-25T01:18:31.000Z</time></trkpt>
        <trkpt lat="28.2890949" lon="105.0205729"><ele>570.57</ele><time>2025-10-25T01:18:43.000Z</time></trkpt>
        <trkpt lat="28.2891903" lon="105.0206024"><ele>569.96</ele><time>2025-10-25T01:18:52.000Z</time></trkpt>
        <trkpt lat="28.2892818" lon="105.0206413"><ele>569.32</ele><time>2025-10-25T01:18:59.000Z</time></trkpt>
        <trkpt lat="28.2893847" lon="105.0206731"><ele>569.13</ele><time>2025-10-25T01:19:11.000Z</time></trkpt>
        <trkpt lat="28.2894788" lon="105.0207106"><ele>568.82</ele><time>2025-10-25T01:19:21.000Z</time></trkpt>
        <trkpt lat="28.2896145" lon="105.0207199"><ele>568.15</ele><time>2025-10-25T01:19:33.000Z</time></trkpt>
        <trkpt lat="28.2897437" lon="105.0207173"><ele>566.86</ele><time>2025-10-25T01:19:39.000Z</time></trkpt>
        <trkpt lat="28.2898224" lon="105.0206554"><ele>566.14</ele><time>2025-10-25T01:19:49.000Z</time></trkpt>
        <trkpt lat="28.2898908" lon="105.0205822"><ele>565.53</ele><time>2025-10-25T01:19:59.000Z</time></trkpt>
        <trkpt lat="28.289964" lon="105.0204965"><ele>564.32</ele><time>2025-10-25T01:20:07.000Z</time></trkpt>
        <trkpt lat="28.2900253" lon="105.0204074"><ele>562.69</ele><time>2025-10-25T01:20:17.000Z</time></trkpt>
        <trkpt lat="28.2900974" lon="105.0203225"><ele>560.71</ele><time>2025-10-25T01:20:27.000Z</time></trkpt>
        <trkpt lat="28.2901734" lon="105.0202567"><ele>559.09</ele><time>2025-10-25T01:20:37.000Z</time></trkpt>
        <trkpt lat="28.29026" lon="105.0201842"><ele>557.39</ele><time>2025-10-25T01:20:47.000Z</time></trkpt>
        <trkpt lat="28.2903337" lon="105.0201049"><ele>556.36</ele><time>2025-10-25T01:20:57.000Z</time></trkpt>
        <trkpt lat="28.290415" lon="105.0200488"><ele>554.79</ele><time>2025-10-25T01:21:05.000Z</time></trkpt>
        <trkpt lat="28.2905057" lon="105.0200038"><ele>552.94</ele><time>2025-10-25T01:21:11.000Z</time></trkpt>
        <trkpt lat="28.2905856" lon="105.0199385"><ele>551.72</ele><time>2025-10-25T01:21:21.000Z</time></trkpt>
        <trkpt lat="28.2906673" lon="105.019891"><ele>550.96</ele><time>2025-10-25T01:21:29.000Z</time></trkpt>
        <trkpt lat="28.2907599" lon="105.0198938"><ele>550.83</ele><time>2025-10-25T01:21:37.000Z</time></trkpt>
        <trkpt lat="28.2908616" lon="105.0199348"><ele>550.3</ele><time>2025-10-25T01:21:45.000Z</time></trkpt>
        <trkpt lat="28.2909472" lon="105.0199927"><ele>549.23</ele><time>2025-10-25T01:21:52.000Z</time></trkpt>
        <trkpt lat="28.2910397" lon="105.0200471"><ele>548.97</ele><time>2025-10-25T01:21:58.000Z</time></trkpt>
        <trkpt lat="28.2911211" lon="105.0201238"><ele>549.35</ele><time>2025-10-25T01:22:06.000Z</time></trkpt>
        <trkpt lat="28.2911826" lon="105.0202158"><ele>550.06</ele><time>2025-10-25T01:22:15.000Z</time></trkpt>
        <trkpt lat="28.291252" lon="105.0203046"><ele>550.96</ele><time>2025-10-25T01:22:25.000Z</time></trkpt>
        <trkpt lat="28.2913405" lon="105.0203489"><ele>550.89</ele><time>2025-10-25T01:22:35.000Z</time></trkpt>
        <trkpt lat="28.2914263" lon="105.0203057"><ele>550.51</ele><time>2025-10-25T01:22:43.000Z</time></trkpt>
        <trkpt lat="28.2914944" lon="105.0202197"><ele>549.96</ele><time>2025-10-25T01:22:51.000Z</time></trkpt>
        <trkpt lat="28.2915584" lon="105.0201125"><ele>548.71</ele><time>2025-10-25T01:23:01.000Z</time></trkpt>
        <trkpt lat="28.2916138" lon="105.0200151"><ele>547.44</ele><time>2025-10-25T01:23:09.000Z</time></trkpt>
        <trkpt lat="28.291689" lon="105.0199406"><ele>546.34</ele><time>2025-10-25T01:23:19.000Z</time></trkpt>
        <trkpt lat="28.2917767" lon="105.0199315"><ele>545.07</ele><time>2025-10-25T01:23:27.000Z</time></trkpt>
        <trkpt lat="28.2918662" lon="105.0199648"><ele>543.72</ele><time>2025-10-25T01:23:35.000Z</time></trkpt>
        <trkpt lat="28.2919493" lon="105.0200271"><ele>542.63</ele><time>2025-10-25T01:23:43.000Z</time></trkpt>
        <trkpt lat="28.2920318" lon="105.0200921"><ele>542.12</ele><time>2025-10-25T01:23:51.000Z</time></trkpt>
        <trkpt lat="28.2921105" lon="105.0201718"><ele>542.22</ele><time>2025-10-25T01:23:59.000Z</time></trkpt>
        <trkpt lat="28.2921904" lon="105.0202478"><ele>542.97</ele><time>2025-10-25T01:24:07.000Z</time></trkpt>
        <trkpt lat="28.292284" lon="105.0202398"><ele>544.39</ele><time>2025-10-25T01:24:19.000Z</time></trkpt>
        <trkpt lat="28.29234" lon="105.020156"><ele>545.45</ele><time>2025-10-25T01:24:27.000Z</time></trkpt>
        <trkpt lat="28.2923733" lon="105.0200424"><ele>545.75</ele><time>2025-10-25T01:24:35.000Z</time></trkpt>
        <trkpt lat="28.2923983" lon="105.019924"><ele>545.47</ele><time>2025-10-25T01:24:43.000Z</time></trkpt>
        <trkpt lat="28.2924303" lon="105.0198121"><ele>544.94</ele><time>2025-10-25T01:24:51.000Z</time></trkpt>
        <trkpt lat="28.2924645" lon="105.0197041"><ele>545.59</ele><time>2025-10-25T01:24:59.000Z</time></trkpt>
        <trkpt lat="28.2925236" lon="105.0196062"><ele>546.59</ele><time>2025-10-25T01:25:09.000Z</time></trkpt>
        <trkpt lat="28.2926294" lon="105.0195847"><ele>547.87</ele><time>2025-10-25T01:25:19.000Z</time></trkpt>
        <trkpt lat="28.2927345" lon="105.0196152"><ele>547.88</ele><time>2025-10-25T01:25:29.000Z</time></trkpt>
        <trkpt lat="28.2928323" lon="105.0196354"><ele>547.56</ele><time>2025-10-25T01:25:37.000Z</time></trkpt>
        <trkpt lat="28.2929286" lon="105.0196417"><ele>547.35</ele><time>2025-10-25T01:25:45.000Z</time></trkpt>
        <trkpt lat="28.2930222" lon="105.0196487"><ele>557.45</ele><time>2025-10-25T01:25:53.000Z</time></trkpt>
        <trkpt lat="28.2931169" lon="105.0196779"><ele>561.27</ele><time>2025-10-25T01:26:01.000Z</time></trkpt>
        <trkpt lat="28.2932066" lon="105.0197311"><ele>561.3</ele><time>2025-10-25T01:26:11.000Z</time></trkpt>
        <trkpt lat="28.2932898" lon="105.0198045"><ele>561.32</ele><time>2025-10-25T01:26:21.000Z</time></trkpt>
        <trkpt lat="28.2933443" lon="105.0199056"><ele>561.33</ele><time>2025-10-25T01:26:31.000Z</time></trkpt>
        <trkpt lat="28.2933677" lon="105.0200149"><ele>561.34</ele><time>2025-10-25T01:26:41.000Z</time></trkpt>
        <trkpt lat="28.2933848" lon="105.0201348"><ele>561.34</ele><time>2025-10-25T01:26:51.000Z</time></trkpt>
        <trkpt lat="28.2934052" lon="105.0202223"><ele>561.34</ele><time>2025-10-25T01:26:59.000Z</time></trkpt>
        <trkpt lat="28.293458" lon="105.0202979"><ele>549.85</ele><time>2025-10-25T01:27:01.000Z</time></trkpt>
        <trkpt lat="28.2935036" lon="105.0203849"><ele>543.34</ele><time>2025-10-25T01:27:07.000Z</time></trkpt>
        <trkpt lat="28.2935483" lon="105.0204899"><ele>539.73</ele><time>2025-10-25T01:27:15.000Z</time></trkpt>
        <trkpt lat="28.2935731" lon="105.0205475"><ele>538.54</ele><time>2025-10-25T01:27:17.000Z</time></trkpt>
        <trkpt lat="28.293612" lon="105.0206386"><ele>538.42</ele><time>2025-10-25T01:27:27.000Z</time></trkpt>
        <trkpt lat="28.2936386" lon="105.020744"><ele>538.32</ele><time>2025-10-25T01:27:42.000Z</time></trkpt>
        <trkpt lat="28.2936543" lon="105.0208627"><ele>538.32</ele><time>2025-10-25T01:27:55.000Z</time></trkpt>
        <trkpt lat="28.2937054" lon="105.0209702"><ele>538.74</ele><time>2025-10-25T01:28:07.000Z</time></trkpt>
        <trkpt lat="28.2937788" lon="105.0210616"><ele>539.29</ele><time>2025-10-25T01:28:15.000Z</time></trkpt>
        <trkpt lat="28.29385" lon="105.0211488"><ele>538.65</ele><time>2025-10-25T01:28:23.000Z</time></trkpt>
        <trkpt lat="28.2939279" lon="105.0212192"><ele>535.92</ele><time>2025-10-25T01:28:35.000Z</time></trkpt>
        <trkpt lat="28.2940222" lon="105.0212828"><ele>534.07</ele><time>2025-10-25T01:28:46.000Z</time></trkpt>
        <trkpt lat="28.2941158" lon="105.0213493"><ele>533.02</ele><time>2025-10-25T01:28:51.000Z</time></trkpt>
        <trkpt lat="28.2941822" lon="105.0214119"><ele>530.69</ele><time>2025-10-25T01:29:01.000Z</time></trkpt>
        <trkpt lat="28.2940781" lon="105.0213851"><ele>530.8</ele><time>2025-10-25T01:31:31.000Z</time></trkpt>
        <trkpt lat="28.2939866" lon="105.021473"><ele>531.36</ele><time>2025-10-25T01:31:41.000Z</time></trkpt>
        <trkpt lat="28.293915" lon="105.0215557"><ele>534.67</ele><time>2025-10-25T01:31:51.000Z</time></trkpt>
        <trkpt lat="28.2938976" lon="105.0216602"><ele>534.95</ele><time>2025-10-25T01:32:23.000Z</time></trkpt>
        <trkpt lat="28.2939684" lon="105.021681"><ele>532.43</ele><time>2025-10-25T01:32:43.000Z</time></trkpt>
        <trkpt lat="28.293953" lon="105.0217514"><ele>529.41</ele><time>2025-10-25T01:33:25.000Z</time></trkpt>
        <trkpt lat="28.2939149" lon="105.0218414"><ele>527.3</ele><time>2025-10-25T01:33:37.000Z</time></trkpt>
        <trkpt lat="28.2939747" lon="105.0219329"><ele>526.81</ele><time>2025-10-25T01:33:45.000Z</time></trkpt>
        <trkpt lat="28.294069" lon="105.0219781"><ele>527.94</ele><time>2025-10-25T01:33:53.000Z</time></trkpt>
        <trkpt lat="28.2941704" lon="105.0220119"><ele>528.39</ele><time>2025-10-25T01:34:01.000Z</time></trkpt>
        <trkpt lat="28.2942433" lon="105.0220843"><ele>527.41</ele><time>2025-10-25T01:34:10.000Z</time></trkpt>
        <trkpt lat="28.2942639" lon="105.0221851"><ele>530.78</ele><time>2025-10-25T01:34:21.000Z</time></trkpt>
        <trkpt lat="28.2942679" lon="105.0222974"><ele>529.92</ele><time>2025-10-25T01:34:31.000Z</time></trkpt>
        <trkpt lat="28.2942961" lon="105.0223993"><ele>527.17</ele><time>2025-10-25T01:34:41.000Z</time></trkpt>
        <trkpt lat="28.2943493" lon="105.0224971"><ele>525.12</ele><time>2025-10-25T01:34:51.000Z</time></trkpt>
        <trkpt lat="28.2943908" lon="105.0226074"><ele>522.71</ele><time>2025-10-25T01:35:04.000Z</time></trkpt>
        <trkpt lat="28.2943909" lon="105.0227203"><ele>521.32</ele><time>2025-10-25T01:35:13.000Z</time></trkpt>
        <trkpt lat="28.2943331" lon="105.0228291"><ele>521.34</ele><time>2025-10-25T01:35:25.000Z</time></trkpt>
        <trkpt lat="28.294264" lon="105.0229269"><ele>522.82</ele><time>2025-10-25T01:35:31.000Z</time></trkpt>
        <trkpt lat="28.2942123" lon="105.0230224"><ele>529.61</ele><time>2025-10-25T01:35:41.000Z</time></trkpt>
        <trkpt lat="28.2941664" lon="105.0231221"><ele>531.93</ele><time>2025-10-25T01:35:51.000Z</time></trkpt>
        <trkpt lat="28.2940925" lon="105.0232103"><ele>532.99</ele><time>2025-10-25T01:36:01.000Z</time></trkpt>
        <trkpt lat="28.2940043" lon="105.0232696"><ele>532.76</ele><time>2025-10-25T01:36:09.000Z</time></trkpt>
        <trkpt lat="28.2939338" lon="105.0233374"><ele>531.99</ele><time>2025-10-25T01:36:17.000Z</time></trkpt>
        <trkpt lat="28.2938888" lon="105.0234324"><ele>531.48</ele><time>2025-10-25T01:36:25.000Z</time></trkpt>
        <trkpt lat="28.2938796" lon="105.0235398"><ele>531.1</ele><time>2025-10-25T01:36:34.000Z</time></trkpt>
        <trkpt lat="28.2939069" lon="105.0236515"><ele>530.48</ele><time>2025-10-25T01:36:41.000Z</time></trkpt>
        <trkpt lat="28.293958" lon="105.0237574"><ele>529.55</ele><time>2025-10-25T01:36:52.000Z</time></trkpt>
        <trkpt lat="28.2940415" lon="105.0238286"><ele>527.87</ele><time>2025-10-25T01:36:59.000Z</time></trkpt>
        <trkpt lat="28.2941216" lon="105.0239131"><ele>525.98</ele><time>2025-10-25T01:37:10.000Z</time></trkpt>
        <trkpt lat="28.2941991" lon="105.024003"><ele>523.51</ele><time>2025-10-25T01:37:18.000Z</time></trkpt>
        <trkpt lat="28.2942528" lon="105.0240937"><ele>516.43</ele><time>2025-10-25T01:37:28.000Z</time></trkpt>
        <trkpt lat="28.2942514" lon="105.0241965"><ele>520.56</ele><time>2025-10-25T01:37:47.000Z</time></trkpt>
        <trkpt lat="28.2942065" lon="105.0242953"><ele>522.61</ele><time>2025-10-25T01:38:17.000Z</time></trkpt>
        <trkpt lat="28.2941472" lon="105.0243833"><ele>520.42</ele><time>2025-10-25T01:38:26.000Z</time></trkpt>
        <trkpt lat="28.2940735" lon="105.0244722"><ele>519.81</ele><time>2025-10-25T01:38:34.000Z</time></trkpt>
        <trkpt lat="28.2940046" lon="105.0246051"><ele>519.55</ele><time>2025-10-25T01:38:45.000Z</time></trkpt>
        <trkpt lat="28.2939694" lon="105.0247301"><ele>524.82</ele><time>2025-10-25T01:38:51.000Z</time></trkpt>
        <trkpt lat="28.2939873" lon="105.0248446"><ele>526.97</ele><time>2025-10-25T01:39:03.000Z</time></trkpt>
        <trkpt lat="28.2940106" lon="105.0249498"><ele>526.69</ele><time>2025-10-25T01:39:29.000Z</time></trkpt>
        <trkpt lat="28.2939196" lon="105.0249907"><ele>526.83</ele><time>2025-10-25T01:39:49.000Z</time></trkpt>
        <trkpt lat="28.2938489" lon="105.0249989"><ele>525.63</ele><time>2025-10-25T01:39:52.000Z</time></trkpt>
        <trkpt lat="28.2937636" lon="105.0250184"><ele>525.42</ele><time>2025-10-25T01:40:00.000Z</time></trkpt>
        <trkpt lat="28.2936739" lon="105.0250695"><ele>525.46</ele><time>2025-10-25T01:40:08.000Z</time></trkpt>
        <trkpt lat="28.2935798" lon="105.0250936"><ele>530.05</ele><time>2025-10-25T01:40:17.000Z</time></trkpt>
        <trkpt lat="28.2934826" lon="105.0251066"><ele>532.04</ele><time>2025-10-25T01:40:31.000Z</time></trkpt>
        <trkpt lat="28.2933871" lon="105.0250991"><ele>533.07</ele><time>2025-10-25T01:40:39.000Z</time></trkpt>
        <trkpt lat="28.2932913" lon="105.0250692"><ele>533.8</ele><time>2025-10-25T01:40:47.000Z</time></trkpt>
        <trkpt lat="28.2931967" lon="105.0250199"><ele>534.93</ele><time>2025-10-25T01:40:55.000Z</time></trkpt>
        <trkpt lat="28.2930967" lon="105.0249912"><ele>535.24</ele><time>2025-10-25T01:41:06.000Z</time></trkpt>
        <trkpt lat="28.2929858" lon="105.0249578"><ele>536.36</ele><time>2025-10-25T01:41:18.000Z</time></trkpt>
        <trkpt lat="28.2929115" lon="105.0250102"><ele>536.91</ele><time>2025-10-25T01:41:30.000Z</time></trkpt>
        <trkpt lat="28.2928809" lon="105.0251139"><ele>538.34</ele><time>2025-10-25T01:41:42.000Z</time></trkpt>
        <trkpt lat="28.2928351" lon="105.025217"><ele>538.02</ele><time>2025-10-25T01:41:54.000Z</time></trkpt>
        <trkpt lat="28.2928267" lon="105.0253354"><ele>537.2</ele><time>2025-10-25T01:42:06.000Z</time></trkpt>
        <trkpt lat="28.2928596" lon="105.0254437"><ele>537.44</ele><time>2025-10-25T01:42:18.000Z</time></trkpt>
        <trkpt lat="28.2928885" lon="105.0255567"><ele>535.19</ele><time>2025-10-25T01:42:30.000Z</time></trkpt>
        <trkpt lat="28.2929177" lon="105.025666"><ele>534.18</ele><time>2025-10-25T01:42:40.000Z</time></trkpt>
        <trkpt lat="28.2929065" lon="105.0257738"><ele>534.41</ele><time>2025-10-25T01:42:52.000Z</time></trkpt>
        <trkpt lat="28.2928333" lon="105.0258441"><ele>536.32</ele><time>2025-10-25T01:43:04.000Z</time></trkpt>
        <trkpt lat="28.2927356" lon="105.0258749"><ele>536.72</ele><time>2025-10-25T01:43:12.000Z</time></trkpt>
        <trkpt lat="28.2926392" lon="105.0259062"><ele>537.72</ele><time>2025-10-25T01:43:18.000Z</time></trkpt>
        <trkpt lat="28.292541" lon="105.0259184"><ele>542.07</ele><time>2025-10-25T01:43:28.000Z</time></trkpt>
        <trkpt lat="28.2924351" lon="105.0259121"><ele>544.14</ele><time>2025-10-25T01:43:38.000Z</time></trkpt>
        <trkpt lat="28.2923266" lon="105.025899"><ele>545.31</ele><time>2025-10-25T01:43:46.000Z</time></trkpt>
        <trkpt lat="28.2922411" lon="105.0259628"><ele>545.63</ele><time>2025-10-25T01:43:54.000Z</time></trkpt>
        <trkpt lat="28.2922029" lon="105.0260607"><ele>545.48</ele><time>2025-10-25T01:44:02.000Z</time></trkpt>
        <trkpt lat="28.2921719" lon="105.0261847"><ele>544.01</ele><time>2025-10-25T01:44:12.000Z</time></trkpt>
        <trkpt lat="28.2922101" lon="105.0263033"><ele>542.76</ele><time>2025-10-25T01:44:24.000Z</time></trkpt>
        <trkpt lat="28.2923014" lon="105.0263792"><ele>541.66</ele><time>2025-10-25T01:44:32.000Z</time></trkpt>
        <trkpt lat="28.2923841" lon="105.0264703"><ele>540.24</ele><time>2025-10-25T01:44:40.000Z</time></trkpt>
        <trkpt lat="28.2924224" lon="105.0265818"><ele>538.81</ele><time>2025-10-25T01:44:48.000Z</time></trkpt>
        <trkpt lat="28.2924219" lon="105.0266912"><ele>538.12</ele><time>2025-10-25T01:44:56.000Z</time></trkpt>
        <trkpt lat="28.2924099" lon="105.026796"><ele>537.46</ele><time>2025-10-25T01:45:02.000Z</time></trkpt>
        <trkpt lat="28.2923673" lon="105.0268899"><ele>534.17</ele><time>2025-10-25T01:45:10.000Z</time></trkpt>
        <trkpt lat="28.2922947" lon="105.0269689"><ele>535.9</ele><time>2025-10-25T01:45:23.000Z</time></trkpt>
        <trkpt lat="28.2923223" lon="105.0270354"><ele>536.26</ele><time>2025-10-25T01:45:47.000Z</time></trkpt>
        <trkpt lat="28.2924055" lon="105.0270331"><ele>533.75</ele><time>2025-10-25T01:46:01.000Z</time></trkpt>
        <trkpt lat="28.292365" lon="105.0270237"><ele>532.19</ele><time>2025-10-25T01:46:41.000Z</time></trkpt>
        <trkpt lat="28.2922785" lon="105.0270452"><ele>533.84</ele><time>2025-10-25T01:46:51.000Z</time></trkpt>
        <trkpt lat="28.2921846" lon="105.0271019"><ele>534.39</ele><time>2025-10-25T01:47:01.000Z</time></trkpt>
        <trkpt lat="28.2922216" lon="105.0271556"><ele>535.27</ele><time>2025-10-25T01:47:39.000Z</time></trkpt>
        <trkpt lat="28.2923287" lon="105.0271661"><ele>533.55</ele><time>2025-10-25T01:47:49.000Z</time></trkpt>
        <trkpt lat="28.2924379" lon="105.0272008"><ele>531.33</ele><time>2025-10-25T01:47:57.000Z</time></trkpt>
        <trkpt lat="28.2925542" lon="105.0272465"><ele>529.65</ele><time>2025-10-25T01:48:13.000Z</time></trkpt>
        <trkpt lat="28.2926318" lon="105.0273264"><ele>526.85</ele><time>2025-10-25T01:48:29.000Z</time></trkpt>
        <trkpt lat="28.2926808" lon="105.0274353"><ele>525.26</ele><time>2025-10-25T01:49:09.000Z</time></trkpt>
        <trkpt lat="28.2927366" lon="105.0275339"><ele>522.39</ele><time>2025-10-25T01:49:17.000Z</time></trkpt>
        <trkpt lat="28.2927835" lon="105.0275823"><ele>528.78</ele><time>2025-10-25T01:49:27.000Z</time></trkpt>
        <trkpt lat="28.2928323" lon="105.027679"><ele>528.54</ele><time>2025-10-25T01:49:43.000Z</time></trkpt>
        <trkpt lat="28.2929027" lon="105.0277674"><ele>528.27</ele><time>2025-10-25T01:49:51.000Z</time></trkpt>
        <trkpt lat="28.2929777" lon="105.0278625"><ele>527.07</ele><time>2025-10-25T01:50:00.000Z</time></trkpt>
        <trkpt lat="28.2930591" lon="105.0279259"><ele>522.31</ele><time>2025-10-25T01:50:24.000Z</time></trkpt>
        <trkpt lat="28.293204" lon="105.0279955"><ele>518.61</ele><time>2025-10-25T01:50:36.000Z</time></trkpt>
        <trkpt lat="28.2932881" lon="105.0280063"><ele>514.13</ele><time>2025-10-25T01:50:38.000Z</time></trkpt>
        <trkpt lat="28.2933336" lon="105.0280808"><ele>514.43</ele><time>2025-10-25T01:51:16.000Z</time></trkpt>
        <trkpt lat="28.2933714" lon="105.028188"><ele>515.63</ele><time>2025-10-25T01:51:32.000Z</time></trkpt>
        <trkpt lat="28.2933619" lon="105.0283015"><ele>514.5</ele><time>2025-10-25T01:51:44.000Z</time></trkpt>
        <trkpt lat="28.2933053" lon="105.0284084"><ele>516.98</ele><time>2025-10-25T01:51:57.000Z</time></trkpt>
        <trkpt lat="28.2933026" lon="105.0285211"><ele>517.38</ele><time>2025-10-25T01:52:07.000Z</time></trkpt>
        <trkpt lat="28.2933046" lon="105.0286441"><ele>513.1</ele><time>2025-10-25T01:52:35.000Z</time></trkpt>
        <trkpt lat="28.2933226" lon="105.0287519"><ele>513</ele><time>2025-10-25T01:52:41.000Z</time></trkpt>
        <trkpt lat="28.2933603" lon="105.0288485"><ele>513.13</ele><time>2025-10-25T01:52:51.000Z</time></trkpt>
        <trkpt lat="28.293434" lon="105.0289219"><ele>512.29</ele><time>2025-10-25T01:53:39.000Z</time></trkpt>
        <trkpt lat="28.2935238" lon="105.0289717"><ele>509.07</ele><time>2025-10-25T01:54:05.000Z</time></trkpt>
        <trkpt lat="28.2936234" lon="105.028964"><ele>505.4</ele><time>2025-10-25T01:54:19.000Z</time></trkpt>
        <trkpt lat="28.2937195" lon="105.0289697"><ele>500.56</ele><time>2025-10-25T01:54:49.000Z</time></trkpt>
        <trkpt lat="28.2938163" lon="105.0289811"><ele>496.04</ele><time>2025-10-25T01:55:05.000Z</time></trkpt>
        <trkpt lat="28.2938728" lon="105.0290614"><ele>492</ele><time>2025-10-25T01:55:47.000Z</time></trkpt>
        <trkpt lat="28.2938735" lon="105.0291694"><ele>487.72</ele><time>2025-10-25T01:56:35.000Z</time></trkpt>
        <trkpt lat="28.2939036" lon="105.0292779"><ele>483.81</ele><time>2025-10-25T01:56:47.000Z</time></trkpt>
        <trkpt lat="28.2939636" lon="105.0293843"><ele>481.18</ele><time>2025-10-25T01:57:17.000Z</time></trkpt>
        <trkpt lat="28.2940337" lon="105.0294797"><ele>478.25</ele><time>2025-10-25T01:57:35.000Z</time></trkpt>
        <trkpt lat="28.2940957" lon="105.0295932"><ele>475.37</ele><time>2025-10-25T01:57:45.000Z</time></trkpt>
        <trkpt lat="28.2941668" lon="105.0296777"><ele>472.52</ele><time>2025-10-25T01:57:59.000Z</time></trkpt>
        <trkpt lat="28.2942326" lon="105.0297752"><ele>469.99</ele><time>2025-10-25T01:59:35.000Z</time></trkpt>
        <trkpt lat="28.294219" lon="105.0298869"><ele>468.47</ele><time>2025-10-25T02:00:47.000Z</time></trkpt>
        <trkpt lat="28.294231" lon="105.0299935"><ele>467.09</ele><time>2025-10-25T02:01:49.000Z</time></trkpt>
        <trkpt lat="28.2942852" lon="105.0301218"><ele>466.06</ele><time>2025-10-25T02:01:59.000Z</time></trkpt>
        <trkpt lat="28.2942993" lon="105.0302475"><ele>461.74</ele><time>2025-10-25T02:02:05.000Z</time></trkpt>
        <trkpt lat="28.2943101" lon="105.0303714"><ele>457.2</ele><time>2025-10-25T02:02:41.000Z</time></trkpt>
        <trkpt lat="28.294357" lon="105.0304804"><ele>451.68</ele><time>2025-10-25T02:02:53.000Z</time></trkpt>
        <trkpt lat="28.2943841" lon="105.0305874"><ele>445.91</ele><time>2025-10-25T02:03:13.000Z</time></trkpt>
        <trkpt lat="28.294435" lon="105.0306807"><ele>439.67</ele><time>2025-10-25T02:03:27.000Z</time></trkpt>
        <trkpt lat="28.2945069" lon="105.0307591"><ele>433.43</ele><time>2025-10-25T02:03:37.000Z</time></trkpt>
        <trkpt lat="28.294575" lon="105.0308325"><ele>428.4</ele><time>2025-10-25T02:03:45.000Z</time></trkpt>
        <trkpt lat="28.2946104" lon="105.0309394"><ele>423.94</ele><time>2025-10-25T02:03:53.000Z</time></trkpt>
        <trkpt lat="28.2946593" lon="105.0310349"><ele>419.3</ele><time>2025-10-25T02:04:07.000Z</time></trkpt>
        <trkpt lat="28.2947464" lon="105.031068"><ele>413.43</ele><time>2025-10-25T02:04:23.000Z</time></trkpt>
        <trkpt lat="28.2948095" lon="105.0311446"><ele>407.4</ele><time>2025-10-25T02:04:55.000Z</time></trkpt>
        <trkpt lat="28.2948787" lon="105.0312279"><ele>401.12</ele><time>2025-10-25T02:05:05.000Z</time></trkpt>
        <trkpt lat="28.2949644" lon="105.0312037"><ele>395.66</ele><time>2025-10-25T02:05:19.000Z</time></trkpt>
        <trkpt lat="28.2949644" lon="105.0312037"><ele>395.66</ele><time>2025-10-25T02:05:45.000Z</time></trkpt>
      </trkseg>
      <trkseg>
        <trkpt lat="28.2951342" lon="105.0312322"><ele>389.28</ele><time>2025-10-25T02:15:19.000Z</time></trkpt>
        <trkpt lat="28.2951342" lon="105.0312322"><ele>389.28</ele><time>2025-10-25T02:15:22.000Z</time></trkpt>
        <trkpt lat="28.2949561" lon="105.0312471"><ele>384.91</ele><time>2025-10-25T02:15:28.000Z</time></trkpt>
        <trkpt lat="28.2949898" lon="105.0313197"><ele>384.23</ele><time>2025-10-25T02:15:38.000Z</time></trkpt>
        <trkpt lat="28.295083" lon="105.031321"><ele>385.88</ele><time>2025-10-25T02:15:52.000Z</time></trkpt>
        <trkpt lat="28.2951716" lon="105.031261"><ele>384.14</ele><time>2025-10-25T02:16:02.000Z</time></trkpt>
        <trkpt lat="28.2952674" lon="105.0312094"><ele>382.16</ele><time>2025-10-25T02:16:10.000Z</time></trkpt>
        <trkpt lat="28.2953659" lon="105.0311398"><ele>380.85</ele><time>2025-10-25T02:16:21.000Z</time></trkpt>
        <trkpt lat="28.2954692" lon="105.0311174"><ele>378.69</ele><time>2025-10-25T02:16:31.000Z</time></trkpt>
        <trkpt lat="28.2955271" lon="105.0311984"><ele>378.08</ele><time>2025-10-25T02:16:39.000Z</time></trkpt>
        <trkpt lat="28.2955569" lon="105.0313059"><ele>378.31</ele><time>2025-10-25T02:16:47.000Z</time></trkpt>
        <trkpt lat="28.2955769" lon="105.0314173"><ele>378.78</ele><time>2025-10-25T02:16:55.000Z</time></trkpt>
        <trkpt lat="28.2956016" lon="105.0315315"><ele>379.39</ele><time>2025-10-25T02:17:04.000Z</time></trkpt>
        <trkpt lat="28.2956271" lon="105.0316568"><ele>380.14</ele><time>2025-10-25T02:17:11.000Z</time></trkpt>
        <trkpt lat="28.2956502" lon="105.0317667"><ele>380.8</ele><time>2025-10-25T02:17:19.000Z</time></trkpt>
        <trkpt lat="28.2956785" lon="105.0318672"><ele>381.24</ele><time>2025-10-25T02:17:27.000Z</time></trkpt>
        <trkpt lat="28.2956343" lon="105.0319482"><ele>381.35</ele><time>2025-10-25T02:17:35.000Z</time></trkpt>
        <trkpt lat="28.2955951" lon="105.0320556"><ele>381.41</ele><time>2025-10-25T02:17:47.000Z</time></trkpt>
        <trkpt lat="28.2955997" lon="105.0321617"><ele>381.44</ele><time>2025-10-25T02:17:55.000Z</time></trkpt>
        <trkpt lat="28.2956413" lon="105.0322536"><ele>381.46</ele><time>2025-10-25T02:18:03.000Z</time></trkpt>
        <trkpt lat="28.2957045" lon="105.0323588"><ele>381.48</ele><time>2025-10-25T02:18:13.000Z</time></trkpt>
        <trkpt lat="28.2957551" lon="105.0324585"><ele>381.48</ele><time>2025-10-25T02:18:17.000Z</time></trkpt>
        <trkpt lat="28.2957849" lon="105.032504"><ele>388.14</ele><time>2025-10-25T02:18:19.000Z</time></trkpt>
        <trkpt lat="28.295818" lon="105.0325896"><ele>390.87</ele><time>2025-10-25T02:18:27.000Z</time></trkpt>
        <trkpt lat="28.2958131" lon="105.032699"><ele>389.63</ele><time>2025-10-25T02:18:35.000Z</time></trkpt>
        <trkpt lat="28.2958063" lon="105.0328227"><ele>388.59</ele><time>2025-10-25T02:18:45.000Z</time></trkpt>
        <trkpt lat="28.2958299" lon="105.032929"><ele>387.42</ele><time>2025-10-25T02:18:55.000Z</time></trkpt>
        <trkpt lat="28.2958679" lon="105.0330339"><ele>386.76</ele><time>2025-10-25T02:19:05.000Z</time></trkpt>
        <trkpt lat="28.2958997" lon="105.0331332"><ele>386.38</ele><time>2025-10-25T02:19:13.000Z</time></trkpt>
        <trkpt lat="28.2958935" lon="105.0332369"><ele>386.17</ele><time>2025-10-25T02:19:21.000Z</time></trkpt>
        <trkpt lat="28.2958935" lon="105.0332369"><ele>386.17</ele><time>2025-10-25T02:19:23.000Z</time></trkpt>
      </trkseg>
  </trk>
</gpx>